<?xml version='1.0' encoding='UTF-8'?><gpx version="1.1" creator="JPX - https://github.com/jenetics/jpx" xmlns="http://www.topografix.com/GPX/1/1"><trk><trkseg><trkpt lat="43.5473506" lon="11.0409743"><ele>72.66666666666666</ele><time>2026-03-29T14:48:04.425Z</time></trkpt><trkpt lat="43.5472389" lon="11.0406626"><ele>72.33333333333333</ele><time>2026-03-29T14:48:05.449Z</time></trkpt><trkpt lat="43.5471343" lon="11.040434"><ele>72.0</ele><time>2026-03-29T14:48:06.442Z</time></trkpt><trkpt lat="43.5470622" lon="11.0402756"><ele>71.8</ele><time>2026-03-29T14:48:07.452Z</time></trkpt><trkpt lat="43.5469608" lon="11.0400579"><ele>71.6</ele><time>2026-03-29T14:48:09.443Z</time></trkpt><trkpt lat="43.5469267" lon="11.0399797"><ele>71.39999999999999</ele><time>2026-03-29T14:48:10.471Z</time></trkpt><trkpt lat="43.5468959" lon="11.0399028"><ele>71.2</ele><time>2026-03-29T14:48:11.449Z</time></trkpt><trkpt lat="43.5468478" lon="11.0397638"><ele>71.0</ele><time>2026-03-29T14:48:13.473Z</time></trkpt><trkpt lat="43.5468135" lon="11.0396811"><ele>71.0</ele><time>2026-03-29T14:48:15.458Z</time></trkpt><trkpt lat="43.5467959" lon="11.0395903"><ele>71.0</ele><time>2026-03-29T14:48:19.448Z</time></trkpt><trkpt lat="43.546734" lon="11.0394804"><ele>71.0</ele><time>2026-03-29T14:48:24.454Z</time></trkpt><trkpt lat="43.5467058" lon="11.0393725"><ele>71.0</ele><time>2026-03-29T14:48:26.446Z</time></trkpt><trkpt lat="43.5466758" lon="11.0392538"><ele>71.0</ele><time>2026-03-29T14:48:28.445Z</time></trkpt><trkpt lat="43.5466573" lon="11.0391503"><ele>71.0</ele><time>2026-03-29T14:48:30.463Z</time></trkpt><trkpt lat="43.5466371" lon="11.0390392"><ele>71.0</ele><time>2026-03-29T14:48:33.486Z</time></trkpt><trkpt lat="43.5467064" lon="11.0389567"><ele>71.0</ele><time>2026-03-29T14:48:36.442Z</time></trkpt><trkpt lat="43.5468082" lon="11.0388989"><ele>71.0</ele><time>2026-03-29T14:48:38.447Z</time></trkpt><trkpt lat="43.5469136" lon="11.0388111"><ele>71.0</ele><time>2026-03-29T14:48:40.441Z</time></trkpt><trkpt lat="43.5470179" lon="11.0387546"><ele>71.0</ele><time>2026-03-29T14:48:42.446Z</time></trkpt><trkpt lat="43.547116" lon="11.0387009"><ele>71.0</ele><time>2026-03-29T14:48:44.446Z</time></trkpt><trkpt lat="43.5471834" lon="11.03867"><ele>71.0</ele><time>2026-03-29T14:48:46.44Z</time></trkpt><trkpt lat="43.5472391" lon="11.0386209"><ele>71.0</ele><time>2026-03-29T14:48:49.447Z</time></trkpt><trkpt lat="43.5475426" lon="11.0383946"><ele>71.0</ele><time>2026-03-29T14:49:21.485Z</time></trkpt><trkpt lat="43.547621" lon="11.0383402"><ele>71.0</ele><time>2026-03-29T14:49:22.473Z</time></trkpt><trkpt lat="43.5477047" lon="11.0382774"><ele>71.0</ele><time>2026-03-29T14:49:23.451Z</time></trkpt><trkpt lat="43.5477859" lon="11.0382213"><ele>71.0</ele><time>2026-03-29T14:49:24.473Z</time></trkpt><trkpt lat="43.5478648" lon="11.0381638"><ele>71.0</ele><time>2026-03-29T14:49:25.472Z</time></trkpt><trkpt lat="43.547944" lon="11.0381182"><ele>71.0</ele><time>2026-03-29T14:49:26.452Z</time></trkpt><trkpt lat="43.5480299" lon="11.0380589"><ele>71.0</ele><time>2026-03-29T14:49:27.444Z</time></trkpt><trkpt lat="43.5481201" lon="11.0379985"><ele>71.0</ele><time>2026-03-29T14:49:28.447Z</time></trkpt><trkpt lat="43.5482059" lon="11.0379446"><ele>71.0</ele><time>2026-03-29T14:49:29.449Z</time></trkpt><trkpt lat="43.5482985" lon="11.037901"><ele>71.0</ele><time>2026-03-29T14:49:30.452Z</time></trkpt><trkpt lat="43.5483858" lon="11.0378435"><ele>71.0</ele><time>2026-03-29T14:49:31.473Z</time></trkpt><trkpt lat="43.5484671" lon="11.0377793"><ele>71.0</ele><time>2026-03-29T14:49:32.448Z</time></trkpt><trkpt lat="43.5485354" lon="11.0377279"><ele>71.0</ele><time>2026-03-29T14:49:33.45Z</time></trkpt><trkpt lat="43.5485987" lon="11.0376893"><ele>71.0</ele><time>2026-03-29T14:49:34.447Z</time></trkpt><trkpt lat="43.5486566" lon="11.0376534"><ele>71.0</ele><time>2026-03-29T14:49:35.45Z</time></trkpt><trkpt lat="43.548742" lon="11.0376227"><ele>71.0</ele><time>2026-03-29T14:49:37.447Z</time></trkpt><trkpt lat="43.5488131" lon="11.0377882"><ele>71.0</ele><time>2026-03-29T14:49:40.444Z</time></trkpt><trkpt lat="43.5488513" lon="11.0379133"><ele>71.2</ele><time>2026-03-29T14:49:41.478Z</time></trkpt><trkpt lat="43.5488942" lon="11.0380591"><ele>71.39999999999999</ele><time>2026-03-29T14:49:42.473Z</time></trkpt><trkpt lat="43.5489333" lon="11.0382068"><ele>71.6</ele><time>2026-03-29T14:49:43.476Z</time></trkpt><trkpt lat="43.5489668" lon="11.0383577"><ele>71.8</ele><time>2026-03-29T14:49:44.446Z</time></trkpt><trkpt lat="43.5489961" lon="11.0384971"><ele>72.0</ele><time>2026-03-29T14:49:45.449Z</time></trkpt><trkpt lat="43.5490206" lon="11.0386202"><ele>72.00000000000001</ele><time>2026-03-29T14:49:46.442Z</time></trkpt><trkpt lat="43.5490433" lon="11.0387311"><ele>72.0</ele><time>2026-03-29T14:49:47.446Z</time></trkpt><trkpt lat="43.5490651" lon="11.0388294"><ele>72.0</ele><time>2026-03-29T14:49:48.447Z</time></trkpt><trkpt lat="43.5490902" lon="11.0389188"><ele>72.0</ele><time>2026-03-29T14:49:49.448Z</time></trkpt><trkpt lat="43.5491163" lon="11.0390019"><ele>72.0</ele><time>2026-03-29T14:49:50.443Z</time></trkpt><trkpt lat="43.5491385" lon="11.0390866"><ele>72.00000000000001</ele><time>2026-03-29T14:49:51.445Z</time></trkpt><trkpt lat="43.5491685" lon="11.0391781"><ele>72.0</ele><time>2026-03-29T14:49:52.472Z</time></trkpt><trkpt lat="43.5492104" lon="11.0392749"><ele>72.2</ele><time>2026-03-29T14:49:53.455Z</time></trkpt><trkpt lat="43.5492489" lon="11.0393861"><ele>72.4</ele><time>2026-03-29T14:49:54.453Z</time></trkpt><trkpt lat="43.5492876" lon="11.0395063"><ele>72.6</ele><time>2026-03-29T14:49:55.442Z</time></trkpt><trkpt lat="43.5493281" lon="11.0396324"><ele>72.8</ele><time>2026-03-29T14:49:56.444Z</time></trkpt><trkpt lat="43.5493634" lon="11.0397516"><ele>73.0</ele><time>2026-03-29T14:49:57.444Z</time></trkpt><trkpt lat="43.5493965" lon="11.0398623"><ele>73.0</ele><time>2026-03-29T14:49:58.473Z</time></trkpt><trkpt lat="43.5494303" lon="11.0399654"><ele>73.0</ele><time>2026-03-29T14:49:59.449Z</time></trkpt><trkpt lat="43.5494565" lon="11.0400515"><ele>73.0</ele><time>2026-03-29T14:50:00.443Z</time></trkpt><trkpt lat="43.5495009" lon="11.0401887"><ele>73.0</ele><time>2026-03-29T14:50:02.442Z</time></trkpt><trkpt lat="43.5495149" lon="11.040279"><ele>73.0</ele><time>2026-03-29T14:50:05.454Z</time></trkpt><trkpt lat="43.5495815" lon="11.0402312"><ele>73.0</ele><time>2026-03-29T14:50:07.444Z</time></trkpt><trkpt lat="43.5496351" lon="11.0401533"><ele>73.2</ele><time>2026-03-29T14:50:08.473Z</time></trkpt><trkpt lat="43.5496944" lon="11.0400497"><ele>73.4</ele><time>2026-03-29T14:50:09.48Z</time></trkpt><trkpt lat="43.5497508" lon="11.0399336"><ele>73.60000000000001</ele><time>2026-03-29T14:50:10.447Z</time></trkpt><trkpt lat="43.549796" lon="11.0398144"><ele>73.8</ele><time>2026-03-29T14:50:11.444Z</time></trkpt><trkpt lat="43.5498439" lon="11.0396854"><ele>74.0</ele><time>2026-03-29T14:50:12.443Z</time></trkpt><trkpt lat="43.5498948" lon="11.0395532"><ele>74.0</ele><time>2026-03-29T14:50:13.445Z</time></trkpt><trkpt lat="43.5499474" lon="11.0394277"><ele>74.0</ele><time>2026-03-29T14:50:14.478Z</time></trkpt><trkpt lat="43.5500035" lon="11.0393008"><ele>74.0</ele><time>2026-03-29T14:50:15.445Z</time></trkpt><trkpt lat="43.5500657" lon="11.0391698"><ele>74.0</ele><time>2026-03-29T14:50:16.448Z</time></trkpt><trkpt lat="43.5501317" lon="11.0390413"><ele>74.0</ele><time>2026-03-29T14:50:17.44Z</time></trkpt><trkpt lat="43.5502039" lon="11.0389109"><ele>73.5</ele><time>2026-03-29T14:50:18.448Z</time></trkpt><trkpt lat="43.5502758" lon="11.0387815"><ele>73.0</ele><time>2026-03-29T14:50:19.446Z</time></trkpt><trkpt lat="43.5503438" lon="11.0386519"><ele>72.5</ele><time>2026-03-29T14:50:20.445Z</time></trkpt><trkpt lat="43.550406" lon="11.0385215"><ele>72.0</ele><time>2026-03-29T14:50:21.439Z</time></trkpt><trkpt lat="43.5504673" lon="11.0383889"><ele>72.25</ele><time>2026-03-29T14:50:22.443Z</time></trkpt><trkpt lat="43.550527" lon="11.0382577"><ele>72.5</ele><time>2026-03-29T14:50:23.443Z</time></trkpt><trkpt lat="43.5505844" lon="11.0381177"><ele>72.75</ele><time>2026-03-29T14:50:24.443Z</time></trkpt><trkpt lat="43.5506403" lon="11.0379799"><ele>73.0</ele><time>2026-03-29T14:50:25.443Z</time></trkpt><trkpt lat="43.5506936" lon="11.0378524"><ele>73.0</ele><time>2026-03-29T14:50:26.437Z</time></trkpt><trkpt lat="43.5507544" lon="11.0377378"><ele>73.0</ele><time>2026-03-29T14:50:27.442Z</time></trkpt><trkpt lat="43.5508189" lon="11.0376261"><ele>73.0</ele><time>2026-03-29T14:50:28.44Z</time></trkpt><trkpt lat="43.5509057" lon="11.0375286"><ele>73.0</ele><time>2026-03-29T14:50:29.444Z</time></trkpt><trkpt lat="43.5509894" lon="11.037429"><ele>73.0</ele><time>2026-03-29T14:50:30.446Z</time></trkpt><trkpt lat="43.5510768" lon="11.0373437"><ele>72.6</ele><time>2026-03-29T14:50:31.474Z</time></trkpt><trkpt lat="43.5511636" lon="11.0372689"><ele>72.19999999999999</ele><time>2026-03-29T14:50:32.48Z</time></trkpt><trkpt lat="43.5512567" lon="11.0372045"><ele>71.8</ele><time>2026-03-29T14:50:33.445Z</time></trkpt><trkpt lat="43.5513509" lon="11.0371422"><ele>71.39999999999999</ele><time>2026-03-29T14:50:34.473Z</time></trkpt><trkpt lat="43.5514384" lon="11.0370854"><ele>71.0</ele><time>2026-03-29T14:50:35.444Z</time></trkpt><trkpt lat="43.5515267" lon="11.0370391"><ele>70.8</ele><time>2026-03-29T14:50:36.442Z</time></trkpt><trkpt lat="43.5516107" lon="11.0370009"><ele>70.6</ele><time>2026-03-29T14:50:37.476Z</time></trkpt><trkpt lat="43.5516962" lon="11.0369778"><ele>70.4</ele><time>2026-03-29T14:50:38.475Z</time></trkpt><trkpt lat="43.5517844" lon="11.0369596"><ele>70.2</ele><time>2026-03-29T14:50:39.443Z</time></trkpt><trkpt lat="43.5518846" lon="11.0369408"><ele>70.0</ele><time>2026-03-29T14:50:40.442Z</time></trkpt><trkpt lat="43.5519928" lon="11.0369325"><ele>69.75</ele><time>2026-03-29T14:50:41.446Z</time></trkpt><trkpt lat="43.5521173" lon="11.0369276"><ele>69.5</ele><time>2026-03-29T14:50:42.45Z</time></trkpt><trkpt lat="43.5522483" lon="11.0369437"><ele>69.25</ele><time>2026-03-29T14:50:43.442Z</time></trkpt><trkpt lat="43.5523831" lon="11.0369597"><ele>69.0</ele><time>2026-03-29T14:50:44.454Z</time></trkpt><trkpt lat="43.5525141" lon="11.0369794"><ele>69.0</ele><time>2026-03-29T14:50:45.444Z</time></trkpt><trkpt lat="43.5526385" lon="11.0369979"><ele>69.0</ele><time>2026-03-29T14:50:46.454Z</time></trkpt><trkpt lat="43.5527504" lon="11.0370126"><ele>69.0</ele><time>2026-03-29T14:50:47.449Z</time></trkpt><trkpt lat="43.5528562" lon="11.0370239"><ele>69.0</ele><time>2026-03-29T14:50:48.475Z</time></trkpt><trkpt lat="43.5529606" lon="11.0370128"><ele>69.0</ele><time>2026-03-29T14:50:49.443Z</time></trkpt><trkpt lat="43.5530632" lon="11.0369742"><ele>69.0</ele><time>2026-03-29T14:50:50.447Z</time></trkpt><trkpt lat="43.5531706" lon="11.0369177"><ele>69.0</ele><time>2026-03-29T14:50:51.476Z</time></trkpt><trkpt lat="43.5532825" lon="11.0368456"><ele>69.0</ele><time>2026-03-29T14:50:52.444Z</time></trkpt><trkpt lat="43.5533992" lon="11.0367724"><ele>69.0</ele><time>2026-03-29T14:50:53.446Z</time></trkpt><trkpt lat="43.5535192" lon="11.0367088"><ele>69.0</ele><time>2026-03-29T14:50:54.454Z</time></trkpt><trkpt lat="43.5536362" lon="11.0366435"><ele>69.0</ele><time>2026-03-29T14:50:55.441Z</time></trkpt><trkpt lat="43.5537476" lon="11.0365649"><ele>69.0</ele><time>2026-03-29T14:50:56.442Z</time></trkpt><trkpt lat="43.5538621" lon="11.0365079"><ele>69.0</ele><time>2026-03-29T14:50:57.445Z</time></trkpt><trkpt lat="43.5539785" lon="11.0364503"><ele>68.5</ele><time>2026-03-29T14:50:58.453Z</time></trkpt><trkpt lat="43.5540956" lon="11.0363855"><ele>68.0</ele><time>2026-03-29T14:50:59.45Z</time></trkpt><trkpt lat="43.5542164" lon="11.0363184"><ele>67.5</ele><time>2026-03-29T14:51:00.447Z</time></trkpt><trkpt lat="43.5543412" lon="11.0362497"><ele>67.0</ele><time>2026-03-29T14:51:01.446Z</time></trkpt><trkpt lat="43.5544657" lon="11.0361741"><ele>67.25</ele><time>2026-03-29T14:51:02.445Z</time></trkpt><trkpt lat="43.5545874" lon="11.0360943"><ele>67.5</ele><time>2026-03-29T14:51:03.445Z</time></trkpt><trkpt lat="43.5547055" lon="11.0360097"><ele>67.75</ele><time>2026-03-29T14:51:04.443Z</time></trkpt><trkpt lat="43.5548198" lon="11.0359313"><ele>68.0</ele><time>2026-03-29T14:51:05.445Z</time></trkpt><trkpt lat="43.5549324" lon="11.0358623"><ele>67.75</ele><time>2026-03-29T14:51:06.475Z</time></trkpt><trkpt lat="43.5550438" lon="11.0357924"><ele>67.5</ele><time>2026-03-29T14:51:07.447Z</time></trkpt><trkpt lat="43.5551494" lon="11.0357211"><ele>67.25</ele><time>2026-03-29T14:51:08.456Z</time></trkpt><trkpt lat="43.5552605" lon="11.0356491"><ele>67.0</ele><time>2026-03-29T14:51:09.45Z</time></trkpt><trkpt lat="43.5553669" lon="11.0355751"><ele>67.0</ele><time>2026-03-29T14:51:10.478Z</time></trkpt><trkpt lat="43.555469" lon="11.0355059"><ele>67.0</ele><time>2026-03-29T14:51:11.447Z</time></trkpt><trkpt lat="43.5555634" lon="11.0354394"><ele>67.0</ele><time>2026-03-29T14:51:12.446Z</time></trkpt><trkpt lat="43.5556463" lon="11.0353791"><ele>67.0</ele><time>2026-03-29T14:51:13.444Z</time></trkpt><trkpt lat="43.5557236" lon="11.0353256"><ele>67.0</ele><time>2026-03-29T14:51:14.448Z</time></trkpt><trkpt lat="43.5557936" lon="11.0352738"><ele>67.0</ele><time>2026-03-29T14:51:15.457Z</time></trkpt><trkpt lat="43.5558514" lon="11.0352301"><ele>67.0</ele><time>2026-03-29T14:51:16.445Z</time></trkpt><trkpt lat="43.5559411" lon="11.0351654"><ele>67.0</ele><time>2026-03-29T14:51:18.449Z</time></trkpt><trkpt lat="43.5560098" lon="11.0351222"><ele>67.0</ele><time>2026-03-29T14:51:20.447Z</time></trkpt><trkpt lat="43.5560479" lon="11.03502"><ele>67.0</ele><time>2026-03-29T14:51:33.468Z</time></trkpt><trkpt lat="43.5561731" lon="11.0349235"><ele>66.5</ele><time>2026-03-29T14:51:35.478Z</time></trkpt><trkpt lat="43.5562477" lon="11.0348606"><ele>66.0</ele><time>2026-03-29T14:51:36.459Z</time></trkpt><trkpt lat="43.5563406" lon="11.0347779"><ele>65.5</ele><time>2026-03-29T14:51:37.446Z</time></trkpt><trkpt lat="43.5564426" lon="11.0346866"><ele>65.0</ele><time>2026-03-29T14:51:38.483Z</time></trkpt><trkpt lat="43.5565521" lon="11.0345878"><ele>65.0</ele><time>2026-03-29T14:51:39.456Z</time></trkpt><trkpt lat="43.5566712" lon="11.0344844"><ele>65.0</ele><time>2026-03-29T14:51:40.453Z</time></trkpt><trkpt lat="43.5567992" lon="11.0343825"><ele>65.0</ele><time>2026-03-29T14:51:41.459Z</time></trkpt><trkpt lat="43.5569319" lon="11.0342822"><ele>65.0</ele><time>2026-03-29T14:51:42.492Z</time></trkpt><trkpt lat="43.5570574" lon="11.0341797"><ele>65.0</ele><time>2026-03-29T14:51:43.455Z</time></trkpt><trkpt lat="43.5571807" lon="11.0340753"><ele>65.0</ele><time>2026-03-29T14:51:44.445Z</time></trkpt><trkpt lat="43.5573012" lon="11.0339707"><ele>65.0</ele><time>2026-03-29T14:51:45.455Z</time></trkpt><trkpt lat="43.5574224" lon="11.0338622"><ele>65.0</ele><time>2026-03-29T14:51:46.474Z</time></trkpt><trkpt lat="43.5575434" lon="11.0337514"><ele>65.0</ele><time>2026-03-29T14:51:47.443Z</time></trkpt><trkpt lat="43.5576648" lon="11.0336345"><ele>65.0</ele><time>2026-03-29T14:51:48.45Z</time></trkpt><trkpt lat="43.557788" lon="11.0335124"><ele>65.0</ele><time>2026-03-29T14:51:49.456Z</time></trkpt><trkpt lat="43.5579076" lon="11.0333869"><ele>64.66666666666667</ele><time>2026-03-29T14:51:50.454Z</time></trkpt><trkpt lat="43.5580302" lon="11.0332602"><ele>64.33333333333333</ele><time>2026-03-29T14:51:51.465Z</time></trkpt><trkpt lat="43.5581538" lon="11.0331422"><ele>64.0</ele><time>2026-03-29T14:51:52.46Z</time></trkpt><trkpt lat="43.5582819" lon="11.0330312"><ele>64.0</ele><time>2026-03-29T14:51:53.478Z</time></trkpt><trkpt lat="43.5584079" lon="11.0329252"><ele>64.0</ele><time>2026-03-29T14:51:54.482Z</time></trkpt><trkpt lat="43.5585354" lon="11.0328234"><ele>64.0</ele><time>2026-03-29T14:51:55.493Z</time></trkpt><trkpt lat="43.5586649" lon="11.0327263"><ele>64.0</ele><time>2026-03-29T14:51:56.452Z</time></trkpt><trkpt lat="43.5587906" lon="11.0326377"><ele>64.0</ele><time>2026-03-29T14:51:57.457Z</time></trkpt><trkpt lat="43.5589071" lon="11.0325604"><ele>64.0</ele><time>2026-03-29T14:51:58.479Z</time></trkpt><trkpt lat="43.5590145" lon="11.0324908"><ele>64.0</ele><time>2026-03-29T14:51:59.464Z</time></trkpt><trkpt lat="43.5591134" lon="11.0324259"><ele>64.0</ele><time>2026-03-29T14:52:00.444Z</time></trkpt><trkpt lat="43.5592027" lon="11.0323728"><ele>64.0</ele><time>2026-03-29T14:52:01.456Z</time></trkpt><trkpt lat="43.5592904" lon="11.0323295"><ele>64.0</ele><time>2026-03-29T14:52:02.448Z</time></trkpt><trkpt lat="43.5593769" lon="11.0323073"><ele>64.0</ele><time>2026-03-29T14:52:03.462Z</time></trkpt><trkpt lat="43.5594604" lon="11.0323056"><ele>64.0</ele><time>2026-03-29T14:52:04.451Z</time></trkpt><trkpt lat="43.5595503" lon="11.0323126"><ele>64.0</ele><time>2026-03-29T14:52:05.45Z</time></trkpt><trkpt lat="43.5596503" lon="11.0323054"><ele>64.33333333333333</ele><time>2026-03-29T14:52:06.452Z</time></trkpt><trkpt lat="43.5597496" lon="11.0322793"><ele>64.66666666666666</ele><time>2026-03-29T14:52:07.462Z</time></trkpt><trkpt lat="43.5598431" lon="11.0322522"><ele>65.0</ele><time>2026-03-29T14:52:08.485Z</time></trkpt><trkpt lat="43.5599265" lon="11.0322349"><ele>65.33333333333333</ele><time>2026-03-29T14:52:09.449Z</time></trkpt><trkpt lat="43.5599944" lon="11.0322513"><ele>65.66666666666667</ele><time>2026-03-29T14:52:10.447Z</time></trkpt><trkpt lat="43.5600511" lon="11.0323051"><ele>66.0</ele><time>2026-03-29T14:52:11.453Z</time></trkpt><trkpt lat="43.560098" lon="11.0324005"><ele>66.0</ele><time>2026-03-29T14:52:12.447Z</time></trkpt><trkpt lat="43.5601294" lon="11.032528"><ele>66.0</ele><time>2026-03-29T14:52:13.448Z</time></trkpt><trkpt lat="43.5601542" lon="11.032677"><ele>66.0</ele><time>2026-03-29T14:52:14.453Z</time></trkpt><trkpt lat="43.5601822" lon="11.0328199"><ele>66.0</ele><time>2026-03-29T14:52:15.45Z</time></trkpt><trkpt lat="43.5602148" lon="11.0329602"><ele>66.0</ele><time>2026-03-29T14:52:16.469Z</time></trkpt><trkpt lat="43.5602504" lon="11.0331034"><ele>66.0</ele><time>2026-03-29T14:52:17.454Z</time></trkpt><trkpt lat="43.5602878" lon="11.0332556"><ele>66.0</ele><time>2026-03-29T14:52:18.452Z</time></trkpt><trkpt lat="43.5603319" lon="11.0334095"><ele>66.0</ele><time>2026-03-29T14:52:19.446Z</time></trkpt><trkpt lat="43.5603747" lon="11.0335688"><ele>66.0</ele><time>2026-03-29T14:52:20.461Z</time></trkpt><trkpt lat="43.5604169" lon="11.033733"><ele>66.0</ele><time>2026-03-29T14:52:21.447Z</time></trkpt><trkpt lat="43.5604631" lon="11.0338944"><ele>66.0</ele><time>2026-03-29T14:52:22.448Z</time></trkpt><trkpt lat="43.5605097" lon="11.0340522"><ele>66.0</ele><time>2026-03-29T14:52:23.457Z</time></trkpt><trkpt lat="43.5605575" lon="11.0342124"><ele>66.0</ele><time>2026-03-29T14:52:24.482Z</time></trkpt><trkpt lat="43.5606086" lon="11.0343797"><ele>66.5</ele><time>2026-03-29T14:52:25.445Z</time></trkpt><trkpt lat="43.5606605" lon="11.0345534"><ele>67.0</ele><time>2026-03-29T14:52:26.494Z</time></trkpt><trkpt lat="43.5607144" lon="11.0347308"><ele>67.5</ele><time>2026-03-29T14:52:27.456Z</time></trkpt><trkpt lat="43.5607662" lon="11.0349061"><ele>68.0</ele><time>2026-03-29T14:52:28.447Z</time></trkpt><trkpt lat="43.5608165" lon="11.0350762"><ele>68.0</ele><time>2026-03-29T14:52:29.451Z</time></trkpt><trkpt lat="43.5608654" lon="11.035238"><ele>68.0</ele><time>2026-03-29T14:52:30.46Z</time></trkpt><trkpt lat="43.5609121" lon="11.035393"><ele>68.0</ele><time>2026-03-29T14:52:31.455Z</time></trkpt><trkpt lat="43.560954" lon="11.0355367"><ele>68.0</ele><time>2026-03-29T14:52:32.463Z</time></trkpt><trkpt lat="43.5609885" lon="11.03566"><ele>68.0</ele><time>2026-03-29T14:52:33.461Z</time></trkpt><trkpt lat="43.5610124" lon="11.0357572"><ele>68.0</ele><time>2026-03-29T14:52:34.454Z</time></trkpt><trkpt lat="43.5610359" lon="11.035876"><ele>68.0</ele><time>2026-03-29T14:52:36.472Z</time></trkpt><trkpt lat="43.5610471" lon="11.035991"><ele>68.0</ele><time>2026-03-29T14:52:40.446Z</time></trkpt><trkpt lat="43.5610897" lon="11.036088"><ele>68.0</ele><time>2026-03-29T14:52:42.452Z</time></trkpt><trkpt lat="43.5611918" lon="11.0361371"><ele>68.0</ele><time>2026-03-29T14:52:44.454Z</time></trkpt><trkpt lat="43.5612657" lon="11.0361355"><ele>67.8</ele><time>2026-03-29T14:52:45.487Z</time></trkpt><trkpt lat="43.5613638" lon="11.0361234"><ele>67.6</ele><time>2026-03-29T14:52:46.457Z</time></trkpt><trkpt lat="43.5614647" lon="11.0360983"><ele>67.4</ele><time>2026-03-29T14:52:47.474Z</time></trkpt><trkpt lat="43.5615785" lon="11.0360686"><ele>67.2</ele><time>2026-03-29T14:52:48.48Z</time></trkpt><trkpt lat="43.5617071" lon="11.036038"><ele>67.0</ele><time>2026-03-29T14:52:49.444Z</time></trkpt><trkpt lat="43.5618407" lon="11.0360062"><ele>67.0</ele><time>2026-03-29T14:52:50.45Z</time></trkpt><trkpt lat="43.5619693" lon="11.0359775"><ele>67.0</ele><time>2026-03-29T14:52:51.455Z</time></trkpt><trkpt lat="43.5620902" lon="11.0359528"><ele>67.0</ele><time>2026-03-29T14:52:52.452Z</time></trkpt><trkpt lat="43.5621963" lon="11.035947"><ele>67.0</ele><time>2026-03-29T14:52:53.454Z</time></trkpt><trkpt lat="43.5622897" lon="11.0359776"><ele>67.4</ele><time>2026-03-29T14:52:54.457Z</time></trkpt><trkpt lat="43.5623647" lon="11.036053"><ele>67.80000000000001</ele><time>2026-03-29T14:52:55.455Z</time></trkpt><trkpt lat="43.5624381" lon="11.0361653"><ele>68.2</ele><time>2026-03-29T14:52:56.448Z</time></trkpt><trkpt lat="43.5625019" lon="11.0363024"><ele>68.60000000000001</ele><time>2026-03-29T14:52:57.448Z</time></trkpt><trkpt lat="43.5625532" lon="11.0364554"><ele>69.0</ele><time>2026-03-29T14:52:58.493Z</time></trkpt><trkpt lat="43.5626011" lon="11.0366128"><ele>69.25</ele><time>2026-03-29T14:52:59.457Z</time></trkpt><trkpt lat="43.5626441" lon="11.0367868"><ele>69.5</ele><time>2026-03-29T14:53:00.478Z</time></trkpt><trkpt lat="43.5626903" lon="11.0369634"><ele>69.75</ele><time>2026-03-29T14:53:01.446Z</time></trkpt><trkpt lat="43.562729" lon="11.0371442"><ele>70.0</ele><time>2026-03-29T14:53:02.477Z</time></trkpt><trkpt lat="43.5627552" lon="11.0373319"><ele>70.0</ele><time>2026-03-29T14:53:03.461Z</time></trkpt><trkpt lat="43.5627795" lon="11.0375238"><ele>70.0</ele><time>2026-03-29T14:53:04.449Z</time></trkpt><trkpt lat="43.5628158" lon="11.0377145"><ele>70.0</ele><time>2026-03-29T14:53:05.441Z</time></trkpt><trkpt lat="43.5628655" lon="11.0378995"><ele>70.0</ele><time>2026-03-29T14:53:06.455Z</time></trkpt><trkpt lat="43.5629313" lon="11.0380735"><ele>72.66666666666666</ele><time>2026-03-29T14:53:07.452Z</time></trkpt><trkpt lat="43.5630094" lon="11.0382415"><ele>75.33333333333333</ele><time>2026-03-29T14:53:08.458Z</time></trkpt><trkpt lat="43.5630951" lon="11.0384109"><ele>78.0</ele><time>2026-03-29T14:53:09.45Z</time></trkpt><trkpt lat="43.5631861" lon="11.0385862"><ele>78.0</ele><time>2026-03-29T14:53:10.449Z</time></trkpt><trkpt lat="43.5632725" lon="11.0387749"><ele>78.0</ele><time>2026-03-29T14:53:11.449Z</time></trkpt><trkpt lat="43.5633579" lon="11.038972"><ele>78.0</ele><time>2026-03-29T14:53:12.488Z</time></trkpt><trkpt lat="43.5634395" lon="11.0391675"><ele>75.66666666666667</ele><time>2026-03-29T14:53:13.449Z</time></trkpt><trkpt lat="43.5635164" lon="11.0393615"><ele>73.33333333333334</ele><time>2026-03-29T14:53:14.458Z</time></trkpt><trkpt lat="43.5635872" lon="11.0395527"><ele>71.0</ele><time>2026-03-29T14:53:15.453Z</time></trkpt><trkpt lat="43.5636543" lon="11.0397371"><ele>71.5</ele><time>2026-03-29T14:53:16.46Z</time></trkpt><trkpt lat="43.5637105" lon="11.039915"><ele>72.0</ele><time>2026-03-29T14:53:17.482Z</time></trkpt><trkpt lat="43.5637501" lon="11.0400931"><ele>72.5</ele><time>2026-03-29T14:53:18.455Z</time></trkpt><trkpt lat="43.5637676" lon="11.0402792"><ele>73.0</ele><time>2026-03-29T14:53:19.453Z</time></trkpt><trkpt lat="43.563767" lon="11.0404663"><ele>73.2</ele><time>2026-03-29T14:53:20.466Z</time></trkpt><trkpt lat="43.5637699" lon="11.040642"><ele>73.4</ele><time>2026-03-29T14:53:21.45Z</time></trkpt><trkpt lat="43.5637954" lon="11.0407856"><ele>73.60000000000001</ele><time>2026-03-29T14:53:22.453Z</time></trkpt><trkpt lat="43.5638523" lon="11.040896"><ele>73.8</ele><time>2026-03-29T14:53:23.453Z</time></trkpt><trkpt lat="43.5639533" lon="11.0409606"><ele>74.0</ele><time>2026-03-29T14:53:24.449Z</time></trkpt><trkpt lat="43.5640661" lon="11.0409873"><ele>74.0</ele><time>2026-03-29T14:53:25.451Z</time></trkpt><trkpt lat="43.5641919" lon="11.0409556"><ele>74.0</ele><time>2026-03-29T14:53:26.483Z</time></trkpt><trkpt lat="43.5643137" lon="11.0408742"><ele>74.0</ele><time>2026-03-29T14:53:27.462Z</time></trkpt><trkpt lat="43.5644311" lon="11.0407566"><ele>74.0</ele><time>2026-03-29T14:53:28.481Z</time></trkpt><trkpt lat="43.5645332" lon="11.0406306"><ele>74.5</ele><time>2026-03-29T14:53:29.488Z</time></trkpt><trkpt lat="43.5646284" lon="11.0405343"><ele>75.0</ele><time>2026-03-29T14:53:30.458Z</time></trkpt><trkpt lat="43.5647213" lon="11.0404693"><ele>75.5</ele><time>2026-03-29T14:53:31.448Z</time></trkpt><trkpt lat="43.5648295" lon="11.0404538"><ele>76.0</ele><time>2026-03-29T14:53:32.451Z</time></trkpt><trkpt lat="43.5649496" lon="11.0404976"><ele>76.0</ele><time>2026-03-29T14:53:33.449Z</time></trkpt><trkpt lat="43.5650835" lon="11.0405887"><ele>76.0</ele><time>2026-03-29T14:53:34.445Z</time></trkpt><trkpt lat="43.5652212" lon="11.0406959"><ele>76.0</ele><time>2026-03-29T14:53:35.454Z</time></trkpt><trkpt lat="43.5653619" lon="11.0408047"><ele>78.0</ele><time>2026-03-29T14:53:36.452Z</time></trkpt><trkpt lat="43.5654936" lon="11.0409065"><ele>80.0</ele><time>2026-03-29T14:53:37.483Z</time></trkpt><trkpt lat="43.565617" lon="11.0409959"><ele>82.0</ele><time>2026-03-29T14:53:38.449Z</time></trkpt><trkpt lat="43.5657315" lon="11.0410758"><ele>84.0</ele><time>2026-03-29T14:53:39.499Z</time></trkpt><trkpt lat="43.5658288" lon="11.0411623"><ele>84.0</ele><time>2026-03-29T14:53:40.464Z</time></trkpt><trkpt lat="43.5658962" lon="11.0412634"><ele>84.0</ele><time>2026-03-29T14:53:41.441Z</time></trkpt><trkpt lat="43.5659161" lon="11.0413821"><ele>84.0</ele><time>2026-03-29T14:53:42.48Z</time></trkpt><trkpt lat="43.5658976" lon="11.041517"><ele>84.0</ele><time>2026-03-29T14:53:43.465Z</time></trkpt><trkpt lat="43.5658283" lon="11.0416228"><ele>84.0</ele><time>2026-03-29T14:53:44.483Z</time></trkpt><trkpt lat="43.5657232" lon="11.0417277"><ele>85.66666666666667</ele><time>2026-03-29T14:53:45.452Z</time></trkpt><trkpt lat="43.5655934" lon="11.0418273"><ele>87.33333333333334</ele><time>2026-03-29T14:53:46.479Z</time></trkpt><trkpt lat="43.5654559" lon="11.0419332"><ele>89.0</ele><time>2026-03-29T14:53:47.442Z</time></trkpt><trkpt lat="43.5653283" lon="11.0420443"><ele>89.0</ele><time>2026-03-29T14:53:48.447Z</time></trkpt><trkpt lat="43.5652107" lon="11.0421559"><ele>89.0</ele><time>2026-03-29T14:53:49.45Z</time></trkpt><trkpt lat="43.5651062" lon="11.0422599"><ele>89.0</ele><time>2026-03-29T14:53:50.441Z</time></trkpt><trkpt lat="43.5650058" lon="11.0423551"><ele>89.0</ele><time>2026-03-29T14:53:51.441Z</time></trkpt><trkpt lat="43.5649157" lon="11.0424489"><ele>89.80000000000001</ele><time>2026-03-29T14:53:52.473Z</time></trkpt><trkpt lat="43.5648674" lon="11.0425572"><ele>90.60000000000001</ele><time>2026-03-29T14:53:53.442Z</time></trkpt><trkpt lat="43.5648756" lon="11.0426829"><ele>91.4</ele><time>2026-03-29T14:53:54.444Z</time></trkpt><trkpt lat="43.5649244" lon="11.0427984"><ele>92.2</ele><time>2026-03-29T14:53:55.443Z</time></trkpt><trkpt lat="43.565007" lon="11.0428999"><ele>93.0</ele><time>2026-03-29T14:53:56.445Z</time></trkpt><trkpt lat="43.565118" lon="11.0429744"><ele>93.0</ele><time>2026-03-29T14:53:57.473Z</time></trkpt><trkpt lat="43.5652497" lon="11.0430338"><ele>93.0</ele><time>2026-03-29T14:53:58.478Z</time></trkpt><trkpt lat="43.5653872" lon="11.0430979"><ele>93.0</ele><time>2026-03-29T14:53:59.476Z</time></trkpt><trkpt lat="43.565524" lon="11.0431698"><ele>93.0</ele><time>2026-03-29T14:54:00.45Z</time></trkpt><trkpt lat="43.5656621" lon="11.0432445"><ele>96.0</ele><time>2026-03-29T14:54:01.442Z</time></trkpt><trkpt lat="43.5658046" lon="11.0433207"><ele>99.0</ele><time>2026-03-29T14:54:02.448Z</time></trkpt><trkpt lat="43.5659488" lon="11.0434005"><ele>102.0</ele><time>2026-03-29T14:54:03.441Z</time></trkpt><trkpt lat="43.5660999" lon="11.0434789"><ele>105.33333333333334</ele><time>2026-03-29T14:54:04.48Z</time></trkpt><trkpt lat="43.5662467" lon="11.0435554"><ele>108.66666666666667</ele><time>2026-03-29T14:54:05.484Z</time></trkpt><trkpt lat="43.5663861" lon="11.0436443"><ele>112.0</ele><time>2026-03-29T14:54:06.474Z</time></trkpt><trkpt lat="43.5665324" lon="11.0437354"><ele>112.0</ele><time>2026-03-29T14:54:07.444Z</time></trkpt><trkpt lat="43.5666828" lon="11.0438263"><ele>112.0</ele><time>2026-03-29T14:54:08.447Z</time></trkpt><trkpt lat="43.5668325" lon="11.0439251"><ele>112.0</ele><time>2026-03-29T14:54:09.446Z</time></trkpt><trkpt lat="43.5669827" lon="11.044023"><ele>111.66666666666667</ele><time>2026-03-29T14:54:10.447Z</time></trkpt><trkpt lat="43.5671325" lon="11.044118"><ele>111.33333333333334</ele><time>2026-03-29T14:54:11.454Z</time></trkpt><trkpt lat="43.5672814" lon="11.0442124"><ele>111.0</ele><time>2026-03-29T14:54:12.455Z</time></trkpt><trkpt lat="43.56743" lon="11.0443058"><ele>111.0</ele><time>2026-03-29T14:54:13.448Z</time></trkpt><trkpt lat="43.5675793" lon="11.0443984"><ele>111.0</ele><time>2026-03-29T14:54:14.448Z</time></trkpt><trkpt lat="43.5677284" lon="11.0444924"><ele>111.0</ele><time>2026-03-29T14:54:15.439Z</time></trkpt><trkpt lat="43.5678786" lon="11.0445875"><ele>113.0</ele><time>2026-03-29T14:54:16.442Z</time></trkpt><trkpt lat="43.5680254" lon="11.0446795"><ele>115.0</ele><time>2026-03-29T14:54:17.474Z</time></trkpt><trkpt lat="43.5681712" lon="11.0447582"><ele>117.0</ele><time>2026-03-29T14:54:18.447Z</time></trkpt><trkpt lat="43.5683182" lon="11.0448165"><ele>117.0</ele><time>2026-03-29T14:54:19.443Z</time></trkpt><trkpt lat="43.5684633" lon="11.0448498"><ele>117.0</ele><time>2026-03-29T14:54:20.446Z</time></trkpt><trkpt lat="43.5686123" lon="11.0448451"><ele>117.0</ele><time>2026-03-29T14:54:21.447Z</time></trkpt><trkpt lat="43.5687682" lon="11.0448008"><ele>114.0</ele><time>2026-03-29T14:54:22.474Z</time></trkpt><trkpt lat="43.5689243" lon="11.0447217"><ele>111.0</ele><time>2026-03-29T14:54:23.448Z</time></trkpt><trkpt lat="43.5690745" lon="11.0446075"><ele>108.0</ele><time>2026-03-29T14:54:24.45Z</time></trkpt><trkpt lat="43.5692196" lon="11.0444652"><ele>108.0</ele><time>2026-03-29T14:54:25.47Z</time></trkpt><trkpt lat="43.5693638" lon="11.0443215"><ele>108.0</ele><time>2026-03-29T14:54:26.443Z</time></trkpt><trkpt lat="43.5695004" lon="11.0441823"><ele>108.0</ele><time>2026-03-29T14:54:27.478Z</time></trkpt><trkpt lat="43.5696363" lon="11.0440407"><ele>105.33333333333334</ele><time>2026-03-29T14:54:28.446Z</time></trkpt><trkpt lat="43.5697704" lon="11.0438963"><ele>102.66666666666667</ele><time>2026-03-29T14:54:29.44Z</time></trkpt><trkpt lat="43.5699064" lon="11.0437564"><ele>100.0</ele><time>2026-03-29T14:54:30.443Z</time></trkpt><trkpt lat="43.5700431" lon="11.0436238"><ele>100.0</ele><time>2026-03-29T14:54:31.445Z</time></trkpt><trkpt lat="43.5701753" lon="11.0434989"><ele>100.0</ele><time>2026-03-29T14:54:32.447Z</time></trkpt><trkpt lat="43.5702999" lon="11.0433919"><ele>100.0</ele><time>2026-03-29T14:54:33.452Z</time></trkpt><trkpt lat="43.5704241" lon="11.043306"><ele>100.0</ele><time>2026-03-29T14:54:34.447Z</time></trkpt><trkpt lat="43.5705643" lon="11.0432375"><ele>100.33333333333334</ele><time>2026-03-29T14:54:35.448Z</time></trkpt><trkpt lat="43.570724" lon="11.0431872"><ele>100.66666666666666</ele><time>2026-03-29T14:54:36.45Z</time></trkpt><trkpt lat="43.5708904" lon="11.0431644"><ele>101.0</ele><time>2026-03-29T14:54:37.451Z</time></trkpt><trkpt lat="43.5710468" lon="11.0431582"><ele>98.75</ele><time>2026-03-29T14:54:38.445Z</time></trkpt><trkpt lat="43.5711933" lon="11.0431546"><ele>96.5</ele><time>2026-03-29T14:54:39.452Z</time></trkpt><trkpt lat="43.5713294" lon="11.0431407"><ele>94.25</ele><time>2026-03-29T14:54:40.44Z</time></trkpt><trkpt lat="43.5714499" lon="11.0431004"><ele>92.0</ele><time>2026-03-29T14:54:41.453Z</time></trkpt><trkpt lat="43.5715584" lon="11.0430243"><ele>92.0</ele><time>2026-03-29T14:54:42.445Z</time></trkpt><trkpt lat="43.571657" lon="11.0429137"><ele>92.0</ele><time>2026-03-29T14:54:43.447Z</time></trkpt><trkpt lat="43.5717294" lon="11.0427634"><ele>92.0</ele><time>2026-03-29T14:54:44.451Z</time></trkpt><trkpt lat="43.5717893" lon="11.0426156"><ele>92.0</ele><time>2026-03-29T14:54:45.44Z</time></trkpt><trkpt lat="43.5718608" lon="11.0425019"><ele>93.0</ele><time>2026-03-29T14:54:46.474Z</time></trkpt><trkpt lat="43.571951" lon="11.0424348"><ele>94.0</ele><time>2026-03-29T14:54:47.446Z</time></trkpt><trkpt lat="43.5720723" lon="11.0424111"><ele>95.0</ele><time>2026-03-29T14:54:48.45Z</time></trkpt><trkpt lat="43.5722295" lon="11.0424014"><ele>96.0</ele><time>2026-03-29T14:54:49.443Z</time></trkpt><trkpt lat="43.5723744" lon="11.042435"><ele>93.33333333333333</ele><time>2026-03-29T14:54:50.446Z</time></trkpt><trkpt lat="43.5725302" lon="11.0424782"><ele>90.66666666666666</ele><time>2026-03-29T14:54:51.452Z</time></trkpt><trkpt lat="43.5726932" lon="11.0425247"><ele>88.0</ele><time>2026-03-29T14:54:52.453Z</time></trkpt><trkpt lat="43.5728523" lon="11.0425666"><ele>89.0</ele><time>2026-03-29T14:54:53.447Z</time></trkpt><trkpt lat="43.5730116" lon="11.0426123"><ele>90.0</ele><time>2026-03-29T14:54:54.456Z</time></trkpt><trkpt lat="43.5731789" lon="11.0426496"><ele>91.0</ele><time>2026-03-29T14:54:55.447Z</time></trkpt><trkpt lat="43.5733474" lon="11.0426851"><ele>91.0</ele><time>2026-03-29T14:54:56.459Z</time></trkpt><trkpt lat="43.5735094" lon="11.042726"><ele>91.0</ele><time>2026-03-29T14:54:57.443Z</time></trkpt><trkpt lat="43.5736667" lon="11.0427645"><ele>91.0</ele><time>2026-03-29T14:54:58.447Z</time></trkpt><trkpt lat="43.5738256" lon="11.0427951"><ele>90.0</ele><time>2026-03-29T14:54:59.45Z</time></trkpt><trkpt lat="43.5739873" lon="11.042826"><ele>89.0</ele><time>2026-03-29T14:55:00.452Z</time></trkpt><trkpt lat="43.5741445" lon="11.0428616"><ele>88.0</ele><time>2026-03-29T14:55:01.447Z</time></trkpt><trkpt lat="43.5743002" lon="11.0428989"><ele>88.0</ele><time>2026-03-29T14:55:02.45Z</time></trkpt><trkpt lat="43.5744503" lon="11.0429287"><ele>88.0</ele><time>2026-03-29T14:55:03.453Z</time></trkpt><trkpt lat="43.5745958" lon="11.0429541"><ele>88.0</ele><time>2026-03-29T14:55:04.448Z</time></trkpt><trkpt lat="43.5747362" lon="11.0429729"><ele>88.0</ele><time>2026-03-29T14:55:05.459Z</time></trkpt><trkpt lat="43.5748692" lon="11.043003"><ele>86.75</ele><time>2026-03-29T14:55:06.454Z</time></trkpt><trkpt lat="43.5749883" lon="11.0430689"><ele>85.5</ele><time>2026-03-29T14:55:07.451Z</time></trkpt><trkpt lat="43.5750985" lon="11.0431816"><ele>84.25</ele><time>2026-03-29T14:55:08.449Z</time></trkpt><trkpt lat="43.5751943" lon="11.0433318"><ele>83.0</ele><time>2026-03-29T14:55:09.445Z</time></trkpt><trkpt lat="43.5752758" lon="11.0434833"><ele>83.25</ele><time>2026-03-29T14:55:10.445Z</time></trkpt><trkpt lat="43.5753573" lon="11.0435983"><ele>83.5</ele><time>2026-03-29T14:55:11.475Z</time></trkpt><trkpt lat="43.5754537" lon="11.0436594"><ele>83.75</ele><time>2026-03-29T14:55:12.45Z</time></trkpt><trkpt lat="43.5755691" lon="11.043666"><ele>84.0</ele><time>2026-03-29T14:55:13.443Z</time></trkpt><trkpt lat="43.5757009" lon="11.0436092"><ele>84.0</ele><time>2026-03-29T14:55:14.449Z</time></trkpt><trkpt lat="43.5758323" lon="11.0434865"><ele>84.0</ele><time>2026-03-29T14:55:15.441Z</time></trkpt><trkpt lat="43.5759643" lon="11.0433471"><ele>84.0</ele><time>2026-03-29T14:55:16.45Z</time></trkpt><trkpt lat="43.5760973" lon="11.0432173"><ele>85.0</ele><time>2026-03-29T14:55:17.448Z</time></trkpt><trkpt lat="43.5762308" lon="11.0430953"><ele>86.0</ele><time>2026-03-29T14:55:18.447Z</time></trkpt><trkpt lat="43.5763544" lon="11.0429734"><ele>87.0</ele><time>2026-03-29T14:55:19.443Z</time></trkpt><trkpt lat="43.5764685" lon="11.0428382"><ele>87.0</ele><time>2026-03-29T14:55:20.441Z</time></trkpt><trkpt lat="43.5765661" lon="11.0426712"><ele>87.0</ele><time>2026-03-29T14:55:21.448Z</time></trkpt><trkpt lat="43.5766412" lon="11.0424809"><ele>87.0</ele><time>2026-03-29T14:55:22.447Z</time></trkpt><trkpt lat="43.5766985" lon="11.0422846"><ele>85.33333333333333</ele><time>2026-03-29T14:55:23.447Z</time></trkpt><trkpt lat="43.5767547" lon="11.0420903"><ele>83.66666666666666</ele><time>2026-03-29T14:55:24.448Z</time></trkpt><trkpt lat="43.5768287" lon="11.041904"><ele>82.0</ele><time>2026-03-29T14:55:25.449Z</time></trkpt><trkpt lat="43.5769254" lon="11.0417359"><ele>82.0</ele><time>2026-03-29T14:55:26.443Z</time></trkpt><trkpt lat="43.5770366" lon="11.0415745"><ele>82.0</ele><time>2026-03-29T14:55:27.449Z</time></trkpt><trkpt lat="43.5771578" lon="11.0414203"><ele>82.0</ele><time>2026-03-29T14:55:28.445Z</time></trkpt><trkpt lat="43.5772891" lon="11.0412758"><ele>82.0</ele><time>2026-03-29T14:55:29.473Z</time></trkpt><trkpt lat="43.5774265" lon="11.041135"><ele>82.0</ele><time>2026-03-29T14:55:30.474Z</time></trkpt><trkpt lat="43.5775656" lon="11.0409961"><ele>82.0</ele><time>2026-03-29T14:55:31.441Z</time></trkpt><trkpt lat="43.5777035" lon="11.0408593"><ele>81.33333333333333</ele><time>2026-03-29T14:55:32.444Z</time></trkpt><trkpt lat="43.5778352" lon="11.0407252"><ele>80.66666666666667</ele><time>2026-03-29T14:55:33.445Z</time></trkpt><trkpt lat="43.5779665" lon="11.0405946"><ele>80.0</ele><time>2026-03-29T14:55:34.475Z</time></trkpt><trkpt lat="43.578097" lon="11.0404698"><ele>80.0</ele><time>2026-03-29T14:55:35.446Z</time></trkpt><trkpt lat="43.5782308" lon="11.0403561"><ele>80.0</ele><time>2026-03-29T14:55:36.446Z</time></trkpt><trkpt lat="43.5783677" lon="11.0402544"><ele>80.0</ele><time>2026-03-29T14:55:37.441Z</time></trkpt><trkpt lat="43.578514" lon="11.0401767"><ele>80.0</ele><time>2026-03-29T14:55:38.444Z</time></trkpt><trkpt lat="43.5786697" lon="11.0401183"><ele>80.0</ele><time>2026-03-29T14:55:39.443Z</time></trkpt><trkpt lat="43.5788336" lon="11.0400755"><ele>80.0</ele><time>2026-03-29T14:55:40.47Z</time></trkpt><trkpt lat="43.5790039" lon="11.0400485"><ele>79.66666666666667</ele><time>2026-03-29T14:55:41.443Z</time></trkpt><trkpt lat="43.5791799" lon="11.0400332"><ele>79.33333333333333</ele><time>2026-03-29T14:55:42.473Z</time></trkpt><trkpt lat="43.5793576" lon="11.0400139"><ele>79.0</ele><time>2026-03-29T14:55:43.453Z</time></trkpt><trkpt lat="43.5795298" lon="11.0399791"><ele>78.33333333333333</ele><time>2026-03-29T14:55:44.466Z</time></trkpt><trkpt lat="43.5797056" lon="11.0399271"><ele>77.66666666666667</ele><time>2026-03-29T14:55:45.446Z</time></trkpt><trkpt lat="43.5798841" lon="11.0398689"><ele>77.0</ele><time>2026-03-29T14:55:46.446Z</time></trkpt><trkpt lat="43.5800513" lon="11.0397998"><ele>77.0</ele><time>2026-03-29T14:55:47.444Z</time></trkpt><trkpt lat="43.5802043" lon="11.0397086"><ele>77.0</ele><time>2026-03-29T14:55:48.446Z</time></trkpt><trkpt lat="43.5803474" lon="11.039595"><ele>77.0</ele><time>2026-03-29T14:55:49.446Z</time></trkpt><trkpt lat="43.5804779" lon="11.0394513"><ele>76.33333333333334</ele><time>2026-03-29T14:55:50.474Z</time></trkpt><trkpt lat="43.5805997" lon="11.0392935"><ele>75.66666666666667</ele><time>2026-03-29T14:55:51.443Z</time></trkpt><trkpt lat="43.5807176" lon="11.0391252"><ele>75.0</ele><time>2026-03-29T14:55:52.446Z</time></trkpt><trkpt lat="43.5808411" lon="11.0389586"><ele>75.0</ele><time>2026-03-29T14:55:53.451Z</time></trkpt><trkpt lat="43.5809698" lon="11.0387977"><ele>75.0</ele><time>2026-03-29T14:55:54.448Z</time></trkpt><trkpt lat="43.5811032" lon="11.038643"><ele>75.0</ele><time>2026-03-29T14:55:55.441Z</time></trkpt><trkpt lat="43.5812384" lon="11.0384958"><ele>74.66666666666667</ele><time>2026-03-29T14:55:56.446Z</time></trkpt><trkpt lat="43.5813754" lon="11.038354"><ele>74.33333333333334</ele><time>2026-03-29T14:55:57.476Z</time></trkpt><trkpt lat="43.5815152" lon="11.0382125"><ele>74.0</ele><time>2026-03-29T14:55:58.442Z</time></trkpt><trkpt lat="43.5816544" lon="11.0380697"><ele>73.66666666666667</ele><time>2026-03-29T14:55:59.447Z</time></trkpt><trkpt lat="43.5817913" lon="11.0379272"><ele>73.33333333333333</ele><time>2026-03-29T14:56:00.474Z</time></trkpt><trkpt lat="43.5819266" lon="11.0377868"><ele>73.0</ele><time>2026-03-29T14:56:01.444Z</time></trkpt><trkpt lat="43.5820633" lon="11.0376471"><ele>73.66666666666666</ele><time>2026-03-29T14:56:02.47Z</time></trkpt><trkpt lat="43.5822014" lon="11.037507"><ele>74.33333333333333</ele><time>2026-03-29T14:56:03.445Z</time></trkpt><trkpt lat="43.5823416" lon="11.0373801"><ele>75.0</ele><time>2026-03-29T14:56:04.476Z</time></trkpt><trkpt lat="43.5824935" lon="11.0372827"><ele>75.33333333333333</ele><time>2026-03-29T14:56:05.444Z</time></trkpt><trkpt lat="43.5826503" lon="11.0371992"><ele>75.66666666666666</ele><time>2026-03-29T14:56:06.448Z</time></trkpt><trkpt lat="43.5828085" lon="11.037138"><ele>76.0</ele><time>2026-03-29T14:56:07.488Z</time></trkpt><trkpt lat="43.582965" lon="11.037083"><ele>76.0</ele><time>2026-03-29T14:56:08.444Z</time></trkpt><trkpt lat="43.583117" lon="11.0370052"><ele>76.0</ele><time>2026-03-29T14:56:09.474Z</time></trkpt><trkpt lat="43.5832611" lon="11.0368927"><ele>76.0</ele><time>2026-03-29T14:56:10.446Z</time></trkpt><trkpt lat="43.5834065" lon="11.0367568"><ele>74.66666666666666</ele><time>2026-03-29T14:56:11.445Z</time></trkpt><trkpt lat="43.5835482" lon="11.0365986"><ele>73.33333333333333</ele><time>2026-03-29T14:56:12.476Z</time></trkpt><trkpt lat="43.5836845" lon="11.0364227"><ele>72.0</ele><time>2026-03-29T14:56:13.445Z</time></trkpt><trkpt lat="43.5838071" lon="11.0362319"><ele>72.0</ele><time>2026-03-29T14:56:14.446Z</time></trkpt><trkpt lat="43.5839164" lon="11.0360324"><ele>72.0</ele><time>2026-03-29T14:56:15.447Z</time></trkpt><trkpt lat="43.584013" lon="11.0358261"><ele>72.0</ele><time>2026-03-29T14:56:16.471Z</time></trkpt><trkpt lat="43.5840972" lon="11.0356101"><ele>72.66666666666667</ele><time>2026-03-29T14:56:17.454Z</time></trkpt><trkpt lat="43.5841542" lon="11.0353836"><ele>73.33333333333334</ele><time>2026-03-29T14:56:18.474Z</time></trkpt><trkpt lat="43.5841985" lon="11.0351494"><ele>74.0</ele><time>2026-03-29T14:56:19.477Z</time></trkpt><trkpt lat="43.5842432" lon="11.0349152"><ele>76.33333333333334</ele><time>2026-03-29T14:56:20.437Z</time></trkpt><trkpt lat="43.5842989" lon="11.034681"><ele>78.66666666666667</ele><time>2026-03-29T14:56:21.444Z</time></trkpt><trkpt lat="43.5843669" lon="11.0344659"><ele>81.0</ele><time>2026-03-29T14:56:22.481Z</time></trkpt><trkpt lat="43.5844606" lon="11.0342638"><ele>79.33333333333333</ele><time>2026-03-29T14:56:23.475Z</time></trkpt><trkpt lat="43.5845696" lon="11.0340683"><ele>77.66666666666666</ele><time>2026-03-29T14:56:24.442Z</time></trkpt><trkpt lat="43.5846829" lon="11.0338804"><ele>76.0</ele><time>2026-03-29T14:56:25.448Z</time></trkpt><trkpt lat="43.5847905" lon="11.033712"><ele>76.0</ele><time>2026-03-29T14:56:26.453Z</time></trkpt><trkpt lat="43.5848923" lon="11.0335648"><ele>76.0</ele><time>2026-03-29T14:56:27.449Z</time></trkpt><trkpt lat="43.5849782" lon="11.0334348"><ele>76.0</ele><time>2026-03-29T14:56:28.472Z</time></trkpt><trkpt lat="43.5850419" lon="11.0333315"><ele>76.0</ele><time>2026-03-29T14:56:29.457Z</time></trkpt><trkpt lat="43.5850917" lon="11.0332626"><ele>76.0</ele><time>2026-03-29T14:56:30.479Z</time></trkpt><trkpt lat="43.5851525" lon="11.0332069"><ele>76.83333333333333</ele><time>2026-03-29T14:56:32.445Z</time></trkpt><trkpt lat="43.5851991" lon="11.0331422"><ele>77.66666666666666</ele><time>2026-03-29T14:56:49.45Z</time></trkpt><trkpt lat="43.5852779" lon="11.0330331"><ele>78.5</ele><time>2026-03-29T14:56:52.468Z</time></trkpt><trkpt lat="43.5853219" lon="11.0329547"><ele>79.33333333333333</ele><time>2026-03-29T14:56:53.444Z</time></trkpt><trkpt lat="43.5853739" lon="11.0328605"><ele>80.16666666666667</ele><time>2026-03-29T14:56:54.466Z</time></trkpt><trkpt lat="43.5854337" lon="11.0327462"><ele>81.0</ele><time>2026-03-29T14:56:55.464Z</time></trkpt><trkpt lat="43.5855033" lon="11.032613"><ele>79.0</ele><time>2026-03-29T14:56:56.447Z</time></trkpt><trkpt lat="43.585576" lon="11.0324765"><ele>77.0</ele><time>2026-03-29T14:56:57.487Z</time></trkpt><trkpt lat="43.5856559" lon="11.0323597"><ele>75.0</ele><time>2026-03-29T14:56:58.459Z</time></trkpt><trkpt lat="43.585739" lon="11.0322709"><ele>73.0</ele><time>2026-03-29T14:56:59.457Z</time></trkpt><trkpt lat="43.5858322" lon="11.0322158"><ele>71.0</ele><time>2026-03-29T14:57:00.495Z</time></trkpt><trkpt lat="43.5859503" lon="11.0321934"><ele>71.0</ele><time>2026-03-29T14:57:01.448Z</time></trkpt><trkpt lat="43.5860883" lon="11.0322088"><ele>71.0</ele><time>2026-03-29T14:57:02.458Z</time></trkpt><trkpt lat="43.5862216" lon="11.0322493"><ele>71.0</ele><time>2026-03-29T14:57:03.451Z</time></trkpt><trkpt lat="43.5863552" lon="11.032299"><ele>71.0</ele><time>2026-03-29T14:57:04.486Z</time></trkpt><trkpt lat="43.5864748" lon="11.0323391"><ele>70.83333333333334</ele><time>2026-03-29T14:57:05.442Z</time></trkpt><trkpt lat="43.586583" lon="11.0323615"><ele>70.66666666666667</ele><time>2026-03-29T14:57:06.458Z</time></trkpt><trkpt lat="43.5866687" lon="11.0323855"><ele>70.5</ele><time>2026-03-29T14:57:07.447Z</time></trkpt><trkpt lat="43.5867416" lon="11.0324073"><ele>70.33333333333333</ele><time>2026-03-29T14:57:08.488Z</time></trkpt><trkpt lat="43.5868106" lon="11.0324214"><ele>70.16666666666666</ele><time>2026-03-29T14:57:09.449Z</time></trkpt><trkpt lat="43.5868826" lon="11.0324345"><ele>70.0</ele><time>2026-03-29T14:57:10.463Z</time></trkpt><trkpt lat="43.586956" lon="11.0324446"><ele>69.83333333333333</ele><time>2026-03-29T14:57:11.5Z</time></trkpt><trkpt lat="43.5870282" lon="11.0324491"><ele>69.66666666666666</ele><time>2026-03-29T14:57:12.465Z</time></trkpt><trkpt lat="43.5870971" lon="11.032456"><ele>69.5</ele><time>2026-03-29T14:57:13.448Z</time></trkpt><trkpt lat="43.5871591" lon="11.0324804"><ele>69.33333333333333</ele><time>2026-03-29T14:57:14.459Z</time></trkpt><trkpt lat="43.5872198" lon="11.0325103"><ele>69.16666666666667</ele><time>2026-03-29T14:57:15.456Z</time></trkpt><trkpt lat="43.5873042" lon="11.0326145"><ele>69.0</ele><time>2026-03-29T14:57:17.579Z</time></trkpt><trkpt lat="43.5873188" lon="11.0327987"><ele>68.75</ele><time>2026-03-29T14:57:19.454Z</time></trkpt><trkpt lat="43.5873002" lon="11.0329263"><ele>68.5</ele><time>2026-03-29T14:57:20.474Z</time></trkpt><trkpt lat="43.5872754" lon="11.0330728"><ele>68.25</ele><time>2026-03-29T14:57:21.44Z</time></trkpt><trkpt lat="43.5872442" lon="11.0332376"><ele>68.0</ele><time>2026-03-29T14:57:22.447Z</time></trkpt><trkpt lat="43.587212" lon="11.0334134"><ele>68.75</ele><time>2026-03-29T14:57:23.468Z</time></trkpt><trkpt lat="43.5871853" lon="11.0335963"><ele>69.5</ele><time>2026-03-29T14:57:24.45Z</time></trkpt><trkpt lat="43.5871604" lon="11.0337787"><ele>70.25</ele><time>2026-03-29T14:57:25.456Z</time></trkpt><trkpt lat="43.5871385" lon="11.0339612"><ele>71.0</ele><time>2026-03-29T14:57:26.442Z</time></trkpt><trkpt lat="43.5871261" lon="11.0341357"><ele>72.5</ele><time>2026-03-29T14:57:27.45Z</time></trkpt><trkpt lat="43.5871308" lon="11.0342989"><ele>74.0</ele><time>2026-03-29T14:57:28.452Z</time></trkpt><trkpt lat="43.5871618" lon="11.0344662"><ele>75.5</ele><time>2026-03-29T14:57:29.449Z</time></trkpt><trkpt lat="43.58721" lon="11.0346285"><ele>77.0</ele><time>2026-03-29T14:57:30.447Z</time></trkpt><trkpt lat="43.5872546" lon="11.0347714"><ele>77.0</ele><time>2026-03-29T14:57:31.445Z</time></trkpt><trkpt lat="43.5872923" lon="11.0349043"><ele>77.0</ele><time>2026-03-29T14:57:32.44Z</time></trkpt><trkpt lat="43.5873278" lon="11.0350163"><ele>77.0</ele><time>2026-03-29T14:57:33.453Z</time></trkpt><trkpt lat="43.5873619" lon="11.0351186"><ele>77.0</ele><time>2026-03-29T14:57:34.444Z</time></trkpt><trkpt lat="43.5873941" lon="11.0352146"><ele>77.0</ele><time>2026-03-29T14:57:35.441Z</time></trkpt><trkpt lat="43.5874369" lon="11.0353035"><ele>77.0</ele><time>2026-03-29T14:57:36.473Z</time></trkpt><trkpt lat="43.587499" lon="11.035377"><ele>78.4</ele><time>2026-03-29T14:57:37.447Z</time></trkpt><trkpt lat="43.5875712" lon="11.0354524"><ele>79.80000000000001</ele><time>2026-03-29T14:57:38.449Z</time></trkpt><trkpt lat="43.5876354" lon="11.035559"><ele>81.2</ele><time>2026-03-29T14:57:39.449Z</time></trkpt><trkpt lat="43.5876853" lon="11.0357028"><ele>82.60000000000001</ele><time>2026-03-29T14:57:40.455Z</time></trkpt><trkpt lat="43.5877294" lon="11.0358788"><ele>84.0</ele><time>2026-03-29T14:57:41.456Z</time></trkpt><trkpt lat="43.58777" lon="11.0360663"><ele>84.25</ele><time>2026-03-29T14:57:42.464Z</time></trkpt><trkpt lat="43.5878119" lon="11.036255"><ele>84.5</ele><time>2026-03-29T14:57:43.453Z</time></trkpt><trkpt lat="43.5878529" lon="11.0364384"><ele>84.75</ele><time>2026-03-29T14:57:44.447Z</time></trkpt><trkpt lat="43.5878941" lon="11.0366184"><ele>85.0</ele><time>2026-03-29T14:57:45.449Z</time></trkpt><trkpt lat="43.5879406" lon="11.0367899"><ele>87.2</ele><time>2026-03-29T14:57:46.461Z</time></trkpt><trkpt lat="43.5879851" lon="11.0369462"><ele>89.4</ele><time>2026-03-29T14:57:47.472Z</time></trkpt><trkpt lat="43.5880203" lon="11.0370823"><ele>91.6</ele><time>2026-03-29T14:57:48.454Z</time></trkpt><trkpt lat="43.588035" lon="11.0372129"><ele>93.8</ele><time>2026-03-29T14:57:49.448Z</time></trkpt><trkpt lat="43.5880189" lon="11.0373363"><ele>96.0</ele><time>2026-03-29T14:57:50.448Z</time></trkpt><trkpt lat="43.5879752" lon="11.0374392"><ele>97.8</ele><time>2026-03-29T14:57:51.486Z</time></trkpt><trkpt lat="43.5879022" lon="11.0375142"><ele>99.6</ele><time>2026-03-29T14:57:52.498Z</time></trkpt><trkpt lat="43.587808" lon="11.0375802"><ele>101.4</ele><time>2026-03-29T14:57:53.451Z</time></trkpt><trkpt lat="43.5877149" lon="11.0376189"><ele>103.2</ele><time>2026-03-29T14:57:54.456Z</time></trkpt><trkpt lat="43.5876462" lon="11.0376671"><ele>105.0</ele><time>2026-03-29T14:57:55.445Z</time></trkpt><trkpt lat="43.5876428" lon="11.0378299"><ele>105.0</ele><time>2026-03-29T14:57:57.448Z</time></trkpt><trkpt lat="43.5877187" lon="11.0379143"><ele>105.0</ele><time>2026-03-29T14:57:58.457Z</time></trkpt><trkpt lat="43.587814" lon="11.0379966"><ele>105.0</ele><time>2026-03-29T14:57:59.477Z</time></trkpt><trkpt lat="43.5879238" lon="11.0380791"><ele>105.0</ele><time>2026-03-29T14:58:00.447Z</time></trkpt><trkpt lat="43.5880392" lon="11.0381581"><ele>105.0</ele><time>2026-03-29T14:58:01.454Z</time></trkpt><trkpt lat="43.5881566" lon="11.038252"><ele>105.0</ele><time>2026-03-29T14:58:02.449Z</time></trkpt><trkpt lat="43.5882643" lon="11.0383565"><ele>105.0</ele><time>2026-03-29T14:58:03.45Z</time></trkpt><trkpt lat="43.58835" lon="11.0384816"><ele>105.0</ele><time>2026-03-29T14:58:04.445Z</time></trkpt><trkpt lat="43.5884069" lon="11.0386255"><ele>108.0</ele><time>2026-03-29T14:58:05.447Z</time></trkpt><trkpt lat="43.5884365" lon="11.0387692"><ele>111.0</ele><time>2026-03-29T14:58:06.446Z</time></trkpt><trkpt lat="43.5884434" lon="11.038886"><ele>114.0</ele><time>2026-03-29T14:58:07.447Z</time></trkpt><trkpt lat="43.5883749" lon="11.0389862"><ele>117.0</ele><time>2026-03-29T14:58:09.449Z</time></trkpt><trkpt lat="43.5883008" lon="11.03898"><ele>120.0</ele><time>2026-03-29T14:58:10.45Z</time></trkpt><trkpt lat="43.5882108" lon="11.0389291"><ele>120.0</ele><time>2026-03-29T14:58:11.446Z</time></trkpt><trkpt lat="43.5881195" lon="11.0388514"><ele>120.0</ele><time>2026-03-29T14:58:12.444Z</time></trkpt><trkpt lat="43.5880329" lon="11.038789"><ele>120.0</ele><time>2026-03-29T14:58:13.443Z</time></trkpt><trkpt lat="43.5879563" lon="11.0387585"><ele>120.0</ele><time>2026-03-29T14:58:14.444Z</time></trkpt><trkpt lat="43.5878944" lon="11.0387749"><ele>120.0</ele><time>2026-03-29T14:58:15.448Z</time></trkpt><trkpt lat="43.5878677" lon="11.038925"><ele>120.0</ele><time>2026-03-29T14:58:17.454Z</time></trkpt><trkpt lat="43.5878928" lon="11.0390476"><ele>120.0</ele><time>2026-03-29T14:58:18.451Z</time></trkpt><trkpt lat="43.5879236" lon="11.039179"><ele>120.0</ele><time>2026-03-29T14:58:19.448Z</time></trkpt><trkpt lat="43.5879511" lon="11.0393276"><ele>120.0</ele><time>2026-03-29T14:58:20.45Z</time></trkpt><trkpt lat="43.5879877" lon="11.0394842"><ele>120.0</ele><time>2026-03-29T14:58:21.474Z</time></trkpt><trkpt lat="43.5880247" lon="11.0396452"><ele>122.75</ele><time>2026-03-29T14:58:22.449Z</time></trkpt><trkpt lat="43.5880398" lon="11.0398238"><ele>125.5</ele><time>2026-03-29T14:58:23.45Z</time></trkpt><trkpt lat="43.5880599" lon="11.0399899"><ele>128.25</ele><time>2026-03-29T14:58:24.477Z</time></trkpt><trkpt lat="43.5880808" lon="11.0401362"><ele>131.0</ele><time>2026-03-29T14:58:25.446Z</time></trkpt><trkpt lat="43.5881101" lon="11.0402663"><ele>132.4</ele><time>2026-03-29T14:58:26.478Z</time></trkpt><trkpt lat="43.5881528" lon="11.0403855"><ele>133.8</ele><time>2026-03-29T14:58:27.473Z</time></trkpt><trkpt lat="43.5882159" lon="11.0404935"><ele>135.20000000000002</ele><time>2026-03-29T14:58:28.448Z</time></trkpt><trkpt lat="43.5882983" lon="11.0405992"><ele>136.6</ele><time>2026-03-29T14:58:29.446Z</time></trkpt><trkpt lat="43.5883865" lon="11.0406887"><ele>138.0</ele><time>2026-03-29T14:58:30.451Z</time></trkpt><trkpt lat="43.5884741" lon="11.0407705"><ele>138.4</ele><time>2026-03-29T14:58:31.444Z</time></trkpt><trkpt lat="43.5885493" lon="11.0408618"><ele>138.8</ele><time>2026-03-29T14:58:32.448Z</time></trkpt><trkpt lat="43.588595" lon="11.0409821"><ele>139.2</ele><time>2026-03-29T14:58:33.444Z</time></trkpt><trkpt lat="43.5886102" lon="11.0411347"><ele>139.6</ele><time>2026-03-29T14:58:34.451Z</time></trkpt><trkpt lat="43.5885998" lon="11.0412912"><ele>140.0</ele><time>2026-03-29T14:58:35.443Z</time></trkpt><trkpt lat="43.5885921" lon="11.0414657"><ele>140.75</ele><time>2026-03-29T14:58:36.443Z</time></trkpt><trkpt lat="43.5885984" lon="11.0416423"><ele>141.5</ele><time>2026-03-29T14:58:37.451Z</time></trkpt><trkpt lat="43.5886016" lon="11.0418159"><ele>142.25</ele><time>2026-03-29T14:58:38.448Z</time></trkpt><trkpt lat="43.5886141" lon="11.0419919"><ele>143.0</ele><time>2026-03-29T14:58:39.451Z</time></trkpt><trkpt lat="43.5886223" lon="11.0421657"><ele>143.0</ele><time>2026-03-29T14:58:40.45Z</time></trkpt><trkpt lat="43.5886339" lon="11.0423318"><ele>143.0</ele><time>2026-03-29T14:58:41.475Z</time></trkpt><trkpt lat="43.5886477" lon="11.042491"><ele>143.0</ele><time>2026-03-29T14:58:42.441Z</time></trkpt><trkpt lat="43.5886612" lon="11.0426416"><ele>143.0</ele><time>2026-03-29T14:58:43.474Z</time></trkpt><trkpt lat="43.5886801" lon="11.0427764"><ele>143.0</ele><time>2026-03-29T14:58:44.448Z</time></trkpt><trkpt lat="43.5887151" lon="11.042891"><ele>148.0</ele><time>2026-03-29T14:58:45.451Z</time></trkpt><trkpt lat="43.5887644" lon="11.0429912"><ele>153.0</ele><time>2026-03-29T14:58:46.455Z</time></trkpt><trkpt lat="43.5888314" lon="11.0430676"><ele>158.0</ele><time>2026-03-29T14:58:47.448Z</time></trkpt><trkpt lat="43.5889275" lon="11.0431048"><ele>163.0</ele><time>2026-03-29T14:58:48.45Z</time></trkpt><trkpt lat="43.5890477" lon="11.0431195"><ele>168.0</ele><time>2026-03-29T14:58:49.443Z</time></trkpt><trkpt lat="43.5891762" lon="11.0431449"><ele>168.0</ele><time>2026-03-29T14:58:50.448Z</time></trkpt><trkpt lat="43.5893019" lon="11.0431795"><ele>168.0</ele><time>2026-03-29T14:58:51.457Z</time></trkpt><trkpt lat="43.5894174" lon="11.0432291"><ele>168.0</ele><time>2026-03-29T14:58:52.456Z</time></trkpt><trkpt lat="43.5895226" lon="11.0432879"><ele>168.0</ele><time>2026-03-29T14:58:53.444Z</time></trkpt><trkpt lat="43.5896163" lon="11.0433581"><ele>167.0</ele><time>2026-03-29T14:58:54.479Z</time></trkpt><trkpt lat="43.5897069" lon="11.0434362"><ele>166.0</ele><time>2026-03-29T14:58:55.444Z</time></trkpt><trkpt lat="43.5897957" lon="11.043523"><ele>165.0</ele><time>2026-03-29T14:58:56.456Z</time></trkpt><trkpt lat="43.5898849" lon="11.0436054"><ele>164.0</ele><time>2026-03-29T14:58:57.449Z</time></trkpt><trkpt lat="43.5899747" lon="11.0436776"><ele>163.0</ele><time>2026-03-29T14:58:58.494Z</time></trkpt><trkpt lat="43.590065" lon="11.0437419"><ele>163.0</ele><time>2026-03-29T14:58:59.45Z</time></trkpt><trkpt lat="43.5901494" lon="11.0438059"><ele>163.0</ele><time>2026-03-29T14:59:00.471Z</time></trkpt><trkpt lat="43.5902261" lon="11.043873"><ele>163.0</ele><time>2026-03-29T14:59:01.44Z</time></trkpt><trkpt lat="43.5902992" lon="11.043956"><ele>163.0</ele><time>2026-03-29T14:59:02.445Z</time></trkpt><trkpt lat="43.5903719" lon="11.0440635"><ele>163.0</ele><time>2026-03-29T14:59:03.45Z</time></trkpt><trkpt lat="43.5904447" lon="11.0441806"><ele>158.75</ele><time>2026-03-29T14:59:04.447Z</time></trkpt><trkpt lat="43.590505" lon="11.044308"><ele>154.5</ele><time>2026-03-29T14:59:05.444Z</time></trkpt><trkpt lat="43.5905563" lon="11.0444464"><ele>150.25</ele><time>2026-03-29T14:59:06.447Z</time></trkpt><trkpt lat="43.5906048" lon="11.0446013"><ele>146.0</ele><time>2026-03-29T14:59:07.445Z</time></trkpt><trkpt lat="43.5906512" lon="11.0447549"><ele>146.0</ele><time>2026-03-29T14:59:08.463Z</time></trkpt><trkpt lat="43.590701" lon="11.0448947"><ele>146.0</ele><time>2026-03-29T14:59:09.455Z</time></trkpt><trkpt lat="43.590752" lon="11.0450103"><ele>146.0</ele><time>2026-03-29T14:59:10.474Z</time></trkpt><trkpt lat="43.5908074" lon="11.0450996"><ele>146.0</ele><time>2026-03-29T14:59:11.444Z</time></trkpt><trkpt lat="43.5908565" lon="11.0451801"><ele>146.0</ele><time>2026-03-29T14:59:12.448Z</time></trkpt><trkpt lat="43.5908958" lon="11.045271"><ele>146.0</ele><time>2026-03-29T14:59:13.452Z</time></trkpt><trkpt lat="43.5909184" lon="11.0453801"><ele>147.8</ele><time>2026-03-29T14:59:14.45Z</time></trkpt><trkpt lat="43.5909213" lon="11.0455043"><ele>149.6</ele><time>2026-03-29T14:59:15.451Z</time></trkpt><trkpt lat="43.590911" lon="11.0456465"><ele>151.4</ele><time>2026-03-29T14:59:16.449Z</time></trkpt><trkpt lat="43.5908949" lon="11.0457909"><ele>153.2</ele><time>2026-03-29T14:59:17.448Z</time></trkpt><trkpt lat="43.5908724" lon="11.045926"><ele>155.0</ele><time>2026-03-29T14:59:18.461Z</time></trkpt><trkpt lat="43.5908521" lon="11.0460661"><ele>155.0</ele><time>2026-03-29T14:59:19.454Z</time></trkpt><trkpt lat="43.590845" lon="11.0461992"><ele>155.0</ele><time>2026-03-29T14:59:20.453Z</time></trkpt><trkpt lat="43.5908605" lon="11.0463348"><ele>155.0</ele><time>2026-03-29T14:59:21.45Z</time></trkpt><trkpt lat="43.5908981" lon="11.0464664"><ele>155.0</ele><time>2026-03-29T14:59:22.468Z</time></trkpt><trkpt lat="43.5909486" lon="11.0465971"><ele>155.0</ele><time>2026-03-29T14:59:23.444Z</time></trkpt><trkpt lat="43.5910045" lon="11.046731"><ele>154.8</ele><time>2026-03-29T14:59:24.49Z</time></trkpt><trkpt lat="43.5910655" lon="11.0468674"><ele>154.6</ele><time>2026-03-29T14:59:25.455Z</time></trkpt><trkpt lat="43.5911279" lon="11.0469917"><ele>154.4</ele><time>2026-03-29T14:59:26.446Z</time></trkpt><trkpt lat="43.5911884" lon="11.047105"><ele>154.2</ele><time>2026-03-29T14:59:27.449Z</time></trkpt><trkpt lat="43.5912443" lon="11.0472011"><ele>154.0</ele><time>2026-03-29T14:59:28.446Z</time></trkpt><trkpt lat="43.5912949" lon="11.0472941"><ele>153.33333333333334</ele><time>2026-03-29T14:59:29.442Z</time></trkpt><trkpt lat="43.5913419" lon="11.0473786"><ele>152.66666666666669</ele><time>2026-03-29T14:59:30.474Z</time></trkpt><trkpt lat="43.5913834" lon="11.0474554"><ele>152.0</ele><time>2026-03-29T14:59:31.446Z</time></trkpt><trkpt lat="43.5914226" lon="11.0475289"><ele>151.33333333333334</ele><time>2026-03-29T14:59:32.451Z</time></trkpt><trkpt lat="43.5914576" lon="11.0476029"><ele>150.66666666666666</ele><time>2026-03-29T14:59:33.449Z</time></trkpt><trkpt lat="43.5914891" lon="11.0477686"><ele>150.0</ele><time>2026-03-29T14:59:35.45Z</time></trkpt><trkpt lat="43.5914798" lon="11.0478616"><ele>150.0</ele><time>2026-03-29T14:59:36.476Z</time></trkpt><trkpt lat="43.5914479" lon="11.0479617"><ele>150.0</ele><time>2026-03-29T14:59:37.446Z</time></trkpt><trkpt lat="43.5913943" lon="11.0480587"><ele>150.0</ele><time>2026-03-29T14:59:38.451Z</time></trkpt><trkpt lat="43.5913282" lon="11.0481519"><ele>150.0</ele><time>2026-03-29T14:59:39.448Z</time></trkpt><trkpt lat="43.5912623" lon="11.0482414"><ele>150.0</ele><time>2026-03-29T14:59:40.457Z</time></trkpt><trkpt lat="43.5912028" lon="11.0483244"><ele>150.0</ele><time>2026-03-29T14:59:41.451Z</time></trkpt><trkpt lat="43.5911493" lon="11.0484025"><ele>150.5</ele><time>2026-03-29T14:59:42.449Z</time></trkpt><trkpt lat="43.5910971" lon="11.0484761"><ele>151.0</ele><time>2026-03-29T14:59:43.448Z</time></trkpt><trkpt lat="43.5910446" lon="11.0485493"><ele>151.5</ele><time>2026-03-29T14:59:44.444Z</time></trkpt><trkpt lat="43.5909971" lon="11.0486342"><ele>152.0</ele><time>2026-03-29T14:59:45.445Z</time></trkpt><trkpt lat="43.5909606" lon="11.048732"><ele>152.5</ele><time>2026-03-29T14:59:46.484Z</time></trkpt><trkpt lat="43.5909484" lon="11.0488495"><ele>153.0</ele><time>2026-03-29T14:59:47.448Z</time></trkpt><trkpt lat="43.5909656" lon="11.0489721"><ele>153.0</ele><time>2026-03-29T14:59:48.445Z</time></trkpt><trkpt lat="43.5910038" lon="11.0491053"><ele>153.0</ele><time>2026-03-29T14:59:49.464Z</time></trkpt><trkpt lat="43.5910519" lon="11.0492312"><ele>153.0</ele><time>2026-03-29T14:59:50.462Z</time></trkpt><trkpt lat="43.5910969" lon="11.0493494"><ele>153.0</ele><time>2026-03-29T14:59:51.449Z</time></trkpt><trkpt lat="43.5911426" lon="11.0494585"><ele>153.0</ele><time>2026-03-29T14:59:52.472Z</time></trkpt><trkpt lat="43.5911875" lon="11.0495641"><ele>151.20000000000002</ele><time>2026-03-29T14:59:53.461Z</time></trkpt><trkpt lat="43.59123" lon="11.04967"><ele>149.4</ele><time>2026-03-29T14:59:54.446Z</time></trkpt><trkpt lat="43.5912672" lon="11.0497796"><ele>147.60000000000002</ele><time>2026-03-29T14:59:55.445Z</time></trkpt><trkpt lat="43.5912974" lon="11.0498986"><ele>145.8</ele><time>2026-03-29T14:59:56.456Z</time></trkpt><trkpt lat="43.5913111" lon="11.050031"><ele>144.0</ele><time>2026-03-29T14:59:57.446Z</time></trkpt><trkpt lat="43.5913064" lon="11.0501696"><ele>144.0</ele><time>2026-03-29T14:59:58.45Z</time></trkpt><trkpt lat="43.5912889" lon="11.0503127"><ele>144.0</ele><time>2026-03-29T14:59:59.448Z</time></trkpt><trkpt lat="43.5912651" lon="11.050456"><ele>144.0</ele><time>2026-03-29T15:00:00.46Z</time></trkpt><trkpt lat="43.5912548" lon="11.0505977"><ele>144.0</ele><time>2026-03-29T15:00:01.463Z</time></trkpt><trkpt lat="43.5912681" lon="11.050744"><ele>144.0</ele><time>2026-03-29T15:00:02.45Z</time></trkpt><trkpt lat="43.5913032" lon="11.0508995"><ele>144.0</ele><time>2026-03-29T15:00:03.449Z</time></trkpt><trkpt lat="43.5913496" lon="11.0510524"><ele>144.0</ele><time>2026-03-29T15:00:04.489Z</time></trkpt><trkpt lat="43.5914091" lon="11.0512065"><ele>144.0</ele><time>2026-03-29T15:00:05.444Z</time></trkpt><trkpt lat="43.5914836" lon="11.051356"><ele>144.0</ele><time>2026-03-29T15:00:06.485Z</time></trkpt><trkpt lat="43.5915587" lon="11.0514874"><ele>144.0</ele><time>2026-03-29T15:00:07.458Z</time></trkpt><trkpt lat="43.591621" lon="11.051613"><ele>144.0</ele><time>2026-03-29T15:00:08.441Z</time></trkpt><trkpt lat="43.591666" lon="11.0517499"><ele>144.0</ele><time>2026-03-29T15:00:09.452Z</time></trkpt><trkpt lat="43.591693" lon="11.0518906"><ele>144.0</ele><time>2026-03-29T15:00:10.448Z</time></trkpt><trkpt lat="43.5917015" lon="11.0520308"><ele>144.0</ele><time>2026-03-29T15:00:11.443Z</time></trkpt><trkpt lat="43.5916904" lon="11.0521719"><ele>143.8</ele><time>2026-03-29T15:00:12.46Z</time></trkpt><trkpt lat="43.591672" lon="11.0523218"><ele>143.60000000000002</ele><time>2026-03-29T15:00:13.463Z</time></trkpt><trkpt lat="43.5916501" lon="11.0524714"><ele>143.4</ele><time>2026-03-29T15:00:14.451Z</time></trkpt><trkpt lat="43.5916351" lon="11.0526221"><ele>143.20000000000002</ele><time>2026-03-29T15:00:15.441Z</time></trkpt><trkpt lat="43.5916254" lon="11.0527706"><ele>143.0</ele><time>2026-03-29T15:00:16.476Z</time></trkpt><trkpt lat="43.5916188" lon="11.0529201"><ele>144.0</ele><time>2026-03-29T15:00:17.473Z</time></trkpt><trkpt lat="43.5916068" lon="11.0530673"><ele>145.0</ele><time>2026-03-29T15:00:18.48Z</time></trkpt><trkpt lat="43.5915892" lon="11.0532204"><ele>146.0</ele><time>2026-03-29T15:00:19.447Z</time></trkpt><trkpt lat="43.591565" lon="11.0533735"><ele>147.0</ele><time>2026-03-29T15:00:20.441Z</time></trkpt><trkpt lat="43.5915283" lon="11.0535235"><ele>148.0</ele><time>2026-03-29T15:00:21.479Z</time></trkpt><trkpt lat="43.5914868" lon="11.0536807"><ele>149.25</ele><time>2026-03-29T15:00:22.447Z</time></trkpt><trkpt lat="43.5914457" lon="11.0538469"><ele>150.5</ele><time>2026-03-29T15:00:23.444Z</time></trkpt><trkpt lat="43.5914001" lon="11.0540087"><ele>151.75</ele><time>2026-03-29T15:00:24.46Z</time></trkpt><trkpt lat="43.5913579" lon="11.0541669"><ele>153.0</ele><time>2026-03-29T15:00:25.453Z</time></trkpt><trkpt lat="43.5913174" lon="11.0543246"><ele>154.20000000000002</ele><time>2026-03-29T15:00:26.447Z</time></trkpt><trkpt lat="43.5912774" lon="11.054474"><ele>155.4</ele><time>2026-03-29T15:00:27.448Z</time></trkpt><trkpt lat="43.5912392" lon="11.0546222"><ele>156.60000000000002</ele><time>2026-03-29T15:00:28.476Z</time></trkpt><trkpt lat="43.5912005" lon="11.0547653"><ele>157.8</ele><time>2026-03-29T15:00:29.449Z</time></trkpt><trkpt lat="43.5911629" lon="11.0549053"><ele>159.0</ele><time>2026-03-29T15:00:30.464Z</time></trkpt><trkpt lat="43.5911216" lon="11.055042"><ele>163.4</ele><time>2026-03-29T15:00:31.461Z</time></trkpt><trkpt lat="43.5910757" lon="11.0551736"><ele>167.8</ele><time>2026-03-29T15:00:32.444Z</time></trkpt><trkpt lat="43.5910245" lon="11.0552996"><ele>172.20000000000002</ele><time>2026-03-29T15:00:33.474Z</time></trkpt><trkpt lat="43.5909693" lon="11.0554274"><ele>176.60000000000002</ele><time>2026-03-29T15:00:34.447Z</time></trkpt><trkpt lat="43.5909112" lon="11.0555558"><ele>181.0</ele><time>2026-03-29T15:00:35.477Z</time></trkpt><trkpt lat="43.5908521" lon="11.0556797"><ele>181.20000000000002</ele><time>2026-03-29T15:00:36.45Z</time></trkpt><trkpt lat="43.5907984" lon="11.0558015"><ele>181.4</ele><time>2026-03-29T15:00:37.459Z</time></trkpt><trkpt lat="43.5907476" lon="11.0559174"><ele>181.6</ele><time>2026-03-29T15:00:38.45Z</time></trkpt><trkpt lat="43.5907011" lon="11.0560354"><ele>181.8</ele><time>2026-03-29T15:00:39.44Z</time></trkpt><trkpt lat="43.5906597" lon="11.0561544"><ele>182.0</ele><time>2026-03-29T15:00:40.455Z</time></trkpt><trkpt lat="43.5906202" lon="11.0562575"><ele>182.0</ele><time>2026-03-29T15:00:41.443Z</time></trkpt><trkpt lat="43.5905816" lon="11.0563387"><ele>182.0</ele><time>2026-03-29T15:00:42.479Z</time></trkpt><trkpt lat="43.5905134" lon="11.0564718"><ele>182.0</ele><time>2026-03-29T15:00:44.454Z</time></trkpt><trkpt lat="43.5904908" lon="11.0565581"><ele>182.0</ele><time>2026-03-29T15:00:45.442Z</time></trkpt><trkpt lat="43.5904721" lon="11.0566572"><ele>182.0</ele><time>2026-03-29T15:00:46.447Z</time></trkpt><trkpt lat="43.5904611" lon="11.0567687"><ele>182.0</ele><time>2026-03-29T15:00:47.448Z</time></trkpt><trkpt lat="43.5904538" lon="11.0568848"><ele>182.0</ele><time>2026-03-29T15:00:48.442Z</time></trkpt><trkpt lat="43.5904521" lon="11.0569993"><ele>182.0</ele><time>2026-03-29T15:00:49.45Z</time></trkpt><trkpt lat="43.5904502" lon="11.0571031"><ele>182.0</ele><time>2026-03-29T15:00:50.475Z</time></trkpt><trkpt lat="43.5904472" lon="11.057203"><ele>182.0</ele><time>2026-03-29T15:00:51.477Z</time></trkpt><trkpt lat="43.5904408" lon="11.0572977"><ele>182.0</ele><time>2026-03-29T15:00:52.449Z</time></trkpt><trkpt lat="43.5904365" lon="11.0573945"><ele>182.0</ele><time>2026-03-29T15:00:53.447Z</time></trkpt><trkpt lat="43.5904413" lon="11.0574943"><ele>182.0</ele><time>2026-03-29T15:00:54.446Z</time></trkpt><trkpt lat="43.5904623" lon="11.0576109"><ele>182.0</ele><time>2026-03-29T15:00:55.446Z</time></trkpt><trkpt lat="43.5904906" lon="11.0577331"><ele>182.0</ele><time>2026-03-29T15:00:56.443Z</time></trkpt><trkpt lat="43.5905264" lon="11.0578498"><ele>182.0</ele><time>2026-03-29T15:00:57.444Z</time></trkpt><trkpt lat="43.590565" lon="11.0579653"><ele>182.0</ele><time>2026-03-29T15:00:58.445Z</time></trkpt><trkpt lat="43.5905939" lon="11.0580783"><ele>182.0</ele><time>2026-03-29T15:00:59.448Z</time></trkpt><trkpt lat="43.5906253" lon="11.0581874"><ele>182.0</ele><time>2026-03-29T15:01:00.444Z</time></trkpt><trkpt lat="43.5906657" lon="11.058291"><ele>182.0</ele><time>2026-03-29T15:01:01.447Z</time></trkpt><trkpt lat="43.5907169" lon="11.0583904"><ele>182.0</ele><time>2026-03-29T15:01:02.445Z</time></trkpt><trkpt lat="43.5907819" lon="11.0584914"><ele>182.0</ele><time>2026-03-29T15:01:03.444Z</time></trkpt><trkpt lat="43.5908588" lon="11.0585944"><ele>182.0</ele><time>2026-03-29T15:01:04.446Z</time></trkpt><trkpt lat="43.5909483" lon="11.0586961"><ele>182.0</ele><time>2026-03-29T15:01:05.443Z</time></trkpt><trkpt lat="43.591041" lon="11.0587973"><ele>182.0</ele><time>2026-03-29T15:01:06.454Z</time></trkpt><trkpt lat="43.5911309" lon="11.0588997"><ele>182.0</ele><time>2026-03-29T15:01:07.507Z</time></trkpt><trkpt lat="43.5912251" lon="11.058998"><ele>182.0</ele><time>2026-03-29T15:01:08.446Z</time></trkpt><trkpt lat="43.591315" lon="11.0591019"><ele>182.0</ele><time>2026-03-29T15:01:09.481Z</time></trkpt><trkpt lat="43.591398" lon="11.05921"><ele>181.8</ele><time>2026-03-29T15:01:10.441Z</time></trkpt><trkpt lat="43.5914806" lon="11.0593173"><ele>181.6</ele><time>2026-03-29T15:01:11.455Z</time></trkpt><trkpt lat="43.5915589" lon="11.0594238"><ele>181.4</ele><time>2026-03-29T15:01:12.458Z</time></trkpt><trkpt lat="43.5916321" lon="11.0595296"><ele>181.20000000000002</ele><time>2026-03-29T15:01:13.452Z</time></trkpt><trkpt lat="43.5916984" lon="11.0596338"><ele>181.0</ele><time>2026-03-29T15:01:14.476Z</time></trkpt><trkpt lat="43.5917687" lon="11.059727"><ele>181.0</ele><time>2026-03-29T15:01:15.474Z</time></trkpt><trkpt lat="43.5918449" lon="11.0598094"><ele>181.0</ele><time>2026-03-29T15:01:16.474Z</time></trkpt><trkpt lat="43.5919301" lon="11.0598855"><ele>181.0</ele><time>2026-03-29T15:01:17.443Z</time></trkpt><trkpt lat="43.5920227" lon="11.0599532"><ele>181.0</ele><time>2026-03-29T15:01:18.458Z</time></trkpt><trkpt lat="43.5921188" lon="11.0600135"><ele>181.0</ele><time>2026-03-29T15:01:19.451Z</time></trkpt><trkpt lat="43.5922234" lon="11.06007"><ele>183.8</ele><time>2026-03-29T15:01:20.445Z</time></trkpt><trkpt lat="43.5923249" lon="11.0601257"><ele>186.60000000000002</ele><time>2026-03-29T15:01:21.449Z</time></trkpt><trkpt lat="43.5924191" lon="11.060183"><ele>189.4</ele><time>2026-03-29T15:01:22.454Z</time></trkpt><trkpt lat="43.5925031" lon="11.0602502"><ele>192.2</ele><time>2026-03-29T15:01:23.448Z</time></trkpt><trkpt lat="43.5925836" lon="11.0603176"><ele>195.0</ele><time>2026-03-29T15:01:24.448Z</time></trkpt><trkpt lat="43.5926681" lon="11.0603915"><ele>195.0</ele><time>2026-03-29T15:01:25.459Z</time></trkpt><trkpt lat="43.5927501" lon="11.0604741"><ele>195.0</ele><time>2026-03-29T15:01:26.453Z</time></trkpt><trkpt lat="43.5928251" lon="11.0605685"><ele>195.0</ele><time>2026-03-29T15:01:27.445Z</time></trkpt><trkpt lat="43.5928948" lon="11.0606659"><ele>195.0</ele><time>2026-03-29T15:01:28.448Z</time></trkpt><trkpt lat="43.5929686" lon="11.060774"><ele>195.0</ele><time>2026-03-29T15:01:29.47Z</time></trkpt><trkpt lat="43.5930402" lon="11.0608905"><ele>196.0</ele><time>2026-03-29T15:01:30.459Z</time></trkpt><trkpt lat="43.5931091" lon="11.0610074"><ele>197.0</ele><time>2026-03-29T15:01:31.447Z</time></trkpt><trkpt lat="43.5931758" lon="11.061116"><ele>198.0</ele><time>2026-03-29T15:01:32.44Z</time></trkpt><trkpt lat="43.5932356" lon="11.0612149"><ele>199.0</ele><time>2026-03-29T15:01:33.444Z</time></trkpt><trkpt lat="43.5932882" lon="11.0612994"><ele>200.0</ele><time>2026-03-29T15:01:34.438Z</time></trkpt><trkpt lat="43.5933266" lon="11.061383"><ele>200.0</ele><time>2026-03-29T15:01:35.451Z</time></trkpt><trkpt lat="43.5933581" lon="11.0615047"><ele>200.0</ele><time>2026-03-29T15:01:37.453Z</time></trkpt><trkpt lat="43.5933568" lon="11.0616915"><ele>200.0</ele><time>2026-03-29T15:01:39.456Z</time></trkpt><trkpt lat="43.5933448" lon="11.0618075"><ele>200.0</ele><time>2026-03-29T15:01:40.488Z</time></trkpt><trkpt lat="43.5933308" lon="11.0619266"><ele>200.0</ele><time>2026-03-29T15:01:41.447Z</time></trkpt><trkpt lat="43.5933198" lon="11.0620411"><ele>200.00000000000003</ele><time>2026-03-29T15:01:42.454Z</time></trkpt><trkpt lat="43.5933112" lon="11.0621442"><ele>200.0</ele><time>2026-03-29T15:01:43.448Z</time></trkpt><trkpt lat="43.5933103" lon="11.0622521"><ele>200.0</ele><time>2026-03-29T15:01:44.448Z</time></trkpt><trkpt lat="43.5933071" lon="11.0623562"><ele>200.0</ele><time>2026-03-29T15:01:45.446Z</time></trkpt><trkpt lat="43.5932978" lon="11.0624621"><ele>200.00000000000003</ele><time>2026-03-29T15:01:46.449Z</time></trkpt><trkpt lat="43.593288" lon="11.0625717"><ele>200.0</ele><time>2026-03-29T15:01:47.444Z</time></trkpt><trkpt lat="43.5932776" lon="11.0626849"><ele>200.00000000000003</ele><time>2026-03-29T15:01:48.474Z</time></trkpt><trkpt lat="43.5932637" lon="11.0627983"><ele>200.0</ele><time>2026-03-29T15:01:49.446Z</time></trkpt><trkpt lat="43.593246" lon="11.0629086"><ele>200.0</ele><time>2026-03-29T15:01:50.448Z</time></trkpt><trkpt lat="43.5932272" lon="11.0630225"><ele>200.0</ele><time>2026-03-29T15:01:51.446Z</time></trkpt><trkpt lat="43.5932081" lon="11.0631381"><ele>200.00000000000003</ele><time>2026-03-29T15:01:52.448Z</time></trkpt><trkpt lat="43.593184" lon="11.063258"><ele>200.0</ele><time>2026-03-29T15:01:53.45Z</time></trkpt><trkpt lat="43.5931566" lon="11.0633802"><ele>198.4</ele><time>2026-03-29T15:01:54.448Z</time></trkpt><trkpt lat="43.5931212" lon="11.0635044"><ele>196.8</ele><time>2026-03-29T15:01:55.446Z</time></trkpt><trkpt lat="43.5930809" lon="11.063629"><ele>195.2</ele><time>2026-03-29T15:01:56.455Z</time></trkpt><trkpt lat="43.5930396" lon="11.0637415"><ele>193.6</ele><time>2026-03-29T15:01:57.447Z</time></trkpt><trkpt lat="43.592995" lon="11.063844"><ele>192.0</ele><time>2026-03-29T15:01:58.448Z</time></trkpt><trkpt lat="43.5929474" lon="11.0639381"><ele>192.0</ele><time>2026-03-29T15:01:59.452Z</time></trkpt><trkpt lat="43.5929014" lon="11.0640214"><ele>192.0</ele><time>2026-03-29T15:02:00.449Z</time></trkpt><trkpt lat="43.5928508" lon="11.0640982"><ele>192.0</ele><time>2026-03-29T15:02:01.449Z</time></trkpt><trkpt lat="43.5927911" lon="11.064167"><ele>192.0</ele><time>2026-03-29T15:02:02.448Z</time></trkpt><trkpt lat="43.5927213" lon="11.0642279"><ele>192.0</ele><time>2026-03-29T15:02:03.456Z</time></trkpt><trkpt lat="43.5926405" lon="11.0642698"><ele>192.0</ele><time>2026-03-29T15:02:04.452Z</time></trkpt><trkpt lat="43.5925455" lon="11.0642897"><ele>189.8</ele><time>2026-03-29T15:02:05.445Z</time></trkpt><trkpt lat="43.5924384" lon="11.0642921"><ele>187.6</ele><time>2026-03-29T15:02:06.447Z</time></trkpt><trkpt lat="43.5923293" lon="11.0642775"><ele>185.4</ele><time>2026-03-29T15:02:07.448Z</time></trkpt><trkpt lat="43.5922186" lon="11.0642679"><ele>183.20000000000002</ele><time>2026-03-29T15:02:08.447Z</time></trkpt><trkpt lat="43.5921113" lon="11.0642535"><ele>181.0</ele><time>2026-03-29T15:02:09.456Z</time></trkpt><trkpt lat="43.5920108" lon="11.0642366"><ele>178.8</ele><time>2026-03-29T15:02:10.476Z</time></trkpt><trkpt lat="43.5919137" lon="11.0642236"><ele>176.60000000000002</ele><time>2026-03-29T15:02:11.474Z</time></trkpt><trkpt lat="43.5918188" lon="11.0642139"><ele>174.4</ele><time>2026-03-29T15:02:12.446Z</time></trkpt><trkpt lat="43.5917284" lon="11.064212"><ele>172.2</ele><time>2026-03-29T15:02:13.448Z</time></trkpt><trkpt lat="43.5916379" lon="11.0642245"><ele>170.0</ele><time>2026-03-29T15:02:14.453Z</time></trkpt><trkpt lat="43.5915485" lon="11.0642598"><ele>170.0</ele><time>2026-03-29T15:02:15.443Z</time></trkpt><trkpt lat="43.5914662" lon="11.0643143"><ele>170.0</ele><time>2026-03-29T15:02:16.449Z</time></trkpt><trkpt lat="43.5913927" lon="11.0643847"><ele>170.0</ele><time>2026-03-29T15:02:17.443Z</time></trkpt><trkpt lat="43.5913311" lon="11.06448"><ele>170.0</ele><time>2026-03-29T15:02:18.447Z</time></trkpt><trkpt lat="43.5912856" lon="11.0645942"><ele>170.0</ele><time>2026-03-29T15:02:19.45Z</time></trkpt><trkpt lat="43.5912509" lon="11.0647071"><ele>170.0</ele><time>2026-03-29T15:02:20.449Z</time></trkpt><trkpt lat="43.5912097" lon="11.0648165"><ele>170.0</ele><time>2026-03-29T15:02:21.455Z</time></trkpt><trkpt lat="43.591176" lon="11.0649329"><ele>170.0</ele><time>2026-03-29T15:02:22.486Z</time></trkpt><trkpt lat="43.5911471" lon="11.0650551"><ele>170.0</ele><time>2026-03-29T15:02:23.859Z</time></trkpt><trkpt lat="43.5911134" lon="11.0652936"><ele>170.0</ele><time>2026-03-29T15:02:25.448Z</time></trkpt><trkpt lat="43.5911157" lon="11.0654145"><ele>168.8</ele><time>2026-03-29T15:02:26.444Z</time></trkpt><trkpt lat="43.5911288" lon="11.0655371"><ele>167.6</ele><time>2026-03-29T15:02:27.451Z</time></trkpt><trkpt lat="43.5911477" lon="11.0656655"><ele>166.39999999999998</ele><time>2026-03-29T15:02:28.447Z</time></trkpt><trkpt lat="43.5911684" lon="11.0657989"><ele>165.2</ele><time>2026-03-29T15:02:29.449Z</time></trkpt><trkpt lat="43.5911887" lon="11.0659376"><ele>164.0</ele><time>2026-03-29T15:02:30.448Z</time></trkpt><trkpt lat="43.5912105" lon="11.0660792"><ele>164.0</ele><time>2026-03-29T15:02:31.454Z</time></trkpt><trkpt lat="43.5912331" lon="11.0662219"><ele>164.0</ele><time>2026-03-29T15:02:32.46Z</time></trkpt><trkpt lat="43.5912526" lon="11.0663702"><ele>164.0</ele><time>2026-03-29T15:02:33.48Z</time></trkpt><trkpt lat="43.5912721" lon="11.0665243"><ele>164.0</ele><time>2026-03-29T15:02:34.455Z</time></trkpt><trkpt lat="43.5912898" lon="11.0666824"><ele>164.0</ele><time>2026-03-29T15:02:35.473Z</time></trkpt><trkpt lat="43.5913059" lon="11.0668398"><ele>165.0</ele><time>2026-03-29T15:02:36.474Z</time></trkpt><trkpt lat="43.5913238" lon="11.0669946"><ele>166.0</ele><time>2026-03-29T15:02:37.456Z</time></trkpt><trkpt lat="43.5913433" lon="11.0671432"><ele>167.0</ele><time>2026-03-29T15:02:38.482Z</time></trkpt><trkpt lat="43.5913608" lon="11.0672897"><ele>168.0</ele><time>2026-03-29T15:02:39.452Z</time></trkpt><trkpt lat="43.5913781" lon="11.0674373"><ele>169.0</ele><time>2026-03-29T15:02:40.475Z</time></trkpt><trkpt lat="43.5914019" lon="11.0675819"><ele>170.6</ele><time>2026-03-29T15:02:41.443Z</time></trkpt><trkpt lat="43.5914232" lon="11.0677244"><ele>172.2</ele><time>2026-03-29T15:02:42.475Z</time></trkpt><trkpt lat="43.5914388" lon="11.0678725"><ele>173.79999999999998</ele><time>2026-03-29T15:02:43.457Z</time></trkpt><trkpt lat="43.5914475" lon="11.0680276"><ele>175.39999999999998</ele><time>2026-03-29T15:02:44.459Z</time></trkpt><trkpt lat="43.5914474" lon="11.0681819"><ele>177.0</ele><time>2026-03-29T15:02:45.448Z</time></trkpt><trkpt lat="43.5914392" lon="11.0683306"><ele>177.5</ele><time>2026-03-29T15:02:46.451Z</time></trkpt><trkpt lat="43.5914295" lon="11.0684719"><ele>178.0</ele><time>2026-03-29T15:02:47.447Z</time></trkpt><trkpt lat="43.5914197" lon="11.0686034"><ele>178.5</ele><time>2026-03-29T15:02:48.448Z</time></trkpt><trkpt lat="43.5914093" lon="11.068723"><ele>179.0</ele><time>2026-03-29T15:02:49.476Z</time></trkpt><trkpt lat="43.5913963" lon="11.0688273"><ele>179.5</ele><time>2026-03-29T15:02:50.447Z</time></trkpt><trkpt lat="43.5913797" lon="11.068926"><ele>180.0</ele><time>2026-03-29T15:02:51.448Z</time></trkpt><trkpt lat="43.5913615" lon="11.0690238"><ele>180.57142857142856</ele><time>2026-03-29T15:02:52.447Z</time></trkpt><trkpt lat="43.5913435" lon="11.0691181"><ele>181.14285714285717</ele><time>2026-03-29T15:02:53.442Z</time></trkpt><trkpt lat="43.591329" lon="11.0692073"><ele>181.71428571428572</ele><time>2026-03-29T15:02:54.451Z</time></trkpt><trkpt lat="43.5913155" lon="11.0692987"><ele>182.28571428571428</ele><time>2026-03-29T15:02:55.443Z</time></trkpt><trkpt lat="43.5912966" lon="11.0693832"><ele>182.85714285714283</ele><time>2026-03-29T15:02:56.445Z</time></trkpt><trkpt lat="43.591279" lon="11.069471"><ele>183.42857142857144</ele><time>2026-03-29T15:02:57.453Z</time></trkpt><trkpt lat="43.5912636" lon="11.069565"><ele>184.0</ele><time>2026-03-29T15:02:58.449Z</time></trkpt><trkpt lat="43.5912403" lon="11.0696646"><ele>184.0</ele><time>2026-03-29T15:02:59.446Z</time></trkpt><trkpt lat="43.59122" lon="11.0697665"><ele>184.0</ele><time>2026-03-29T15:03:00.447Z</time></trkpt><trkpt lat="43.5911957" lon="11.0698643"><ele>184.0</ele><time>2026-03-29T15:03:01.485Z</time></trkpt><trkpt lat="43.5911741" lon="11.0699653"><ele>184.0</ele><time>2026-03-29T15:03:02.452Z</time></trkpt><trkpt lat="43.5911561" lon="11.0700674"><ele>184.0</ele><time>2026-03-29T15:03:03.448Z</time></trkpt><trkpt lat="43.5911298" lon="11.0701749"><ele>184.0</ele><time>2026-03-29T15:03:04.452Z</time></trkpt><trkpt lat="43.5911067" lon="11.0702848"><ele>182.33333333333334</ele><time>2026-03-29T15:03:05.444Z</time></trkpt><trkpt lat="43.5910887" lon="11.0704056"><ele>180.66666666666669</ele><time>2026-03-29T15:03:06.484Z</time></trkpt><trkpt lat="43.5910637" lon="11.0705087"><ele>179.0</ele><time>2026-03-29T15:03:07.45Z</time></trkpt><trkpt lat="43.5910264" lon="11.070604"><ele>177.33333333333334</ele><time>2026-03-29T15:03:08.444Z</time></trkpt><trkpt lat="43.5909722" lon="11.0706824"><ele>175.66666666666666</ele><time>2026-03-29T15:03:09.451Z</time></trkpt><trkpt lat="43.5908908" lon="11.0707568"><ele>174.0</ele><time>2026-03-29T15:03:10.454Z</time></trkpt><trkpt lat="43.5907933" lon="11.0708181"><ele>173.0</ele><time>2026-03-29T15:03:11.473Z</time></trkpt><trkpt lat="43.5906888" lon="11.0708797"><ele>172.0</ele><time>2026-03-29T15:03:12.473Z</time></trkpt><trkpt lat="43.5905813" lon="11.0709418"><ele>171.0</ele><time>2026-03-29T15:03:13.474Z</time></trkpt><trkpt lat="43.5904754" lon="11.0710062"><ele>170.0</ele><time>2026-03-29T15:03:14.48Z</time></trkpt><trkpt lat="43.5903701" lon="11.0710699"><ele>170.2</ele><time>2026-03-29T15:03:15.465Z</time></trkpt><trkpt lat="43.5902633" lon="11.0711307"><ele>170.4</ele><time>2026-03-29T15:03:16.444Z</time></trkpt><trkpt lat="43.5901586" lon="11.0711911"><ele>170.60000000000002</ele><time>2026-03-29T15:03:17.447Z</time></trkpt><trkpt lat="43.5900619" lon="11.0712476"><ele>170.8</ele><time>2026-03-29T15:03:18.443Z</time></trkpt><trkpt lat="43.5899712" lon="11.0712969"><ele>171.0</ele><time>2026-03-29T15:03:19.443Z</time></trkpt><trkpt lat="43.5898786" lon="11.0713364"><ele>171.0</ele><time>2026-03-29T15:03:20.451Z</time></trkpt><trkpt lat="43.5897811" lon="11.071365"><ele>171.0</ele><time>2026-03-29T15:03:21.449Z</time></trkpt><trkpt lat="43.5896799" lon="11.0713747"><ele>171.0</ele><time>2026-03-29T15:03:22.473Z</time></trkpt><trkpt lat="43.5895765" lon="11.071367"><ele>171.0</ele><time>2026-03-29T15:03:23.451Z</time></trkpt><trkpt lat="43.58947" lon="11.0713535"><ele>171.0</ele><time>2026-03-29T15:03:24.442Z</time></trkpt><trkpt lat="43.5893646" lon="11.0713423"><ele>172.8</ele><time>2026-03-29T15:03:25.452Z</time></trkpt><trkpt lat="43.589259" lon="11.071332"><ele>174.60000000000002</ele><time>2026-03-29T15:03:26.451Z</time></trkpt><trkpt lat="43.5891553" lon="11.0713268"><ele>176.4</ele><time>2026-03-29T15:03:27.488Z</time></trkpt><trkpt lat="43.589058" lon="11.071333"><ele>178.2</ele><time>2026-03-29T15:03:28.452Z</time></trkpt><trkpt lat="43.5889716" lon="11.0713588"><ele>180.0</ele><time>2026-03-29T15:03:29.452Z</time></trkpt><trkpt lat="43.588896" lon="11.0713992"><ele>180.0</ele><time>2026-03-29T15:03:30.447Z</time></trkpt><trkpt lat="43.5888326" lon="11.0714538"><ele>180.0</ele><time>2026-03-29T15:03:31.448Z</time></trkpt><trkpt lat="43.5887783" lon="11.071532"><ele>180.0</ele><time>2026-03-29T15:03:32.449Z</time></trkpt><trkpt lat="43.5887395" lon="11.0716305"><ele>180.0</ele><time>2026-03-29T15:03:33.442Z</time></trkpt><trkpt lat="43.5887096" lon="11.0717474"><ele>180.0</ele><time>2026-03-29T15:03:34.45Z</time></trkpt><trkpt lat="43.5886845" lon="11.071876"><ele>180.0</ele><time>2026-03-29T15:03:35.446Z</time></trkpt><trkpt lat="43.588665" lon="11.0720106"><ele>181.16666666666666</ele><time>2026-03-29T15:03:36.442Z</time></trkpt><trkpt lat="43.5886429" lon="11.0721371"><ele>182.33333333333334</ele><time>2026-03-29T15:03:37.45Z</time></trkpt><trkpt lat="43.5886219" lon="11.0722534"><ele>183.5</ele><time>2026-03-29T15:03:38.447Z</time></trkpt><trkpt lat="43.5886102" lon="11.0723636"><ele>184.66666666666669</ele><time>2026-03-29T15:03:39.45Z</time></trkpt><trkpt lat="43.5886134" lon="11.07247"><ele>185.83333333333334</ele><time>2026-03-29T15:03:40.473Z</time></trkpt><trkpt lat="43.5886309" lon="11.0725813"><ele>187.0</ele><time>2026-03-29T15:03:41.45Z</time></trkpt><trkpt lat="43.5886611" lon="11.0726908"><ele>187.0</ele><time>2026-03-29T15:03:42.445Z</time></trkpt><trkpt lat="43.5886857" lon="11.0727978"><ele>187.0</ele><time>2026-03-29T15:03:43.443Z</time></trkpt><trkpt lat="43.5886997" lon="11.0729031"><ele>187.0</ele><time>2026-03-29T15:03:44.473Z</time></trkpt><trkpt lat="43.5887023" lon="11.0729994"><ele>187.0</ele><time>2026-03-29T15:03:45.446Z</time></trkpt><trkpt lat="43.5886946" lon="11.0730868"><ele>187.0</ele><time>2026-03-29T15:03:46.451Z</time></trkpt><trkpt lat="43.588676" lon="11.0731729"><ele>187.0</ele><time>2026-03-29T15:03:47.449Z</time></trkpt><trkpt lat="43.5886452" lon="11.073263"><ele>187.0</ele><time>2026-03-29T15:03:48.452Z</time></trkpt><trkpt lat="43.5885981" lon="11.0733615"><ele>186.0</ele><time>2026-03-29T15:03:49.48Z</time></trkpt><trkpt lat="43.5885372" lon="11.0734731"><ele>185.0</ele><time>2026-03-29T15:03:50.45Z</time></trkpt><trkpt lat="43.5884718" lon="11.0735797"><ele>184.0</ele><time>2026-03-29T15:03:51.443Z</time></trkpt><trkpt lat="43.5884133" lon="11.0736724"><ele>183.0</ele><time>2026-03-29T15:03:52.48Z</time></trkpt><trkpt lat="43.5883638" lon="11.073763"><ele>182.0</ele><time>2026-03-29T15:03:53.446Z</time></trkpt><trkpt lat="43.5883227" lon="11.0738573"><ele>182.0</ele><time>2026-03-29T15:03:54.451Z</time></trkpt><trkpt lat="43.5882895" lon="11.0739616"><ele>182.0</ele><time>2026-03-29T15:03:55.48Z</time></trkpt><trkpt lat="43.588261" lon="11.0740828"><ele>182.0</ele><time>2026-03-29T15:03:56.474Z</time></trkpt><trkpt lat="43.5882317" lon="11.0742236"><ele>182.0</ele><time>2026-03-29T15:03:57.444Z</time></trkpt><trkpt lat="43.5881943" lon="11.074368"><ele>182.0</ele><time>2026-03-29T15:03:58.48Z</time></trkpt><trkpt lat="43.588161" lon="11.0745046"><ele>183.16666666666666</ele><time>2026-03-29T15:03:59.442Z</time></trkpt><trkpt lat="43.588134" lon="11.074635"><ele>184.33333333333331</ele><time>2026-03-29T15:04:00.447Z</time></trkpt><trkpt lat="43.5881002" lon="11.0747496"><ele>185.5</ele><time>2026-03-29T15:04:01.461Z</time></trkpt><trkpt lat="43.588056" lon="11.0748389"><ele>186.66666666666666</ele><time>2026-03-29T15:04:02.447Z</time></trkpt><trkpt lat="43.587997" lon="11.0749094"><ele>187.83333333333334</ele><time>2026-03-29T15:04:03.448Z</time></trkpt><trkpt lat="43.5879238" lon="11.0749564"><ele>189.0</ele><time>2026-03-29T15:04:04.454Z</time></trkpt><trkpt lat="43.5878364" lon="11.0749894"><ele>193.79999999999998</ele><time>2026-03-29T15:04:05.446Z</time></trkpt><trkpt lat="43.5877409" lon="11.075018"><ele>198.6</ele><time>2026-03-29T15:04:06.461Z</time></trkpt><trkpt lat="43.5876373" lon="11.0750442"><ele>203.4</ele><time>2026-03-29T15:04:07.443Z</time></trkpt><trkpt lat="43.5875315" lon="11.0750728"><ele>208.2</ele><time>2026-03-29T15:04:08.444Z</time></trkpt><trkpt lat="43.5874245" lon="11.0751027"><ele>213.0</ele><time>2026-03-29T15:04:09.458Z</time></trkpt><trkpt lat="43.5873249" lon="11.0751285"><ele>213.0</ele><time>2026-03-29T15:04:10.455Z</time></trkpt><trkpt lat="43.5872335" lon="11.0751448"><ele>213.0</ele><time>2026-03-29T15:04:11.446Z</time></trkpt><trkpt lat="43.5871514" lon="11.0751555"><ele>213.0</ele><time>2026-03-29T15:04:12.448Z</time></trkpt><trkpt lat="43.5870874" lon="11.0751644"><ele>213.0</ele><time>2026-03-29T15:04:13.45Z</time></trkpt><trkpt lat="43.5869639" lon="11.0751828"><ele>213.0</ele><time>2026-03-29T15:04:15.483Z</time></trkpt><trkpt lat="43.5868638" lon="11.0752853"><ele>211.5</ele><time>2026-03-29T15:04:17.449Z</time></trkpt><trkpt lat="43.5868202" lon="11.0753722"><ele>210.0</ele><time>2026-03-29T15:04:18.447Z</time></trkpt><trkpt lat="43.5867818" lon="11.0754794"><ele>208.5</ele><time>2026-03-29T15:04:19.452Z</time></trkpt><trkpt lat="43.5867445" lon="11.0755893"><ele>207.0</ele><time>2026-03-29T15:04:20.446Z</time></trkpt><trkpt lat="43.586704" lon="11.0756934"><ele>205.5</ele><time>2026-03-29T15:04:21.446Z</time></trkpt><trkpt lat="43.5866606" lon="11.0758008"><ele>204.0</ele><time>2026-03-29T15:04:22.473Z</time></trkpt><trkpt lat="43.5866151" lon="11.075905"><ele>204.0</ele><time>2026-03-29T15:04:23.449Z</time></trkpt><trkpt lat="43.5865664" lon="11.0760064"><ele>204.0</ele><time>2026-03-29T15:04:24.455Z</time></trkpt><trkpt lat="43.5865158" lon="11.0761046"><ele>204.0</ele><time>2026-03-29T15:04:25.479Z</time></trkpt><trkpt lat="43.5864625" lon="11.0762004"><ele>204.0</ele><time>2026-03-29T15:04:26.468Z</time></trkpt><trkpt lat="43.5863982" lon="11.0762854"><ele>204.0</ele><time>2026-03-29T15:04:27.445Z</time></trkpt><trkpt lat="43.5863227" lon="11.0763591"><ele>204.0</ele><time>2026-03-29T15:04:28.477Z</time></trkpt><trkpt lat="43.5862308" lon="11.076418"><ele>202.2</ele><time>2026-03-29T15:04:29.464Z</time></trkpt><trkpt lat="43.586131" lon="11.0764762"><ele>200.39999999999998</ele><time>2026-03-29T15:04:30.47Z</time></trkpt><trkpt lat="43.5860365" lon="11.0765388"><ele>198.6</ele><time>2026-03-29T15:04:31.445Z</time></trkpt><trkpt lat="43.5859484" lon="11.0766149"><ele>196.8</ele><time>2026-03-29T15:04:32.482Z</time></trkpt><trkpt lat="43.5858701" lon="11.0767049"><ele>195.0</ele><time>2026-03-29T15:04:33.48Z</time></trkpt><trkpt lat="43.5857957" lon="11.0768067"><ele>195.0</ele><time>2026-03-29T15:04:34.445Z</time></trkpt><trkpt lat="43.5857219" lon="11.0769102"><ele>195.0</ele><time>2026-03-29T15:04:35.449Z</time></trkpt><trkpt lat="43.5856468" lon="11.0770032"><ele>195.0</ele><time>2026-03-29T15:04:36.444Z</time></trkpt><trkpt lat="43.5855706" lon="11.0770981"><ele>195.0</ele><time>2026-03-29T15:04:37.474Z</time></trkpt><trkpt lat="43.5854988" lon="11.0771948"><ele>195.0</ele><time>2026-03-29T15:04:38.461Z</time></trkpt><trkpt lat="43.5854328" lon="11.0772995"><ele>195.0</ele><time>2026-03-29T15:04:39.453Z</time></trkpt><trkpt lat="43.5853807" lon="11.077415"><ele>195.0</ele><time>2026-03-29T15:04:40.455Z</time></trkpt><trkpt lat="43.5853422" lon="11.0775404"><ele>195.0</ele><time>2026-03-29T15:04:41.452Z</time></trkpt><trkpt lat="43.5853121" lon="11.0776676"><ele>195.0</ele><time>2026-03-29T15:04:42.446Z</time></trkpt><trkpt lat="43.5853013" lon="11.0777841"><ele>195.0</ele><time>2026-03-29T15:04:43.447Z</time></trkpt><trkpt lat="43.5853019" lon="11.0779002"><ele>195.28571428571428</ele><time>2026-03-29T15:04:44.449Z</time></trkpt><trkpt lat="43.5853117" lon="11.0780097"><ele>195.57142857142856</ele><time>2026-03-29T15:04:45.454Z</time></trkpt><trkpt lat="43.5853199" lon="11.0781086"><ele>195.85714285714286</ele><time>2026-03-29T15:04:46.48Z</time></trkpt><trkpt lat="43.5853222" lon="11.0782057"><ele>196.14285714285714</ele><time>2026-03-29T15:04:47.449Z</time></trkpt><trkpt lat="43.5853237" lon="11.0783009"><ele>196.42857142857144</ele><time>2026-03-29T15:04:48.451Z</time></trkpt><trkpt lat="43.5853215" lon="11.0783958"><ele>196.71428571428572</ele><time>2026-03-29T15:04:49.445Z</time></trkpt><trkpt lat="43.5853175" lon="11.078497"><ele>197.0</ele><time>2026-03-29T15:04:50.449Z</time></trkpt><trkpt lat="43.5853059" lon="11.0786"><ele>197.0</ele><time>2026-03-29T15:04:51.438Z</time></trkpt><trkpt lat="43.5852833" lon="11.0787048"><ele>197.0</ele><time>2026-03-29T15:04:52.452Z</time></trkpt><trkpt lat="43.5852427" lon="11.0788142"><ele>197.0</ele><time>2026-03-29T15:04:53.46Z</time></trkpt><trkpt lat="43.5851812" lon="11.0789237"><ele>197.0</ele><time>2026-03-29T15:04:54.447Z</time></trkpt><trkpt lat="43.5851099" lon="11.07903"><ele>197.0</ele><time>2026-03-29T15:04:55.473Z</time></trkpt><trkpt lat="43.585037" lon="11.0791242"><ele>197.00000000000003</ele><time>2026-03-29T15:04:56.444Z</time></trkpt><trkpt lat="43.584968" lon="11.0792081"><ele>197.0</ele><time>2026-03-29T15:04:57.45Z</time></trkpt><trkpt lat="43.5849015" lon="11.0792839"><ele>197.0</ele><time>2026-03-29T15:04:58.454Z</time></trkpt><trkpt lat="43.5848405" lon="11.0793575"><ele>197.0</ele><time>2026-03-29T15:04:59.446Z</time></trkpt><trkpt lat="43.5847839" lon="11.0794327"><ele>197.00000000000003</ele><time>2026-03-29T15:05:00.44Z</time></trkpt><trkpt lat="43.5847295" lon="11.0795105"><ele>197.0</ele><time>2026-03-29T15:05:01.446Z</time></trkpt><trkpt lat="43.5846822" lon="11.0795964"><ele>197.00000000000003</ele><time>2026-03-29T15:05:02.477Z</time></trkpt><trkpt lat="43.5846478" lon="11.0796954"><ele>197.0</ele><time>2026-03-29T15:05:03.445Z</time></trkpt><trkpt lat="43.5846274" lon="11.0798065"><ele>197.0</ele><time>2026-03-29T15:05:04.451Z</time></trkpt><trkpt lat="43.5846208" lon="11.0799273"><ele>197.0</ele><time>2026-03-29T15:05:05.445Z</time></trkpt><trkpt lat="43.584622" lon="11.0800442"><ele>197.00000000000003</ele><time>2026-03-29T15:05:06.445Z</time></trkpt><trkpt lat="43.584624" lon="11.080159"><ele>197.0</ele><time>2026-03-29T15:05:07.441Z</time></trkpt><trkpt lat="43.5846292" lon="11.0802714"><ele>196.0</ele><time>2026-03-29T15:05:08.441Z</time></trkpt><trkpt lat="43.5846434" lon="11.0803862"><ele>195.0</ele><time>2026-03-29T15:05:09.452Z</time></trkpt><trkpt lat="43.5846722" lon="11.0805031"><ele>194.0</ele><time>2026-03-29T15:05:10.448Z</time></trkpt><trkpt lat="43.5847165" lon="11.0806227"><ele>193.0</ele><time>2026-03-29T15:05:11.477Z</time></trkpt><trkpt lat="43.5847619" lon="11.0807528"><ele>192.0</ele><time>2026-03-29T15:05:12.448Z</time></trkpt><trkpt lat="43.5848056" lon="11.0808938"><ele>192.0</ele><time>2026-03-29T15:05:13.453Z</time></trkpt><trkpt lat="43.584847" lon="11.0810424"><ele>192.0</ele><time>2026-03-29T15:05:14.486Z</time></trkpt><trkpt lat="43.5848932" lon="11.0811913"><ele>192.0</ele><time>2026-03-29T15:05:15.458Z</time></trkpt><trkpt lat="43.5849375" lon="11.0813432"><ele>192.0</ele><time>2026-03-29T15:05:16.448Z</time></trkpt><trkpt lat="43.584976" lon="11.0814933"><ele>194.2</ele><time>2026-03-29T15:05:17.448Z</time></trkpt><trkpt lat="43.5850235" lon="11.081636"><ele>196.39999999999998</ele><time>2026-03-29T15:05:18.441Z</time></trkpt><trkpt lat="43.585083" lon="11.0817645"><ele>198.60000000000002</ele><time>2026-03-29T15:05:19.456Z</time></trkpt><trkpt lat="43.5851477" lon="11.0818849"><ele>200.8</ele><time>2026-03-29T15:05:20.477Z</time></trkpt><trkpt lat="43.5852191" lon="11.0820017"><ele>203.0</ele><time>2026-03-29T15:05:21.461Z</time></trkpt><trkpt lat="43.5852919" lon="11.082122"><ele>203.2</ele><time>2026-03-29T15:05:22.455Z</time></trkpt><trkpt lat="43.58536" lon="11.0822383"><ele>203.4</ele><time>2026-03-29T15:05:23.481Z</time></trkpt><trkpt lat="43.585421" lon="11.0823445"><ele>203.6</ele><time>2026-03-29T15:05:24.447Z</time></trkpt><trkpt lat="43.5854751" lon="11.0824457"><ele>203.79999999999998</ele><time>2026-03-29T15:05:25.482Z</time></trkpt><trkpt lat="43.5855159" lon="11.0825484"><ele>204.0</ele><time>2026-03-29T15:05:26.445Z</time></trkpt><trkpt lat="43.5855442" lon="11.0826482"><ele>204.0</ele><time>2026-03-29T15:05:27.448Z</time></trkpt><trkpt lat="43.5855381" lon="11.0827907"><ele>204.0</ele><time>2026-03-29T15:05:29.447Z</time></trkpt><trkpt lat="43.5855851" lon="11.0827217"><ele>204.0</ele><time>2026-03-29T15:05:45.441Z</time></trkpt><trkpt lat="43.5855644" lon="11.0826302"><ele>204.0</ele><time>2026-03-29T15:05:47.441Z</time></trkpt><trkpt lat="43.5855226" lon="11.0825186"><ele>204.0</ele><time>2026-03-29T15:05:49.445Z</time></trkpt><trkpt lat="43.5854943" lon="11.0824388"><ele>204.0</ele><time>2026-03-29T15:05:50.44Z</time></trkpt><trkpt lat="43.5854628" lon="11.0823568"><ele>203.83333333333334</ele><time>2026-03-29T15:05:51.482Z</time></trkpt><trkpt lat="43.5854286" lon="11.0822746"><ele>203.66666666666669</ele><time>2026-03-29T15:05:52.447Z</time></trkpt><trkpt lat="43.5853852" lon="11.0821884"><ele>203.5</ele><time>2026-03-29T15:05:53.447Z</time></trkpt><trkpt lat="43.5853393" lon="11.0821033"><ele>203.33333333333334</ele><time>2026-03-29T15:05:54.448Z</time></trkpt><trkpt lat="43.5852932" lon="11.082016"><ele>203.16666666666669</ele><time>2026-03-29T15:05:55.444Z</time></trkpt><trkpt lat="43.5852444" lon="11.0819323"><ele>203.0</ele><time>2026-03-29T15:05:56.449Z</time></trkpt><trkpt lat="43.5851921" lon="11.0818515"><ele>203.00000000000003</ele><time>2026-03-29T15:05:57.45Z</time></trkpt><trkpt lat="43.58514" lon="11.081768"><ele>203.0</ele><time>2026-03-29T15:05:58.453Z</time></trkpt><trkpt lat="43.5850924" lon="11.0816757"><ele>203.0</ele><time>2026-03-29T15:05:59.474Z</time></trkpt><trkpt lat="43.5850519" lon="11.0815747"><ele>203.0</ele><time>2026-03-29T15:06:00.443Z</time></trkpt><trkpt lat="43.5850135" lon="11.0814681"><ele>203.00000000000003</ele><time>2026-03-29T15:06:01.449Z</time></trkpt><trkpt lat="43.5849745" lon="11.0813553"><ele>203.0</ele><time>2026-03-29T15:06:02.446Z</time></trkpt><trkpt lat="43.5849401" lon="11.081238"><ele>201.16666666666669</ele><time>2026-03-29T15:06:03.443Z</time></trkpt><trkpt lat="43.5849081" lon="11.0811188"><ele>199.33333333333334</ele><time>2026-03-29T15:06:04.443Z</time></trkpt><trkpt lat="43.5848781" lon="11.0810012"><ele>197.5</ele><time>2026-03-29T15:06:05.448Z</time></trkpt><trkpt lat="43.5848487" lon="11.0808955"><ele>195.66666666666669</ele><time>2026-03-29T15:06:06.446Z</time></trkpt><trkpt lat="43.5848197" lon="11.0808008"><ele>193.83333333333334</ele><time>2026-03-29T15:06:07.465Z</time></trkpt><trkpt lat="43.584791" lon="11.0807208"><ele>192.0</ele><time>2026-03-29T15:06:08.473Z</time></trkpt><trkpt lat="43.5847306" lon="11.0806122"><ele>192.0</ele><time>2026-03-29T15:06:10.463Z</time></trkpt><trkpt lat="43.5846766" lon="11.080564"><ele>192.0</ele><time>2026-03-29T15:06:12.446Z</time></trkpt><trkpt lat="43.5847438" lon="11.0805603"><ele>192.0</ele><time>2026-03-29T15:06:20.448Z</time></trkpt><trkpt lat="43.5848342" lon="11.0806385"><ele>192.0</ele><time>2026-03-29T15:06:22.448Z</time></trkpt><trkpt lat="43.5849223" lon="11.0807188"><ele>192.0</ele><time>2026-03-29T15:06:24.455Z</time></trkpt><trkpt lat="43.58499" lon="11.0808131"><ele>192.0</ele><time>2026-03-29T15:06:26.442Z</time></trkpt><trkpt lat="43.5850447" lon="11.0808924"><ele>192.0</ele><time>2026-03-29T15:06:28.444Z</time></trkpt><trkpt lat="43.5850894" lon="11.0809572"><ele>192.0</ele><time>2026-03-29T15:06:30.473Z</time></trkpt><trkpt lat="43.5851677" lon="11.0810254"><ele>192.0</ele><time>2026-03-29T15:06:33.476Z</time></trkpt><trkpt lat="43.5852663" lon="11.0810642"><ele>192.0</ele><time>2026-03-29T15:06:35.449Z</time></trkpt><trkpt lat="43.5853291" lon="11.0810785"><ele>192.0</ele><time>2026-03-29T15:06:36.457Z</time></trkpt><trkpt lat="43.5853957" lon="11.0810931"><ele>192.0</ele><time>2026-03-29T15:06:37.449Z</time></trkpt><trkpt lat="43.5854596" lon="11.081106"><ele>189.66666666666666</ele><time>2026-03-29T15:06:38.48Z</time></trkpt><trkpt lat="43.5855826" lon="11.0811158"><ele>187.33333333333334</ele><time>2026-03-29T15:06:40.446Z</time></trkpt><trkpt lat="43.5857034" lon="11.0811245"><ele>185.0</ele><time>2026-03-29T15:06:42.442Z</time></trkpt><trkpt lat="43.5857693" lon="11.0811363"><ele>182.66666666666669</ele><time>2026-03-29T15:06:43.45Z</time></trkpt><trkpt lat="43.5858371" lon="11.0811514"><ele>180.33333333333334</ele><time>2026-03-29T15:06:44.449Z</time></trkpt><trkpt lat="43.5859057" lon="11.0811585"><ele>178.0</ele><time>2026-03-29T15:06:45.445Z</time></trkpt><trkpt lat="43.5859706" lon="11.0811655"><ele>178.0</ele><time>2026-03-29T15:06:46.449Z</time></trkpt><trkpt lat="43.5860336" lon="11.0811736"><ele>178.0</ele><time>2026-03-29T15:06:47.474Z</time></trkpt><trkpt lat="43.5861512" lon="11.081195"><ele>178.0</ele><time>2026-03-29T15:06:49.475Z</time></trkpt><trkpt lat="43.5862614" lon="11.0812142"><ele>178.0</ele><time>2026-03-29T15:06:51.444Z</time></trkpt><trkpt lat="43.5863697" lon="11.0812414"><ele>178.0</ele><time>2026-03-29T15:06:53.449Z</time></trkpt><trkpt lat="43.5864821" lon="11.0812712"><ele>175.2</ele><time>2026-03-29T15:06:55.446Z</time></trkpt><trkpt lat="43.5865972" lon="11.0813007"><ele>172.4</ele><time>2026-03-29T15:06:57.448Z</time></trkpt><trkpt lat="43.5867024" lon="11.0813425"><ele>169.6</ele><time>2026-03-29T15:06:59.474Z</time></trkpt><trkpt lat="43.586786" lon="11.0813865"><ele>166.79999999999998</ele><time>2026-03-29T15:07:01.447Z</time></trkpt><trkpt lat="43.5868671" lon="11.0814394"><ele>164.0</ele><time>2026-03-29T15:07:03.446Z</time></trkpt><trkpt lat="43.5869596" lon="11.0814864"><ele>163.79999999999998</ele><time>2026-03-29T15:07:05.475Z</time></trkpt><trkpt lat="43.5870206" lon="11.0815224"><ele>163.6</ele><time>2026-03-29T15:07:18.474Z</time></trkpt><trkpt lat="43.5870991" lon="11.0815646"><ele>163.4</ele><time>2026-03-29T15:07:21.443Z</time></trkpt><trkpt lat="43.5871989" lon="11.0816163"><ele>163.2</ele><time>2026-03-29T15:07:23.45Z</time></trkpt><trkpt lat="43.5873102" lon="11.0816739"><ele>163.0</ele><time>2026-03-29T15:07:25.447Z</time></trkpt><trkpt lat="43.5874231" lon="11.0817243"><ele>163.0</ele><time>2026-03-29T15:07:27.446Z</time></trkpt><trkpt lat="43.587536" lon="11.0817893"><ele>163.0</ele><time>2026-03-29T15:07:29.444Z</time></trkpt><trkpt lat="43.5875931" lon="11.081839"><ele>163.0</ele><time>2026-03-29T15:07:30.443Z</time></trkpt><trkpt lat="43.5876487" lon="11.0818949"><ele>163.0</ele><time>2026-03-29T15:07:31.444Z</time></trkpt><trkpt lat="43.5876954" lon="11.0819564"><ele>163.0</ele><time>2026-03-29T15:07:32.475Z</time></trkpt><trkpt lat="43.5877766" lon="11.0820738"><ele>163.0</ele><time>2026-03-29T15:07:34.447Z</time></trkpt><trkpt lat="43.5878406" lon="11.0821903"><ele>162.20000000000002</ele><time>2026-03-29T15:07:36.475Z</time></trkpt><trkpt lat="43.5878937" lon="11.0823294"><ele>161.4</ele><time>2026-03-29T15:07:38.454Z</time></trkpt><trkpt lat="43.5879262" lon="11.0824894"><ele>160.60000000000002</ele><time>2026-03-29T15:07:40.446Z</time></trkpt><trkpt lat="43.5879362" lon="11.0825781"><ele>159.8</ele><time>2026-03-29T15:07:41.444Z</time></trkpt><trkpt lat="43.5879416" lon="11.0827441"><ele>159.0</ele><time>2026-03-29T15:07:43.445Z</time></trkpt><trkpt lat="43.5879411" lon="11.0829109"><ele>159.0</ele><time>2026-03-29T15:07:45.455Z</time></trkpt><trkpt lat="43.5879437" lon="11.0830711"><ele>159.0</ele><time>2026-03-29T15:07:47.445Z</time></trkpt><trkpt lat="43.5879467" lon="11.0831926"><ele>159.0</ele><time>2026-03-29T15:07:49.447Z</time></trkpt><trkpt lat="43.5879534" lon="11.0833069"><ele>159.0</ele><time>2026-03-29T15:07:51.45Z</time></trkpt><trkpt lat="43.5879596" lon="11.0834173"><ele>159.0</ele><time>2026-03-29T15:07:53.448Z</time></trkpt><trkpt lat="43.5879592" lon="11.0835061"><ele>159.0</ele><time>2026-03-29T15:07:55.447Z</time></trkpt><trkpt lat="43.5879639" lon="11.0835991"><ele>158.83333333333334</ele><time>2026-03-29T15:07:58.448Z</time></trkpt><trkpt lat="43.5879566" lon="11.0836981"><ele>158.66666666666666</ele><time>2026-03-29T15:08:02.445Z</time></trkpt><trkpt lat="43.58797" lon="11.0838025"><ele>158.5</ele><time>2026-03-29T15:08:05.439Z</time></trkpt><trkpt lat="43.5879669" lon="11.0839077"><ele>158.33333333333331</ele><time>2026-03-29T15:08:08.442Z</time></trkpt><trkpt lat="43.5879819" lon="11.0840147"><ele>158.16666666666666</ele><time>2026-03-29T15:08:11.456Z</time></trkpt><trkpt lat="43.5880105" lon="11.0841177"><ele>158.0</ele><time>2026-03-29T15:08:17.447Z</time></trkpt><trkpt lat="43.5880265" lon="11.084218"><ele>157.5</ele><time>2026-03-29T15:08:20.444Z</time></trkpt><trkpt lat="43.5880438" lon="11.0843239"><ele>157.0</ele><time>2026-03-29T15:08:23.445Z</time></trkpt><trkpt lat="43.5880632" lon="11.0844168"><ele>156.5</ele><time>2026-03-29T15:08:25.446Z</time></trkpt><trkpt lat="43.5880799" lon="11.0845234"><ele>156.0</ele><time>2026-03-29T15:08:27.446Z</time></trkpt><trkpt lat="43.588098" lon="11.0846236"><ele>155.5</ele><time>2026-03-29T15:08:29.449Z</time></trkpt><trkpt lat="43.5881455" lon="11.084712"><ele>155.0</ele><time>2026-03-29T15:08:31.445Z</time></trkpt><trkpt lat="43.5882179" lon="11.0847734"><ele>155.0</ele><time>2026-03-29T15:08:33.449Z</time></trkpt><trkpt lat="43.5882821" lon="11.084808"><ele>155.0</ele><time>2026-03-29T15:08:35.447Z</time></trkpt><trkpt lat="43.5883561" lon="11.0848325"><ele>155.0</ele><time>2026-03-29T15:08:47.45Z</time></trkpt><trkpt lat="43.5884174" lon="11.0848551"><ele>155.0</ele><time>2026-03-29T15:08:49.444Z</time></trkpt><trkpt lat="43.5884988" lon="11.0848871"><ele>155.0</ele><time>2026-03-29T15:08:51.446Z</time></trkpt><trkpt lat="43.5885749" lon="11.0849211"><ele>155.0</ele><time>2026-03-29T15:08:53.452Z</time></trkpt><trkpt lat="43.5886475" lon="11.0849512"><ele>155.0</ele><time>2026-03-29T15:08:55.441Z</time></trkpt><trkpt lat="43.588718" lon="11.0849648"><ele>152.0</ele><time>2026-03-29T15:08:57.454Z</time></trkpt><trkpt lat="43.5887899" lon="11.0849424"><ele>149.0</ele><time>2026-03-29T15:08:59.448Z</time></trkpt><trkpt lat="43.5888801" lon="11.0849092"><ele>146.0</ele><time>2026-03-29T15:09:01.444Z</time></trkpt><trkpt lat="43.5889797" lon="11.0848685"><ele>143.0</ele><time>2026-03-29T15:09:03.443Z</time></trkpt><trkpt lat="43.5890674" lon="11.0848123"><ele>140.0</ele><time>2026-03-29T15:09:05.448Z</time></trkpt><trkpt lat="43.5891555" lon="11.0847452"><ele>140.0</ele><time>2026-03-29T15:09:07.447Z</time></trkpt><trkpt lat="43.589227" lon="11.0846531"><ele>140.0</ele><time>2026-03-29T15:09:09.441Z</time></trkpt><trkpt lat="43.5892819" lon="11.084562"><ele>140.0</ele><time>2026-03-29T15:09:11.454Z</time></trkpt><trkpt lat="43.5893356" lon="11.084497"><ele>140.0</ele><time>2026-03-29T15:09:13.44Z</time></trkpt><trkpt lat="43.5894013" lon="11.0844306"><ele>140.0</ele><time>2026-03-29T15:09:15.448Z</time></trkpt><trkpt lat="43.5894652" lon="11.0843759"><ele>140.0</ele><time>2026-03-29T15:09:17.448Z</time></trkpt><trkpt lat="43.5895216" lon="11.0843333"><ele>138.16666666666666</ele><time>2026-03-29T15:09:19.446Z</time></trkpt><trkpt lat="43.5895866" lon="11.084297"><ele>136.33333333333331</ele><time>2026-03-29T15:09:22.451Z</time></trkpt><trkpt lat="43.5896555" lon="11.0842847"><ele>134.5</ele><time>2026-03-29T15:09:32.473Z</time></trkpt><trkpt lat="43.5897397" lon="11.0842442"><ele>132.66666666666666</ele><time>2026-03-29T15:09:35.473Z</time></trkpt><trkpt lat="43.589822" lon="11.0842047"><ele>130.83333333333334</ele><time>2026-03-29T15:09:37.449Z</time></trkpt><trkpt lat="43.5899414" lon="11.0841547"><ele>129.0</ele><time>2026-03-29T15:09:39.448Z</time></trkpt><trkpt lat="43.5900011" lon="11.0841262"><ele>129.0</ele><time>2026-03-29T15:09:40.45Z</time></trkpt><trkpt lat="43.5900624" lon="11.0840959"><ele>129.0</ele><time>2026-03-29T15:09:41.449Z</time></trkpt><trkpt lat="43.5901789" lon="11.0840381"><ele>129.0</ele><time>2026-03-29T15:09:43.441Z</time></trkpt><trkpt lat="43.5902394" lon="11.0840098"><ele>129.0</ele><time>2026-03-29T15:09:44.446Z</time></trkpt><trkpt lat="43.5902999" lon="11.0839815"><ele>129.0</ele><time>2026-03-29T15:09:45.442Z</time></trkpt><trkpt lat="43.5904091" lon="11.0839276"><ele>129.0</ele><time>2026-03-29T15:09:47.453Z</time></trkpt><trkpt lat="43.5905027" lon="11.0839052"><ele>130.85714285714283</ele><time>2026-03-29T15:09:49.454Z</time></trkpt><trkpt lat="43.5905803" lon="11.0839451"><ele>132.71428571428572</ele><time>2026-03-29T15:09:51.447Z</time></trkpt><trkpt lat="43.5906367" lon="11.084002"><ele>134.57142857142856</ele><time>2026-03-29T15:09:53.473Z</time></trkpt><trkpt lat="43.5906853" lon="11.0840774"><ele>136.42857142857142</ele><time>2026-03-29T15:10:01.45Z</time></trkpt><trkpt lat="43.5906902" lon="11.0841974"><ele>138.28571428571428</ele><time>2026-03-29T15:10:04.45Z</time></trkpt><trkpt lat="43.5906808" lon="11.0842867"><ele>140.14285714285714</ele><time>2026-03-29T15:10:06.441Z</time></trkpt><trkpt lat="43.5906848" lon="11.0843764"><ele>142.0</ele><time>2026-03-29T15:10:25.444Z</time></trkpt><trkpt lat="43.5907445" lon="11.0844597"><ele>142.0</ele><time>2026-03-29T15:10:28.443Z</time></trkpt><trkpt lat="43.5908268" lon="11.0844607"><ele>142.0</ele><time>2026-03-29T15:10:31.452Z</time></trkpt><trkpt lat="43.590892" lon="11.0844198"><ele>142.0</ele><time>2026-03-29T15:10:33.445Z</time></trkpt><trkpt lat="43.5909646" lon="11.0843907"><ele>142.0</ele><time>2026-03-29T15:10:36.442Z</time></trkpt><trkpt lat="43.5910369" lon="11.0844433"><ele>142.0</ele><time>2026-03-29T15:10:44.439Z</time></trkpt><trkpt lat="43.5911109" lon="11.0843993"><ele>142.0</ele><time>2026-03-29T15:10:46.444Z</time></trkpt><trkpt lat="43.5912326" lon="11.0843296"><ele>144.66666666666669</ele><time>2026-03-29T15:10:48.443Z</time></trkpt><trkpt lat="43.5913082" lon="11.0843047"><ele>147.33333333333334</ele><time>2026-03-29T15:10:49.446Z</time></trkpt><trkpt lat="43.5913894" lon="11.0842875"><ele>150.0</ele><time>2026-03-29T15:10:50.452Z</time></trkpt><trkpt lat="43.5914716" lon="11.0842814"><ele>152.66666666666666</ele><time>2026-03-29T15:10:51.449Z</time></trkpt><trkpt lat="43.5915506" lon="11.0842806"><ele>155.33333333333331</ele><time>2026-03-29T15:10:52.484Z</time></trkpt><trkpt lat="43.5916316" lon="11.0842799"><ele>158.0</ele><time>2026-03-29T15:10:53.449Z</time></trkpt><trkpt lat="43.591712" lon="11.0842779"><ele>158.0</ele><time>2026-03-29T15:10:54.449Z</time></trkpt><trkpt lat="43.5917888" lon="11.0842759"><ele>158.0</ele><time>2026-03-29T15:10:55.445Z</time></trkpt><trkpt lat="43.5918681" lon="11.0842713"><ele>158.0</ele><time>2026-03-29T15:10:56.446Z</time></trkpt><trkpt lat="43.5919495" lon="11.0842687"><ele>158.0</ele><time>2026-03-29T15:10:57.452Z</time></trkpt><trkpt lat="43.592036" lon="11.0842683"><ele>158.0</ele><time>2026-03-29T15:10:58.453Z</time></trkpt><trkpt lat="43.5921248" lon="11.0842717"><ele>158.0</ele><time>2026-03-29T15:10:59.453Z</time></trkpt><trkpt lat="43.5922147" lon="11.0842725"><ele>160.83333333333331</ele><time>2026-03-29T15:11:00.454Z</time></trkpt><trkpt lat="43.5923037" lon="11.0842718"><ele>163.66666666666666</ele><time>2026-03-29T15:11:01.441Z</time></trkpt><trkpt lat="43.5923933" lon="11.0842729"><ele>166.5</ele><time>2026-03-29T15:11:02.443Z</time></trkpt><trkpt lat="43.5924835" lon="11.0842689"><ele>169.33333333333334</ele><time>2026-03-29T15:11:03.453Z</time></trkpt><trkpt lat="43.5925688" lon="11.0842647"><ele>172.16666666666669</ele><time>2026-03-29T15:11:04.442Z</time></trkpt><trkpt lat="43.592652" lon="11.0842581"><ele>175.0</ele><time>2026-03-29T15:11:05.476Z</time></trkpt><trkpt lat="43.5927261" lon="11.0842576"><ele>175.0</ele><time>2026-03-29T15:11:06.44Z</time></trkpt><trkpt lat="43.5927916" lon="11.0842647"><ele>175.0</ele><time>2026-03-29T15:11:07.45Z</time></trkpt><trkpt lat="43.5928928" lon="11.084287"><ele>175.0</ele><time>2026-03-29T15:11:09.442Z</time></trkpt><trkpt lat="43.5929529" lon="11.0843193"><ele>175.0</ele><time>2026-03-29T15:11:11.449Z</time></trkpt><trkpt lat="43.5929782" lon="11.0844258"><ele>175.0</ele><time>2026-03-29T15:11:25.45Z</time></trkpt><trkpt lat="43.5929965" lon="11.0845817"><ele>175.0</ele><time>2026-03-29T15:11:27.484Z</time></trkpt><trkpt lat="43.5930151" lon="11.0846797"><ele>177.33333333333334</ele><time>2026-03-29T15:11:28.441Z</time></trkpt><trkpt lat="43.5930334" lon="11.084793"><ele>179.66666666666669</ele><time>2026-03-29T15:11:29.446Z</time></trkpt><trkpt lat="43.5930429" lon="11.0849055"><ele>182.0</ele><time>2026-03-29T15:11:30.456Z</time></trkpt><trkpt lat="43.5930534" lon="11.0850128"><ele>184.33333333333334</ele><time>2026-03-29T15:11:31.445Z</time></trkpt><trkpt lat="43.5930616" lon="11.0851131"><ele>186.66666666666666</ele><time>2026-03-29T15:11:32.448Z</time></trkpt><trkpt lat="43.5930641" lon="11.0852119"><ele>189.0</ele><time>2026-03-29T15:11:33.446Z</time></trkpt><trkpt lat="43.5930603" lon="11.0853736"><ele>189.0</ele><time>2026-03-29T15:11:35.438Z</time></trkpt><trkpt lat="43.5930408" lon="11.0855156"><ele>189.0</ele><time>2026-03-29T15:11:37.445Z</time></trkpt><trkpt lat="43.5930307" lon="11.0856922"><ele>189.0</ele><time>2026-03-29T15:11:39.443Z</time></trkpt><trkpt lat="43.5930357" lon="11.085808"><ele>189.0</ele><time>2026-03-29T15:11:40.442Z</time></trkpt><trkpt lat="43.5930444" lon="11.0859248"><ele>189.0</ele><time>2026-03-29T15:11:41.471Z</time></trkpt><trkpt lat="43.5930535" lon="11.0860421"><ele>189.5</ele><time>2026-03-29T15:11:42.447Z</time></trkpt><trkpt lat="43.5930568" lon="11.0861591"><ele>190.0</ele><time>2026-03-29T15:11:43.458Z</time></trkpt><trkpt lat="43.5930546" lon="11.0862627"><ele>190.5</ele><time>2026-03-29T15:11:44.471Z</time></trkpt><trkpt lat="43.5930579" lon="11.0863509"><ele>191.0</ele><time>2026-03-29T15:11:45.444Z</time></trkpt><trkpt lat="43.5930813" lon="11.0864612"><ele>191.5</ele><time>2026-03-29T15:11:47.446Z</time></trkpt><trkpt lat="43.5931372" lon="11.0865207"><ele>192.0</ele><time>2026-03-29T15:11:49.453Z</time></trkpt><trkpt lat="43.5932288" lon="11.0866027"><ele>192.0</ele><time>2026-03-29T15:11:51.44Z</time></trkpt><trkpt lat="43.5933503" lon="11.0866124"><ele>192.0</ele><time>2026-03-29T15:11:53.478Z</time></trkpt><trkpt lat="43.5934146" lon="11.0865918"><ele>192.0</ele><time>2026-03-29T15:11:54.447Z</time></trkpt><trkpt lat="43.5934806" lon="11.0865643"><ele>192.0</ele><time>2026-03-29T15:11:55.445Z</time></trkpt><trkpt lat="43.593542" lon="11.0865282"><ele>192.0</ele><time>2026-03-29T15:11:56.445Z</time></trkpt><trkpt lat="43.593598" lon="11.0864819"><ele>192.0</ele><time>2026-03-29T15:11:57.443Z</time></trkpt><trkpt lat="43.5936871" lon="11.086367"><ele>194.33333333333334</ele><time>2026-03-29T15:11:59.441Z</time></trkpt><trkpt lat="43.593722" lon="11.0862797"><ele>196.66666666666669</ele><time>2026-03-29T15:12:00.448Z</time></trkpt><trkpt lat="43.5937633" lon="11.0861818"><ele>199.0</ele><time>2026-03-29T15:12:01.443Z</time></trkpt><trkpt lat="43.5938023" lon="11.086075"><ele>201.33333333333334</ele><time>2026-03-29T15:12:02.449Z</time></trkpt><trkpt lat="43.5938409" lon="11.0859676"><ele>203.66666666666669</ele><time>2026-03-29T15:12:03.441Z</time></trkpt><trkpt lat="43.5938779" lon="11.0858645"><ele>206.0</ele><time>2026-03-29T15:12:04.474Z</time></trkpt><trkpt lat="43.5939129" lon="11.0857655"><ele>205.33333333333334</ele><time>2026-03-29T15:12:05.444Z</time></trkpt><trkpt lat="43.5939494" lon="11.0856661"><ele>204.66666666666669</ele><time>2026-03-29T15:12:06.45Z</time></trkpt><trkpt lat="43.5939876" lon="11.0855624"><ele>204.0</ele><time>2026-03-29T15:12:07.447Z</time></trkpt><trkpt lat="43.594018" lon="11.085459"><ele>203.33333333333331</ele><time>2026-03-29T15:12:08.454Z</time></trkpt><trkpt lat="43.594042" lon="11.0853595"><ele>202.66666666666666</ele><time>2026-03-29T15:12:09.441Z</time></trkpt><trkpt lat="43.5940657" lon="11.0852601"><ele>202.0</ele><time>2026-03-29T15:12:10.473Z</time></trkpt><trkpt lat="43.5940892" lon="11.0851666"><ele>201.99999999999997</ele><time>2026-03-29T15:12:11.439Z</time></trkpt><trkpt lat="43.5941058" lon="11.0850788"><ele>202.0</ele><time>2026-03-29T15:12:12.443Z</time></trkpt><trkpt lat="43.5941434" lon="11.0849584"><ele>202.0</ele><time>2026-03-29T15:12:14.479Z</time></trkpt><trkpt lat="43.5941997" lon="11.0849175"><ele>202.0</ele><time>2026-03-29T15:12:24.444Z</time></trkpt><trkpt lat="43.5942265" lon="11.0850213"><ele>201.99999999999997</ele><time>2026-03-29T15:12:49.442Z</time></trkpt><trkpt lat="43.59424" lon="11.0851378"><ele>202.0</ele><time>2026-03-29T15:12:51.453Z</time></trkpt><trkpt lat="43.5942544" lon="11.0852322"><ele>202.0</ele><time>2026-03-29T15:12:52.471Z</time></trkpt><trkpt lat="43.5942722" lon="11.0853322"><ele>202.0</ele><time>2026-03-29T15:12:53.471Z</time></trkpt><trkpt lat="43.5942895" lon="11.0854494"><ele>202.0</ele><time>2026-03-29T15:12:54.44Z</time></trkpt><trkpt lat="43.5943132" lon="11.0855844"><ele>202.0</ele><time>2026-03-29T15:12:55.445Z</time></trkpt><trkpt lat="43.594343" lon="11.0857393"><ele>202.0</ele><time>2026-03-29T15:12:56.473Z</time></trkpt><trkpt lat="43.5943789" lon="11.0859102"><ele>203.0</ele><time>2026-03-29T15:12:57.443Z</time></trkpt><trkpt lat="43.5944164" lon="11.0860927"><ele>204.0</ele><time>2026-03-29T15:12:58.494Z</time></trkpt><trkpt lat="43.5944581" lon="11.0862885"><ele>205.0</ele><time>2026-03-29T15:12:59.455Z</time></trkpt><trkpt lat="43.5945023" lon="11.0864903"><ele>206.0</ele><time>2026-03-29T15:13:00.477Z</time></trkpt><trkpt lat="43.5945492" lon="11.0866951"><ele>208.0</ele><time>2026-03-29T15:13:01.455Z</time></trkpt><trkpt lat="43.594596" lon="11.0869012"><ele>210.0</ele><time>2026-03-29T15:13:02.451Z</time></trkpt><trkpt lat="43.594641" lon="11.0871068"><ele>212.0</ele><time>2026-03-29T15:13:03.455Z</time></trkpt><trkpt lat="43.5946868" lon="11.0873116"><ele>214.5</ele><time>2026-03-29T15:13:04.448Z</time></trkpt><trkpt lat="43.5947317" lon="11.0875126"><ele>217.0</ele><time>2026-03-29T15:13:05.484Z</time></trkpt><trkpt lat="43.5947753" lon="11.0877041"><ele>219.5</ele><time>2026-03-29T15:13:06.448Z</time></trkpt><trkpt lat="43.5948184" lon="11.0878822"><ele>222.0</ele><time>2026-03-29T15:13:07.46Z</time></trkpt><trkpt lat="43.5948578" lon="11.0880481"><ele>222.0</ele><time>2026-03-29T15:13:08.459Z</time></trkpt><trkpt lat="43.594893" lon="11.0881981"><ele>222.0</ele><time>2026-03-29T15:13:09.447Z</time></trkpt><trkpt lat="43.5949209" lon="11.0883197"><ele>222.0</ele><time>2026-03-29T15:13:10.445Z</time></trkpt><trkpt lat="43.5949398" lon="11.0884117"><ele>222.0</ele><time>2026-03-29T15:13:11.46Z</time></trkpt><trkpt lat="43.5949623" lon="11.0885163"><ele>222.0</ele><time>2026-03-29T15:13:13.454Z</time></trkpt><trkpt lat="43.594992" lon="11.0885933"><ele>222.0</ele><time>2026-03-29T15:13:15.484Z</time></trkpt><trkpt lat="43.5950017" lon="11.0887227"><ele>223.5</ele><time>2026-03-29T15:13:17.449Z</time></trkpt><trkpt lat="43.5949906" lon="11.0888093"><ele>225.0</ele><time>2026-03-29T15:13:19.452Z</time></trkpt><trkpt lat="43.5949963" lon="11.0889306"><ele>226.5</ele><time>2026-03-29T15:13:21.44Z</time></trkpt><trkpt lat="43.5950069" lon="11.0890184"><ele>228.0</ele><time>2026-03-29T15:13:22.444Z</time></trkpt><trkpt lat="43.5950171" lon="11.0891287"><ele>229.5</ele><time>2026-03-29T15:13:23.436Z</time></trkpt><trkpt lat="43.5950227" lon="11.0892742"><ele>231.0</ele><time>2026-03-29T15:13:24.474Z</time></trkpt><trkpt lat="43.5950347" lon="11.0894342"><ele>231.20000000000002</ele><time>2026-03-29T15:13:25.442Z</time></trkpt><trkpt lat="43.5950439" lon="11.0895907"><ele>231.40000000000003</ele><time>2026-03-29T15:13:26.442Z</time></trkpt><trkpt lat="43.5950498" lon="11.0897354"><ele>231.6</ele><time>2026-03-29T15:13:27.469Z</time></trkpt><trkpt lat="43.595055" lon="11.0898634"><ele>231.8</ele><time>2026-03-29T15:13:28.455Z</time></trkpt><trkpt lat="43.5950607" lon="11.0899795"><ele>232.0</ele><time>2026-03-29T15:13:29.448Z</time></trkpt><trkpt lat="43.5950657" lon="11.0900839"><ele>231.99999999999997</ele><time>2026-03-29T15:13:30.447Z</time></trkpt><trkpt lat="43.5950717" lon="11.0901793"><ele>232.0</ele><time>2026-03-29T15:13:31.443Z</time></trkpt><trkpt lat="43.5950907" lon="11.0903472"><ele>232.0</ele><time>2026-03-29T15:13:33.449Z</time></trkpt><trkpt lat="43.595117" lon="11.0904747"><ele>232.0</ele><time>2026-03-29T15:13:35.447Z</time></trkpt><trkpt lat="43.5951311" lon="11.0905728"><ele>231.99999999999997</ele><time>2026-03-29T15:13:37.456Z</time></trkpt><trkpt lat="43.5951435" lon="11.0906594"><ele>232.0</ele><time>2026-03-29T15:13:40.446Z</time></trkpt><trkpt lat="43.5951475" lon="11.0907786"><ele>231.66666666666666</ele><time>2026-03-29T15:27:14.46Z</time></trkpt><trkpt lat="43.5951524" lon="11.0909262"><ele>231.33333333333331</ele><time>2026-03-29T15:27:16.481Z</time></trkpt><trkpt lat="43.5951515" lon="11.0910159"><ele>231.0</ele><time>2026-03-29T15:27:17.445Z</time></trkpt><trkpt lat="43.595149" lon="11.0911193"><ele>230.66666666666669</ele><time>2026-03-29T15:27:18.459Z</time></trkpt><trkpt lat="43.5951495" lon="11.0912353"><ele>230.33333333333334</ele><time>2026-03-29T15:27:19.452Z</time></trkpt><trkpt lat="43.5951524" lon="11.0913574"><ele>230.0</ele><time>2026-03-29T15:27:20.459Z</time></trkpt><trkpt lat="43.5951566" lon="11.0914801"><ele>229.66666666666669</ele><time>2026-03-29T15:27:21.449Z</time></trkpt><trkpt lat="43.5951592" lon="11.0915954"><ele>229.33333333333334</ele><time>2026-03-29T15:27:22.465Z</time></trkpt><trkpt lat="43.5951607" lon="11.0917065"><ele>229.0</ele><time>2026-03-29T15:27:23.493Z</time></trkpt><trkpt lat="43.5951622" lon="11.0918129"><ele>228.66666666666669</ele><time>2026-03-29T15:27:24.456Z</time></trkpt><trkpt lat="43.5951633" lon="11.0919235"><ele>228.33333333333334</ele><time>2026-03-29T15:27:25.456Z</time></trkpt><trkpt lat="43.5951616" lon="11.0920344"><ele>228.0</ele><time>2026-03-29T15:27:26.479Z</time></trkpt><trkpt lat="43.5951587" lon="11.0921438"><ele>228.0</ele><time>2026-03-29T15:27:27.481Z</time></trkpt><trkpt lat="43.5951566" lon="11.0922499"><ele>228.0</ele><time>2026-03-29T15:27:28.482Z</time></trkpt><trkpt lat="43.595155" lon="11.0923552"><ele>228.0</ele><time>2026-03-29T15:27:29.452Z</time></trkpt><trkpt lat="43.5951548" lon="11.0924682"><ele>228.0</ele><time>2026-03-29T15:27:30.46Z</time></trkpt><trkpt lat="43.5951548" lon="11.0925935"><ele>228.0</ele><time>2026-03-29T15:27:31.453Z</time></trkpt><trkpt lat="43.5951576" lon="11.0927304"><ele>228.0</ele><time>2026-03-29T15:27:32.454Z</time></trkpt><trkpt lat="43.595161" lon="11.0928772"><ele>228.2</ele><time>2026-03-29T15:27:33.455Z</time></trkpt><trkpt lat="43.5951615" lon="11.0930276"><ele>228.4</ele><time>2026-03-29T15:27:34.462Z</time></trkpt><trkpt lat="43.5951636" lon="11.0931763"><ele>228.59999999999997</ele><time>2026-03-29T15:27:35.486Z</time></trkpt><trkpt lat="43.5951672" lon="11.0933201"><ele>228.79999999999998</ele><time>2026-03-29T15:27:36.45Z</time></trkpt><trkpt lat="43.5951706" lon="11.0934593"><ele>229.0</ele><time>2026-03-29T15:27:37.464Z</time></trkpt><trkpt lat="43.5951763" lon="11.0935992"><ele>229.79999999999998</ele><time>2026-03-29T15:27:38.483Z</time></trkpt><trkpt lat="43.5951858" lon="11.0937447"><ele>230.59999999999997</ele><time>2026-03-29T15:27:39.46Z</time></trkpt><trkpt lat="43.5952078" lon="11.0938856"><ele>231.4</ele><time>2026-03-29T15:27:40.456Z</time></trkpt><trkpt lat="43.5952384" lon="11.0940118"><ele>232.2</ele><time>2026-03-29T15:27:41.456Z</time></trkpt><trkpt lat="43.5952644" lon="11.0941192"><ele>233.0</ele><time>2026-03-29T15:27:42.455Z</time></trkpt><trkpt lat="43.5952783" lon="11.0942186"><ele>233.66666666666669</ele><time>2026-03-29T15:27:43.448Z</time></trkpt><trkpt lat="43.5952765" lon="11.0943098"><ele>234.33333333333334</ele><time>2026-03-29T15:27:44.457Z</time></trkpt><trkpt lat="43.5952482" lon="11.0944648"><ele>235.0</ele><time>2026-03-29T15:27:46.46Z</time></trkpt><trkpt lat="43.5951787" lon="11.0946026"><ele>235.66666666666669</ele><time>2026-03-29T15:27:48.447Z</time></trkpt><trkpt lat="43.5951454" lon="11.0946819"><ele>236.33333333333334</ele><time>2026-03-29T15:27:49.458Z</time></trkpt><trkpt lat="43.5951345" lon="11.0947735"><ele>237.0</ele><time>2026-03-29T15:27:50.452Z</time></trkpt><trkpt lat="43.595155" lon="11.0948689"><ele>236.0</ele><time>2026-03-29T15:27:51.451Z</time></trkpt><trkpt lat="43.5952128" lon="11.0949702"><ele>235.0</ele><time>2026-03-29T15:27:52.455Z</time></trkpt><trkpt lat="43.5952916" lon="11.0950798"><ele>234.0</ele><time>2026-03-29T15:27:53.448Z</time></trkpt><trkpt lat="43.5953657" lon="11.0951907"><ele>233.0</ele><time>2026-03-29T15:27:54.448Z</time></trkpt><trkpt lat="43.5954264" lon="11.095315"><ele>232.0</ele><time>2026-03-29T15:27:55.468Z</time></trkpt><trkpt lat="43.5954789" lon="11.095455"><ele>232.0</ele><time>2026-03-29T15:27:56.481Z</time></trkpt><trkpt lat="43.595521" lon="11.0956035"><ele>232.0</ele><time>2026-03-29T15:27:57.455Z</time></trkpt><trkpt lat="43.595556" lon="11.0957564"><ele>232.0</ele><time>2026-03-29T15:27:58.49Z</time></trkpt><trkpt lat="43.595584" lon="11.0959145"><ele>232.0</ele><time>2026-03-29T15:27:59.46Z</time></trkpt><trkpt lat="43.5956078" lon="11.0960695"><ele>232.2</ele><time>2026-03-29T15:28:00.478Z</time></trkpt><trkpt lat="43.5956271" lon="11.096225"><ele>232.39999999999998</ele><time>2026-03-29T15:28:01.454Z</time></trkpt><trkpt lat="43.5956416" lon="11.0963834"><ele>232.60000000000002</ele><time>2026-03-29T15:28:02.45Z</time></trkpt><trkpt lat="43.5956559" lon="11.096534"><ele>232.8</ele><time>2026-03-29T15:28:03.46Z</time></trkpt><trkpt lat="43.595674" lon="11.0966777"><ele>233.0</ele><time>2026-03-29T15:28:04.456Z</time></trkpt><trkpt lat="43.5956993" lon="11.0968078"><ele>232.2</ele><time>2026-03-29T15:28:05.467Z</time></trkpt><trkpt lat="43.5957321" lon="11.0969284"><ele>231.4</ele><time>2026-03-29T15:28:06.473Z</time></trkpt><trkpt lat="43.5957603" lon="11.0970404"><ele>230.59999999999997</ele><time>2026-03-29T15:28:07.456Z</time></trkpt><trkpt lat="43.5957761" lon="11.0971528"><ele>229.79999999999998</ele><time>2026-03-29T15:28:08.452Z</time></trkpt><trkpt lat="43.5957703" lon="11.0972736"><ele>229.0</ele><time>2026-03-29T15:28:09.454Z</time></trkpt><trkpt lat="43.5957465" lon="11.0974088"><ele>228.25</ele><time>2026-03-29T15:28:10.456Z</time></trkpt><trkpt lat="43.5957191" lon="11.0975543"><ele>227.5</ele><time>2026-03-29T15:28:11.456Z</time></trkpt><trkpt lat="43.5956982" lon="11.097716"><ele>226.75</ele><time>2026-03-29T15:28:12.456Z</time></trkpt><trkpt lat="43.5956861" lon="11.0978758"><ele>226.0</ele><time>2026-03-29T15:28:13.484Z</time></trkpt><trkpt lat="43.5956795" lon="11.0980346"><ele>226.0</ele><time>2026-03-29T15:28:14.489Z</time></trkpt><trkpt lat="43.5956752" lon="11.0982018"><ele>226.0</ele><time>2026-03-29T15:28:15.485Z</time></trkpt><trkpt lat="43.5956705" lon="11.0983698"><ele>226.0</ele><time>2026-03-29T15:28:16.48Z</time></trkpt><trkpt lat="43.595661" lon="11.098538"><ele>226.0</ele><time>2026-03-29T15:28:17.449Z</time></trkpt><trkpt lat="43.5956482" lon="11.0987057"><ele>226.25</ele><time>2026-03-29T15:28:18.463Z</time></trkpt><trkpt lat="43.5956381" lon="11.0988684"><ele>226.5</ele><time>2026-03-29T15:28:19.446Z</time></trkpt><trkpt lat="43.595626" lon="11.0990233"><ele>226.75</ele><time>2026-03-29T15:28:20.482Z</time></trkpt><trkpt lat="43.5956106" lon="11.0991759"><ele>227.0</ele><time>2026-03-29T15:28:21.445Z</time></trkpt><trkpt lat="43.5955987" lon="11.099331"><ele>226.6</ele><time>2026-03-29T15:28:22.457Z</time></trkpt><trkpt lat="43.595591" lon="11.0994842"><ele>226.2</ele><time>2026-03-29T15:28:23.451Z</time></trkpt><trkpt lat="43.5955833" lon="11.0996373"><ele>225.8</ele><time>2026-03-29T15:28:24.451Z</time></trkpt><trkpt lat="43.5955754" lon="11.099791"><ele>225.4</ele><time>2026-03-29T15:28:25.454Z</time></trkpt><trkpt lat="43.5955616" lon="11.0999458"><ele>225.0</ele><time>2026-03-29T15:28:26.481Z</time></trkpt><trkpt lat="43.5955463" lon="11.1000983"><ele>225.0</ele><time>2026-03-29T15:28:27.479Z</time></trkpt><trkpt lat="43.5955397" lon="11.1002464"><ele>225.0</ele><time>2026-03-29T15:28:28.493Z</time></trkpt><trkpt lat="43.5955421" lon="11.1003956"><ele>225.0</ele><time>2026-03-29T15:28:29.452Z</time></trkpt><trkpt lat="43.5955473" lon="11.1005452"><ele>225.0</ele><time>2026-03-29T15:28:30.452Z</time></trkpt><trkpt lat="43.5955583" lon="11.1006968"><ele>225.0</ele><time>2026-03-29T15:28:31.454Z</time></trkpt><trkpt lat="43.59557" lon="11.100848"><ele>225.0</ele><time>2026-03-29T15:28:32.46Z</time></trkpt><trkpt lat="43.5955789" lon="11.1009933"><ele>225.0</ele><time>2026-03-29T15:28:33.451Z</time></trkpt><trkpt lat="43.5955797" lon="11.1011255"><ele>225.0</ele><time>2026-03-29T15:28:34.483Z</time></trkpt><trkpt lat="43.595574" lon="11.1012458"><ele>225.0</ele><time>2026-03-29T15:28:35.452Z</time></trkpt><trkpt lat="43.5955628" lon="11.1013513"><ele>225.0</ele><time>2026-03-29T15:28:36.479Z</time></trkpt><trkpt lat="43.5955468" lon="11.1014461"><ele>225.0</ele><time>2026-03-29T15:28:37.458Z</time></trkpt><trkpt lat="43.5955244" lon="11.1015415"><ele>225.6</ele><time>2026-03-29T15:28:38.482Z</time></trkpt><trkpt lat="43.5954899" lon="11.1016399"><ele>226.2</ele><time>2026-03-29T15:28:39.451Z</time></trkpt><trkpt lat="43.5954309" lon="11.1017521"><ele>226.8</ele><time>2026-03-29T15:28:40.458Z</time></trkpt><trkpt lat="43.5953542" lon="11.1018776"><ele>227.4</ele><time>2026-03-29T15:28:41.455Z</time></trkpt><trkpt lat="43.5952849" lon="11.1020132"><ele>228.0</ele><time>2026-03-29T15:28:42.484Z</time></trkpt><trkpt lat="43.5952357" lon="11.1021626"><ele>228.25</ele><time>2026-03-29T15:28:43.462Z</time></trkpt><trkpt lat="43.5952062" lon="11.1023205"><ele>228.5</ele><time>2026-03-29T15:28:44.463Z</time></trkpt><trkpt lat="43.5952004" lon="11.1024792"><ele>228.75</ele><time>2026-03-29T15:28:45.461Z</time></trkpt><trkpt lat="43.5952066" lon="11.1026408"><ele>229.0</ele><time>2026-03-29T15:28:46.45Z</time></trkpt><trkpt lat="43.5952275" lon="11.1028047"><ele>229.0</ele><time>2026-03-29T15:28:47.477Z</time></trkpt><trkpt lat="43.5952643" lon="11.1029657"><ele>229.0</ele><time>2026-03-29T15:28:48.496Z</time></trkpt><trkpt lat="43.5953178" lon="11.1031176"><ele>229.0</ele><time>2026-03-29T15:28:49.449Z</time></trkpt><trkpt lat="43.5953767" lon="11.1032659"><ele>229.0</ele><time>2026-03-29T15:28:50.448Z</time></trkpt><trkpt lat="43.5954327" lon="11.1034085"><ele>230.2</ele><time>2026-03-29T15:28:51.463Z</time></trkpt><trkpt lat="43.595475" lon="11.1035555"><ele>231.39999999999998</ele><time>2026-03-29T15:28:52.448Z</time></trkpt><trkpt lat="43.5954992" lon="11.103703"><ele>232.6</ele><time>2026-03-29T15:28:53.459Z</time></trkpt><trkpt lat="43.5955092" lon="11.1038482"><ele>233.8</ele><time>2026-03-29T15:28:54.459Z</time></trkpt><trkpt lat="43.5954956" lon="11.1039971"><ele>235.0</ele><time>2026-03-29T15:28:55.486Z</time></trkpt><trkpt lat="43.5954615" lon="11.1041567"><ele>237.25</ele><time>2026-03-29T15:28:56.453Z</time></trkpt><trkpt lat="43.5954284" lon="11.1043209"><ele>239.5</ele><time>2026-03-29T15:28:57.46Z</time></trkpt><trkpt lat="43.5954039" lon="11.1044932"><ele>241.75</ele><time>2026-03-29T15:28:58.449Z</time></trkpt><trkpt lat="43.5953862" lon="11.1046701"><ele>244.0</ele><time>2026-03-29T15:28:59.451Z</time></trkpt><trkpt lat="43.5953736" lon="11.104837"><ele>245.6</ele><time>2026-03-29T15:29:00.455Z</time></trkpt><trkpt lat="43.5953584" lon="11.1049857"><ele>247.2</ele><time>2026-03-29T15:29:01.48Z</time></trkpt><trkpt lat="43.5953304" lon="11.1051175"><ele>248.79999999999998</ele><time>2026-03-29T15:29:02.482Z</time></trkpt><trkpt lat="43.5952859" lon="11.1052377"><ele>250.39999999999998</ele><time>2026-03-29T15:29:03.482Z</time></trkpt><trkpt lat="43.5952322" lon="11.1053525"><ele>252.0</ele><time>2026-03-29T15:29:04.454Z</time></trkpt><trkpt lat="43.5951705" lon="11.1054651"><ele>253.25</ele><time>2026-03-29T15:29:05.449Z</time></trkpt><trkpt lat="43.5951114" lon="11.1056075"><ele>254.5</ele><time>2026-03-29T15:29:06.463Z</time></trkpt><trkpt lat="43.5950636" lon="11.1057739"><ele>255.75</ele><time>2026-03-29T15:29:07.45Z</time></trkpt><trkpt lat="43.5950344" lon="11.1059425"><ele>257.0</ele><time>2026-03-29T15:29:08.453Z</time></trkpt><trkpt lat="43.5950175" lon="11.1061135"><ele>259.5</ele><time>2026-03-29T15:29:09.454Z</time></trkpt><trkpt lat="43.595012" lon="11.1062746"><ele>262.0</ele><time>2026-03-29T15:29:10.481Z</time></trkpt><trkpt lat="43.5950134" lon="11.1064092"><ele>264.5</ele><time>2026-03-29T15:29:11.485Z</time></trkpt><trkpt lat="43.5950152" lon="11.1065189"><ele>267.0</ele><time>2026-03-29T15:29:12.453Z</time></trkpt><trkpt lat="43.595008" lon="11.1066076"><ele>269.5</ele><time>2026-03-29T15:29:13.453Z</time></trkpt><trkpt lat="43.5949795" lon="11.1066881"><ele>272.0</ele><time>2026-03-29T15:29:14.466Z</time></trkpt><trkpt lat="43.5949281" lon="11.1067698"><ele>276.2</ele><time>2026-03-29T15:29:15.451Z</time></trkpt><trkpt lat="43.5948526" lon="11.106843"><ele>280.4</ele><time>2026-03-29T15:29:16.447Z</time></trkpt><trkpt lat="43.5947701" lon="11.1069197"><ele>284.6</ele><time>2026-03-29T15:29:17.451Z</time></trkpt><trkpt lat="43.594703" lon="11.1070219"><ele>288.8</ele><time>2026-03-29T15:29:18.485Z</time></trkpt><trkpt lat="43.5946585" lon="11.1071361"><ele>293.0</ele><time>2026-03-29T15:29:19.452Z</time></trkpt><trkpt lat="43.5946249" lon="11.1072535"><ele>293.0</ele><time>2026-03-29T15:29:20.483Z</time></trkpt><trkpt lat="43.5945879" lon="11.1073959"><ele>293.0</ele><time>2026-03-29T15:29:21.484Z</time></trkpt><trkpt lat="43.5945418" lon="11.1075499"><ele>293.0</ele><time>2026-03-29T15:29:22.45Z</time></trkpt><trkpt lat="43.5944939" lon="11.1077079"><ele>293.0</ele><time>2026-03-29T15:29:23.455Z</time></trkpt><trkpt lat="43.5944453" lon="11.1078687"><ele>294.75</ele><time>2026-03-29T15:29:24.486Z</time></trkpt><trkpt lat="43.5943968" lon="11.1080356"><ele>296.5</ele><time>2026-03-29T15:29:25.488Z</time></trkpt><trkpt lat="43.5943463" lon="11.1082046"><ele>298.25</ele><time>2026-03-29T15:29:26.486Z</time></trkpt><trkpt lat="43.5942986" lon="11.1083704"><ele>300.0</ele><time>2026-03-29T15:29:27.49Z</time></trkpt><trkpt lat="43.5942525" lon="11.1085299"><ele>301.2</ele><time>2026-03-29T15:29:28.457Z</time></trkpt><trkpt lat="43.5942046" lon="11.1086843"><ele>302.4</ele><time>2026-03-29T15:29:29.453Z</time></trkpt><trkpt lat="43.5941579" lon="11.1088359"><ele>303.6</ele><time>2026-03-29T15:29:30.448Z</time></trkpt><trkpt lat="43.5941119" lon="11.1089863"><ele>304.8</ele><time>2026-03-29T15:29:31.465Z</time></trkpt><trkpt lat="43.5940871" lon="11.1091037"><ele>306.0</ele><time>2026-03-29T15:29:32.463Z</time></trkpt><trkpt lat="43.5940356" lon="11.1092743"><ele>307.2</ele><time>2026-03-29T15:29:33.483Z</time></trkpt><trkpt lat="43.5939904" lon="11.1094282"><ele>308.40000000000003</ele><time>2026-03-29T15:29:34.489Z</time></trkpt><trkpt lat="43.5939487" lon="11.1095682"><ele>309.6</ele><time>2026-03-29T15:29:35.447Z</time></trkpt><trkpt lat="43.5939055" lon="11.1097138"><ele>310.8</ele><time>2026-03-29T15:29:36.485Z</time></trkpt><trkpt lat="43.5938665" lon="11.1098484"><ele>312.0</ele><time>2026-03-29T15:29:37.48Z</time></trkpt><trkpt lat="43.5938292" lon="11.1099779"><ele>313.0</ele><time>2026-03-29T15:29:38.452Z</time></trkpt><trkpt lat="43.5937952" lon="11.1101111"><ele>314.0</ele><time>2026-03-29T15:29:39.447Z</time></trkpt><trkpt lat="43.5937832" lon="11.1102126"><ele>315.0</ele><time>2026-03-29T15:29:40.448Z</time></trkpt><trkpt lat="43.5938097" lon="11.1104262"><ele>316.0</ele><time>2026-03-29T15:29:42.481Z</time></trkpt><trkpt lat="43.5938162" lon="11.1106202"><ele>317.4</ele><time>2026-03-29T15:29:43.451Z</time></trkpt><trkpt lat="43.5938154" lon="11.1107729"><ele>318.8</ele><time>2026-03-29T15:29:44.466Z</time></trkpt><trkpt lat="43.5938158" lon="11.1109156"><ele>320.2</ele><time>2026-03-29T15:29:45.46Z</time></trkpt><trkpt lat="43.593813" lon="11.1110511"><ele>321.59999999999997</ele><time>2026-03-29T15:29:46.456Z</time></trkpt><trkpt lat="43.5938052" lon="11.111189"><ele>323.0</ele><time>2026-03-29T15:29:47.467Z</time></trkpt><trkpt lat="43.5937859" lon="11.1112933"><ele>323.0</ele><time>2026-03-29T15:29:48.451Z</time></trkpt><trkpt lat="43.5937534" lon="11.1113871"><ele>323.0</ele><time>2026-03-29T15:29:49.454Z</time></trkpt><trkpt lat="43.593699" lon="11.1115247"><ele>323.0</ele><time>2026-03-29T15:29:50.457Z</time></trkpt><trkpt lat="43.5936548" lon="11.1116485"><ele>323.0</ele><time>2026-03-29T15:29:51.458Z</time></trkpt><trkpt lat="43.5936087" lon="11.1117845"><ele>323.0</ele><time>2026-03-29T15:29:52.457Z</time></trkpt><trkpt lat="43.5935672" lon="11.1119068"><ele>326.79999999999995</ele><time>2026-03-29T15:29:53.49Z</time></trkpt><trkpt lat="43.5935338" lon="11.1120315"><ele>330.6</ele><time>2026-03-29T15:29:54.491Z</time></trkpt><trkpt lat="43.5935061" lon="11.1121589"><ele>334.4</ele><time>2026-03-29T15:29:55.457Z</time></trkpt><trkpt lat="43.5934717" lon="11.112291"><ele>338.20000000000005</ele><time>2026-03-29T15:29:56.467Z</time></trkpt><trkpt lat="43.5934329" lon="11.1124044"><ele>342.0</ele><time>2026-03-29T15:29:57.461Z</time></trkpt><trkpt lat="43.5933825" lon="11.1125199"><ele>343.8</ele><time>2026-03-29T15:29:58.454Z</time></trkpt><trkpt lat="43.5933343" lon="11.1125962"><ele>345.6</ele><time>2026-03-29T15:29:59.451Z</time></trkpt><trkpt lat="43.5931788" lon="11.1126799"><ele>347.40000000000003</ele><time>2026-03-29T15:30:01.489Z</time></trkpt><trkpt lat="43.5930595" lon="11.1127386"><ele>349.20000000000005</ele><time>2026-03-29T15:30:02.457Z</time></trkpt><trkpt lat="43.5929889" lon="11.1127914"><ele>351.0</ele><time>2026-03-29T15:30:03.453Z</time></trkpt><trkpt lat="43.5929589" lon="11.1129728"><ele>351.0</ele><time>2026-03-29T15:30:06.45Z</time></trkpt><trkpt lat="43.5929612" lon="11.113098"><ele>351.0</ele><time>2026-03-29T15:30:08.448Z</time></trkpt><trkpt lat="43.5929568" lon="11.1132111"><ele>351.0</ele><time>2026-03-29T15:30:09.452Z</time></trkpt><trkpt lat="43.5929339" lon="11.1133209"><ele>351.0</ele><time>2026-03-29T15:30:10.454Z</time></trkpt><trkpt lat="43.5928993" lon="11.1134246"><ele>351.0</ele><time>2026-03-29T15:30:11.482Z</time></trkpt><trkpt lat="43.5928838" lon="11.1135464"><ele>351.0</ele><time>2026-03-29T15:30:12.482Z</time></trkpt><trkpt lat="43.5928716" lon="11.1136499"><ele>352.8</ele><time>2026-03-29T15:30:13.489Z</time></trkpt><trkpt lat="43.592857" lon="11.1137823"><ele>354.6</ele><time>2026-03-29T15:30:14.46Z</time></trkpt><trkpt lat="43.5928453" lon="11.1139135"><ele>356.4</ele><time>2026-03-29T15:30:15.474Z</time></trkpt><trkpt lat="43.5927749" lon="11.1140772"><ele>358.2</ele><time>2026-03-29T15:30:16.453Z</time></trkpt><trkpt lat="43.5927548" lon="11.1141735"><ele>360.0</ele><time>2026-03-29T15:30:17.476Z</time></trkpt><trkpt lat="43.5927564" lon="11.1142723"><ele>360.0</ele><time>2026-03-29T15:30:18.463Z</time></trkpt><trkpt lat="43.5927734" lon="11.1143833"><ele>360.0</ele><time>2026-03-29T15:30:19.498Z</time></trkpt><trkpt lat="43.5928073" lon="11.1144963"><ele>360.0</ele><time>2026-03-29T15:30:20.449Z</time></trkpt><trkpt lat="43.5928419" lon="11.1146105"><ele>360.0</ele><time>2026-03-29T15:30:21.454Z</time></trkpt><trkpt lat="43.5928735" lon="11.1147101"><ele>360.0</ele><time>2026-03-29T15:30:22.455Z</time></trkpt><trkpt lat="43.5929223" lon="11.1148613"><ele>360.8333333333333</ele><time>2026-03-29T15:30:24.454Z</time></trkpt><trkpt lat="43.5929545" lon="11.1149653"><ele>361.6666666666667</ele><time>2026-03-29T15:30:26.465Z</time></trkpt><trkpt lat="43.5930143" lon="11.1149983"><ele>362.5</ele><time>2026-03-29T15:30:29.455Z</time></trkpt><trkpt lat="43.5930946" lon="11.115001"><ele>363.33333333333337</ele><time>2026-03-29T15:30:31.492Z</time></trkpt><trkpt lat="43.593189" lon="11.1149354"><ele>364.1666666666667</ele><time>2026-03-29T15:30:33.449Z</time></trkpt><trkpt lat="43.5932617" lon="11.1148971"><ele>365.0</ele><time>2026-03-29T15:30:34.498Z</time></trkpt><trkpt lat="43.5933276" lon="11.1148661"><ele>365.0</ele><time>2026-03-29T15:30:35.453Z</time></trkpt><trkpt lat="43.593402" lon="11.1148324"><ele>365.0</ele><time>2026-03-29T15:30:36.446Z</time></trkpt><trkpt lat="43.5934701" lon="11.1147892"><ele>365.0</ele><time>2026-03-29T15:30:37.449Z</time></trkpt><trkpt lat="43.5935553" lon="11.1147497"><ele>365.0</ele><time>2026-03-29T15:30:38.49Z</time></trkpt><trkpt lat="43.5936429" lon="11.114701"><ele>365.0</ele><time>2026-03-29T15:30:39.453Z</time></trkpt><trkpt lat="43.5937347" lon="11.1146488"><ele>365.0</ele><time>2026-03-29T15:30:40.482Z</time></trkpt><trkpt lat="43.59383" lon="11.1145832"><ele>363.25</ele><time>2026-03-29T15:30:41.478Z</time></trkpt><trkpt lat="43.5939364" lon="11.1145133"><ele>361.5</ele><time>2026-03-29T15:30:42.455Z</time></trkpt><trkpt lat="43.5940421" lon="11.1144496"><ele>359.75</ele><time>2026-03-29T15:30:43.448Z</time></trkpt><trkpt lat="43.5941469" lon="11.1143963"><ele>358.0</ele><time>2026-03-29T15:30:44.46Z</time></trkpt><trkpt lat="43.5942498" lon="11.1143423"><ele>358.0</ele><time>2026-03-29T15:30:45.453Z</time></trkpt><trkpt lat="43.5943518" lon="11.1142956"><ele>358.0</ele><time>2026-03-29T15:30:46.48Z</time></trkpt><trkpt lat="43.5944597" lon="11.1142639"><ele>358.0</ele><time>2026-03-29T15:30:47.485Z</time></trkpt><trkpt lat="43.594575" lon="11.1142521"><ele>358.0</ele><time>2026-03-29T15:30:48.484Z</time></trkpt><trkpt lat="43.594702" lon="11.1142523"><ele>358.75</ele><time>2026-03-29T15:30:49.488Z</time></trkpt><trkpt lat="43.5948296" lon="11.1142681"><ele>359.5</ele><time>2026-03-29T15:30:50.465Z</time></trkpt><trkpt lat="43.594957" lon="11.1143039"><ele>360.25</ele><time>2026-03-29T15:30:51.487Z</time></trkpt><trkpt lat="43.5950792" lon="11.1143568"><ele>361.0</ele><time>2026-03-29T15:30:52.486Z</time></trkpt><trkpt lat="43.5951952" lon="11.1144214"><ele>361.0</ele><time>2026-03-29T15:30:53.454Z</time></trkpt><trkpt lat="43.5953009" lon="11.1144861"><ele>361.0</ele><time>2026-03-29T15:30:54.457Z</time></trkpt><trkpt lat="43.5954491" lon="11.1145374"><ele>361.0</ele><time>2026-03-29T15:30:55.452Z</time></trkpt><trkpt lat="43.5955519" lon="11.1145982"><ele>361.0</ele><time>2026-03-29T15:30:56.446Z</time></trkpt><trkpt lat="43.5956595" lon="11.1146681"><ele>360.25</ele><time>2026-03-29T15:30:57.46Z</time></trkpt><trkpt lat="43.5957548" lon="11.114738"><ele>359.5</ele><time>2026-03-29T15:30:58.484Z</time></trkpt><trkpt lat="43.5958712" lon="11.1148107"><ele>358.75</ele><time>2026-03-29T15:30:59.483Z</time></trkpt><trkpt lat="43.5959631" lon="11.1148878"><ele>358.0</ele><time>2026-03-29T15:31:00.466Z</time></trkpt><trkpt lat="43.5960548" lon="11.1149742"><ele>357.75</ele><time>2026-03-29T15:31:01.485Z</time></trkpt><trkpt lat="43.5961475" lon="11.115061"><ele>357.5</ele><time>2026-03-29T15:31:02.454Z</time></trkpt><trkpt lat="43.5962422" lon="11.1151537"><ele>357.25</ele><time>2026-03-29T15:31:03.456Z</time></trkpt><trkpt lat="43.5963331" lon="11.1152458"><ele>357.0</ele><time>2026-03-29T15:31:04.458Z</time></trkpt><trkpt lat="43.596428" lon="11.1153367"><ele>356.0</ele><time>2026-03-29T15:31:05.459Z</time></trkpt><trkpt lat="43.596516" lon="11.1153989"><ele>355.0</ele><time>2026-03-29T15:31:06.449Z</time></trkpt><trkpt lat="43.5966271" lon="11.1154693"><ele>354.0</ele><time>2026-03-29T15:31:07.448Z</time></trkpt><trkpt lat="43.5967378" lon="11.1155304"><ele>353.0</ele><time>2026-03-29T15:31:08.479Z</time></trkpt><trkpt lat="43.5968497" lon="11.1155806"><ele>353.0</ele><time>2026-03-29T15:31:09.446Z</time></trkpt><trkpt lat="43.5969779" lon="11.1156287"><ele>353.0</ele><time>2026-03-29T15:31:10.495Z</time></trkpt><trkpt lat="43.5970955" lon="11.1156689"><ele>353.0</ele><time>2026-03-29T15:31:11.447Z</time></trkpt><trkpt lat="43.5972223" lon="11.115709"><ele>353.0</ele><time>2026-03-29T15:31:12.46Z</time></trkpt><trkpt lat="43.5973483" lon="11.1157498"><ele>355.25</ele><time>2026-03-29T15:31:13.451Z</time></trkpt><trkpt lat="43.5974734" lon="11.1157908"><ele>357.5</ele><time>2026-03-29T15:31:14.454Z</time></trkpt><trkpt lat="43.5975977" lon="11.1158385"><ele>359.75</ele><time>2026-03-29T15:31:15.457Z</time></trkpt><trkpt lat="43.59771" lon="11.1158949"><ele>362.0</ele><time>2026-03-29T15:31:16.452Z</time></trkpt><trkpt lat="43.5978085" lon="11.1159513"><ele>363.6</ele><time>2026-03-29T15:31:17.456Z</time></trkpt><trkpt lat="43.5979034" lon="11.1160072"><ele>365.20000000000005</ele><time>2026-03-29T15:31:18.492Z</time></trkpt><trkpt lat="43.5979823" lon="11.1160581"><ele>366.8</ele><time>2026-03-29T15:31:19.455Z</time></trkpt><trkpt lat="43.5980668" lon="11.1161106"><ele>368.4</ele><time>2026-03-29T15:31:20.452Z</time></trkpt><trkpt lat="43.5981492" lon="11.1161611"><ele>370.0</ele><time>2026-03-29T15:31:21.446Z</time></trkpt><trkpt lat="43.5982187" lon="11.1162155"><ele>370.0</ele><time>2026-03-29T15:31:22.463Z</time></trkpt><trkpt lat="43.5982897" lon="11.1162867"><ele>370.0</ele><time>2026-03-29T15:31:23.447Z</time></trkpt><trkpt lat="43.5983786" lon="11.1162942"><ele>370.0</ele><time>2026-03-29T15:31:26.454Z</time></trkpt><trkpt lat="43.5985109" lon="11.1162799"><ele>370.0</ele><time>2026-03-29T15:31:27.445Z</time></trkpt><trkpt lat="43.5986658" lon="11.1162837"><ele>370.75</ele><time>2026-03-29T15:31:28.499Z</time></trkpt><trkpt lat="43.5986949" lon="11.1163827"><ele>371.5</ele><time>2026-03-29T15:31:31.442Z</time></trkpt><trkpt lat="43.5986862" lon="11.1165438"><ele>372.25</ele><time>2026-03-29T15:31:33.453Z</time></trkpt><trkpt lat="43.5987068" lon="11.1167204"><ele>373.0</ele><time>2026-03-29T15:31:34.466Z</time></trkpt><trkpt lat="43.5987391" lon="11.1169074"><ele>378.25</ele><time>2026-03-29T15:31:35.493Z</time></trkpt><trkpt lat="43.5987819" lon="11.1170477"><ele>383.5</ele><time>2026-03-29T15:31:36.452Z</time></trkpt><trkpt lat="43.5988309" lon="11.1171752"><ele>388.75</ele><time>2026-03-29T15:31:37.466Z</time></trkpt><trkpt lat="43.5988839" lon="11.1173093"><ele>394.0</ele><time>2026-03-29T15:31:38.46Z</time></trkpt><trkpt lat="43.5989592" lon="11.1174644"><ele>396.79999999999995</ele><time>2026-03-29T15:31:39.45Z</time></trkpt><trkpt lat="43.5990453" lon="11.1175629"><ele>399.59999999999997</ele><time>2026-03-29T15:31:40.484Z</time></trkpt><trkpt lat="43.5991242" lon="11.1176637"><ele>402.4</ele><time>2026-03-29T15:31:41.488Z</time></trkpt><trkpt lat="43.5991877" lon="11.1177647"><ele>405.2</ele><time>2026-03-29T15:31:42.468Z</time></trkpt><trkpt lat="43.5992166" lon="11.1178563"><ele>408.0</ele><time>2026-03-29T15:31:43.451Z</time></trkpt><trkpt lat="43.5992641" lon="11.1179633"><ele>408.0</ele><time>2026-03-29T15:31:44.451Z</time></trkpt><trkpt lat="43.5993273" lon="11.1180611"><ele>408.0</ele><time>2026-03-29T15:31:45.48Z</time></trkpt><trkpt lat="43.5993937" lon="11.1181344"><ele>408.0</ele><time>2026-03-29T15:31:46.463Z</time></trkpt><trkpt lat="43.5994631" lon="11.1182021"><ele>408.0</ele><time>2026-03-29T15:31:47.477Z</time></trkpt><trkpt lat="43.599577" lon="11.1182452"><ele>408.0</ele><time>2026-03-29T15:31:49.456Z</time></trkpt><trkpt lat="43.5996659" lon="11.1182045"><ele>408.6666666666667</ele><time>2026-03-29T15:31:51.449Z</time></trkpt><trkpt lat="43.5997495" lon="11.1182797"><ele>409.33333333333337</ele><time>2026-03-29T15:31:54.456Z</time></trkpt><trkpt lat="43.5998154" lon="11.1183697"><ele>410.0</ele><time>2026-03-29T15:31:56.46Z</time></trkpt><trkpt lat="43.5998776" lon="11.1184974"><ele>410.6666666666667</ele><time>2026-03-29T15:31:58.48Z</time></trkpt><trkpt lat="43.5999202" lon="11.1185737"><ele>411.33333333333337</ele><time>2026-03-29T15:31:59.49Z</time></trkpt><trkpt lat="43.5999591" lon="11.1186541"><ele>412.0</ele><time>2026-03-29T15:32:00.458Z</time></trkpt><trkpt lat="43.6000015" lon="11.1187266"><ele>412.00000000000006</ele><time>2026-03-29T15:32:01.488Z</time></trkpt><trkpt lat="43.6000589" lon="11.1188207"><ele>412.0</ele><time>2026-03-29T15:32:02.457Z</time></trkpt><trkpt lat="43.6001159" lon="11.118914"><ele>412.0</ele><time>2026-03-29T15:32:03.449Z</time></trkpt><trkpt lat="43.6001682" lon="11.1189937"><ele>412.0</ele><time>2026-03-29T15:32:04.46Z</time></trkpt><trkpt lat="43.6002329" lon="11.119045"><ele>412.00000000000006</ele><time>2026-03-29T15:32:06.478Z</time></trkpt><trkpt lat="43.6003231" lon="11.1190818"><ele>412.0</ele><time>2026-03-29T15:32:07.45Z</time></trkpt><trkpt lat="43.6004005" lon="11.1191098"><ele>408.8</ele><time>2026-03-29T15:32:08.455Z</time></trkpt><trkpt lat="43.6004731" lon="11.1191265"><ele>405.6</ele><time>2026-03-29T15:32:09.482Z</time></trkpt><trkpt lat="43.6005395" lon="11.1191339"><ele>402.40000000000003</ele><time>2026-03-29T15:32:10.455Z</time></trkpt><trkpt lat="43.600608" lon="11.1191346"><ele>399.20000000000005</ele><time>2026-03-29T15:32:11.449Z</time></trkpt><trkpt lat="43.6007319" lon="11.1191275"><ele>396.0</ele><time>2026-03-29T15:32:13.494Z</time></trkpt><trkpt lat="43.6008508" lon="11.1191249"><ele>396.0</ele><time>2026-03-29T15:32:15.459Z</time></trkpt><trkpt lat="43.600958" lon="11.1191238"><ele>396.0</ele><time>2026-03-29T15:32:17.454Z</time></trkpt><trkpt lat="43.6010207" lon="11.1191716"><ele>396.0</ele><time>2026-03-29T15:32:19.448Z</time></trkpt><trkpt lat="43.6010784" lon="11.1192409"><ele>396.0</ele><time>2026-03-29T15:32:20.461Z</time></trkpt><trkpt lat="43.6011494" lon="11.1193196"><ele>396.0</ele><time>2026-03-29T15:32:21.449Z</time></trkpt><trkpt lat="43.6012402" lon="11.1194006"><ele>393.0</ele><time>2026-03-29T15:32:22.456Z</time></trkpt><trkpt lat="43.6014282" lon="11.1194594"><ele>390.0</ele><time>2026-03-29T15:32:24.454Z</time></trkpt><trkpt lat="43.601547" lon="11.1194752"><ele>387.0</ele><time>2026-03-29T15:32:25.453Z</time></trkpt><trkpt lat="43.6016671" lon="11.1194963"><ele>384.0</ele><time>2026-03-29T15:32:26.456Z</time></trkpt><trkpt lat="43.6017795" lon="11.1195242"><ele>384.0</ele><time>2026-03-29T15:32:27.451Z</time></trkpt><trkpt lat="43.6018941" lon="11.1195596"><ele>384.0</ele><time>2026-03-29T15:32:28.477Z</time></trkpt><trkpt lat="43.601976" lon="11.1195766"><ele>384.0</ele><time>2026-03-29T15:32:29.451Z</time></trkpt><trkpt lat="43.6020574" lon="11.1196028"><ele>384.0</ele><time>2026-03-29T15:32:30.453Z</time></trkpt><trkpt lat="43.6021263" lon="11.1196386"><ele>384.0</ele><time>2026-03-29T15:32:31.478Z</time></trkpt><trkpt lat="43.6021886" lon="11.1196671"><ele>384.0</ele><time>2026-03-29T15:32:32.488Z</time></trkpt><trkpt lat="43.6022518" lon="11.1196958"><ele>383.8333333333333</ele><time>2026-03-29T15:32:33.459Z</time></trkpt><trkpt lat="43.6023141" lon="11.1197372"><ele>383.6666666666667</ele><time>2026-03-29T15:32:34.458Z</time></trkpt><trkpt lat="43.6023884" lon="11.1197997"><ele>383.5</ele><time>2026-03-29T15:32:35.455Z</time></trkpt><trkpt lat="43.6024528" lon="11.1198744"><ele>383.33333333333337</ele><time>2026-03-29T15:32:36.475Z</time></trkpt><trkpt lat="43.602523" lon="11.1199492"><ele>383.1666666666667</ele><time>2026-03-29T15:32:37.458Z</time></trkpt><trkpt lat="43.6026042" lon="11.1200038"><ele>383.0</ele><time>2026-03-29T15:32:38.453Z</time></trkpt><trkpt lat="43.602712" lon="11.1200645"><ele>383.0</ele><time>2026-03-29T15:32:39.486Z</time></trkpt><trkpt lat="43.60282" lon="11.1201097"><ele>383.0</ele><time>2026-03-29T15:32:40.467Z</time></trkpt><trkpt lat="43.6029413" lon="11.1201452"><ele>383.0</ele><time>2026-03-29T15:32:41.477Z</time></trkpt><trkpt lat="43.6030655" lon="11.1201668"><ele>383.0</ele><time>2026-03-29T15:32:42.462Z</time></trkpt><trkpt lat="43.6031958" lon="11.1201826"><ele>380.0</ele><time>2026-03-29T15:32:43.456Z</time></trkpt><trkpt lat="43.6033334" lon="11.1202216"><ele>377.0</ele><time>2026-03-29T15:32:44.454Z</time></trkpt><trkpt lat="43.6034671" lon="11.1202316"><ele>374.0</ele><time>2026-03-29T15:32:45.458Z</time></trkpt><trkpt lat="43.6035943" lon="11.1202277"><ele>371.0</ele><time>2026-03-29T15:32:46.486Z</time></trkpt><trkpt lat="43.6037168" lon="11.1202213"><ele>369.5</ele><time>2026-03-29T15:32:47.451Z</time></trkpt><trkpt lat="43.6038464" lon="11.1202143"><ele>368.0</ele><time>2026-03-29T15:32:48.454Z</time></trkpt><trkpt lat="43.6039714" lon="11.120217"><ele>366.5</ele><time>2026-03-29T15:32:49.489Z</time></trkpt><trkpt lat="43.6040889" lon="11.1202239"><ele>365.0</ele><time>2026-03-29T15:32:50.493Z</time></trkpt><trkpt lat="43.6042032" lon="11.1202321"><ele>365.0</ele><time>2026-03-29T15:32:51.483Z</time></trkpt><trkpt lat="43.6042859" lon="11.1202526"><ele>365.0</ele><time>2026-03-29T15:32:52.457Z</time></trkpt><trkpt lat="43.604376" lon="11.1202868"><ele>365.0</ele><time>2026-03-29T15:32:53.454Z</time></trkpt><trkpt lat="43.6044517" lon="11.1203349"><ele>365.0</ele><time>2026-03-29T15:32:54.48Z</time></trkpt><trkpt lat="43.6045292" lon="11.1203899"><ele>365.0</ele><time>2026-03-29T15:32:55.447Z</time></trkpt><trkpt lat="43.6045944" lon="11.120443"><ele>365.0</ele><time>2026-03-29T15:32:56.461Z</time></trkpt><trkpt lat="43.6046653" lon="11.1204965"><ele>364.83333333333337</ele><time>2026-03-29T15:32:57.481Z</time></trkpt><trkpt lat="43.6047329" lon="11.1205534"><ele>364.6666666666667</ele><time>2026-03-29T15:32:58.454Z</time></trkpt><trkpt lat="43.6048046" lon="11.120599"><ele>364.5</ele><time>2026-03-29T15:32:59.444Z</time></trkpt><trkpt lat="43.6048862" lon="11.1206494"><ele>364.3333333333333</ele><time>2026-03-29T15:33:00.458Z</time></trkpt><trkpt lat="43.6049664" lon="11.1206894"><ele>364.16666666666663</ele><time>2026-03-29T15:33:01.466Z</time></trkpt><trkpt lat="43.6050449" lon="11.1207258"><ele>364.0</ele><time>2026-03-29T15:33:02.455Z</time></trkpt><trkpt lat="43.6051309" lon="11.1207642"><ele>364.0</ele><time>2026-03-29T15:33:03.465Z</time></trkpt><trkpt lat="43.6052199" lon="11.1208013"><ele>364.0</ele><time>2026-03-29T15:33:04.455Z</time></trkpt><trkpt lat="43.6053005" lon="11.1208378"><ele>364.0</ele><time>2026-03-29T15:33:05.461Z</time></trkpt><trkpt lat="43.605389" lon="11.1208687"><ele>364.0</ele><time>2026-03-29T15:33:06.451Z</time></trkpt><trkpt lat="43.6054698" lon="11.1208911"><ele>364.0</ele><time>2026-03-29T15:33:07.465Z</time></trkpt><trkpt lat="43.6055507" lon="11.1209084"><ele>364.0</ele><time>2026-03-29T15:33:08.449Z</time></trkpt><trkpt lat="43.6056293" lon="11.1209251"><ele>362.16666666666663</ele><time>2026-03-29T15:33:09.457Z</time></trkpt><trkpt lat="43.6057077" lon="11.1209303"><ele>360.3333333333333</ele><time>2026-03-29T15:33:10.456Z</time></trkpt><trkpt lat="43.605788" lon="11.1209275"><ele>358.5</ele><time>2026-03-29T15:33:11.453Z</time></trkpt><trkpt lat="43.6058702" lon="11.1209151"><ele>356.6666666666667</ele><time>2026-03-29T15:33:12.453Z</time></trkpt><trkpt lat="43.605947" lon="11.1209004"><ele>354.83333333333337</ele><time>2026-03-29T15:33:13.453Z</time></trkpt><trkpt lat="43.6060278" lon="11.1208848"><ele>353.0</ele><time>2026-03-29T15:33:14.454Z</time></trkpt><trkpt lat="43.6061059" lon="11.1208579"><ele>351.33333333333337</ele><time>2026-03-29T15:33:15.448Z</time></trkpt><trkpt lat="43.6061885" lon="11.1208134"><ele>349.6666666666667</ele><time>2026-03-29T15:33:16.458Z</time></trkpt><trkpt lat="43.6062653" lon="11.1207495"><ele>348.0</ele><time>2026-03-29T15:33:17.453Z</time></trkpt><trkpt lat="43.6063362" lon="11.1206755"><ele>346.3333333333333</ele><time>2026-03-29T15:33:18.447Z</time></trkpt><trkpt lat="43.6063876" lon="11.1206071"><ele>344.66666666666663</ele><time>2026-03-29T15:33:19.453Z</time></trkpt><trkpt lat="43.6064715" lon="11.120527"><ele>343.0</ele><time>2026-03-29T15:33:20.469Z</time></trkpt><trkpt lat="43.6065624" lon="11.1204448"><ele>343.0</ele><time>2026-03-29T15:33:21.457Z</time></trkpt><trkpt lat="43.6066567" lon="11.1203606"><ele>343.0</ele><time>2026-03-29T15:33:22.492Z</time></trkpt><trkpt lat="43.6067418" lon="11.1203017"><ele>343.0</ele><time>2026-03-29T15:33:23.477Z</time></trkpt><trkpt lat="43.6068544" lon="11.1202298"><ele>343.0</ele><time>2026-03-29T15:33:24.454Z</time></trkpt><trkpt lat="43.6069648" lon="11.1201572"><ele>341.79999999999995</ele><time>2026-03-29T15:33:25.447Z</time></trkpt><trkpt lat="43.6070669" lon="11.1200817"><ele>340.6</ele><time>2026-03-29T15:33:26.45Z</time></trkpt><trkpt lat="43.6071625" lon="11.1200142"><ele>339.4</ele><time>2026-03-29T15:33:27.452Z</time></trkpt><trkpt lat="43.6072468" lon="11.1199528"><ele>338.20000000000005</ele><time>2026-03-29T15:33:28.459Z</time></trkpt><trkpt lat="43.607323" lon="11.1198974"><ele>337.0</ele><time>2026-03-29T15:33:29.444Z</time></trkpt><trkpt lat="43.6073955" lon="11.1198474"><ele>335.8333333333333</ele><time>2026-03-29T15:33:30.445Z</time></trkpt><trkpt lat="43.6074709" lon="11.1197953"><ele>334.66666666666663</ele><time>2026-03-29T15:33:31.45Z</time></trkpt><trkpt lat="43.6075483" lon="11.1197458"><ele>333.5</ele><time>2026-03-29T15:33:32.461Z</time></trkpt><trkpt lat="43.6076224" lon="11.1197087"><ele>332.3333333333333</ele><time>2026-03-29T15:33:33.45Z</time></trkpt><trkpt lat="43.6077075" lon="11.1196712"><ele>331.1666666666667</ele><time>2026-03-29T15:33:34.445Z</time></trkpt><trkpt lat="43.6077699" lon="11.1196483"><ele>330.0</ele><time>2026-03-29T15:33:35.486Z</time></trkpt><trkpt lat="43.6078335" lon="11.1196211"><ele>329.5</ele><time>2026-03-29T15:33:36.474Z</time></trkpt><trkpt lat="43.6079128" lon="11.1195792"><ele>329.0</ele><time>2026-03-29T15:33:37.473Z</time></trkpt><trkpt lat="43.6079943" lon="11.1195413"><ele>328.5</ele><time>2026-03-29T15:33:38.482Z</time></trkpt><trkpt lat="43.6080646" lon="11.1195299"><ele>328.0</ele><time>2026-03-29T15:33:39.464Z</time></trkpt><trkpt lat="43.6081206" lon="11.1196127"><ele>327.5</ele><time>2026-03-29T15:33:42.46Z</time></trkpt><trkpt lat="43.6081212" lon="11.1197354"><ele>327.0</ele><time>2026-03-29T15:33:44.465Z</time></trkpt><trkpt lat="43.6080871" lon="11.1198601"><ele>326.0</ele><time>2026-03-29T15:33:45.449Z</time></trkpt><trkpt lat="43.6080366" lon="11.1200345"><ele>325.0</ele><time>2026-03-29T15:33:46.447Z</time></trkpt><trkpt lat="43.6079693" lon="11.1202137"><ele>324.0</ele><time>2026-03-29T15:33:47.478Z</time></trkpt><trkpt lat="43.6079001" lon="11.1203854"><ele>323.0</ele><time>2026-03-29T15:33:48.451Z</time></trkpt><trkpt lat="43.607838" lon="11.120536"><ele>325.75</ele><time>2026-03-29T15:33:49.454Z</time></trkpt><trkpt lat="43.607771" lon="11.1207029"><ele>328.5</ele><time>2026-03-29T15:33:50.454Z</time></trkpt><trkpt lat="43.6077046" lon="11.1208674"><ele>331.25</ele><time>2026-03-29T15:33:51.457Z</time></trkpt><trkpt lat="43.6076466" lon="11.1210015"><ele>334.0</ele><time>2026-03-29T15:33:52.463Z</time></trkpt><trkpt lat="43.6076899" lon="11.1211708"><ele>334.0</ele><time>2026-03-29T15:33:56.451Z</time></trkpt><trkpt lat="43.6077345" lon="11.1212435"><ele>334.0</ele><time>2026-03-29T15:33:57.478Z</time></trkpt><trkpt lat="43.6078524" lon="11.1213387"><ele>334.0</ele><time>2026-03-29T15:33:58.448Z</time></trkpt><trkpt lat="43.6080037" lon="11.1215045"><ele>334.0</ele><time>2026-03-29T15:33:59.451Z</time></trkpt><trkpt lat="43.6081483" lon="11.1216421"><ele>326.66666666666663</ele><time>2026-03-29T15:34:00.478Z</time></trkpt><trkpt lat="43.6082829" lon="11.1217707"><ele>319.3333333333333</ele><time>2026-03-29T15:34:01.458Z</time></trkpt><trkpt lat="43.6084085" lon="11.1218959"><ele>312.0</ele><time>2026-03-29T15:34:02.452Z</time></trkpt><trkpt lat="43.608533" lon="11.1220441"><ele>312.0</ele><time>2026-03-29T15:34:03.478Z</time></trkpt><trkpt lat="43.6085742" lon="11.1221289"><ele>312.0</ele><time>2026-03-29T15:34:04.488Z</time></trkpt><trkpt lat="43.6085884" lon="11.1222215"><ele>312.0</ele><time>2026-03-29T15:34:05.456Z</time></trkpt><trkpt lat="43.6086429" lon="11.1225063"><ele>312.0</ele><time>2026-03-29T15:34:06.453Z</time></trkpt><trkpt lat="43.6086913" lon="11.1227298"><ele>307.3333333333333</ele><time>2026-03-29T15:34:07.45Z</time></trkpt><trkpt lat="43.6087607" lon="11.1229449"><ele>302.66666666666663</ele><time>2026-03-29T15:34:08.455Z</time></trkpt><trkpt lat="43.6088543" lon="11.1231765"><ele>298.0</ele><time>2026-03-29T15:34:09.447Z</time></trkpt><trkpt lat="43.6090016" lon="11.1235195"><ele>295.3333333333333</ele><time>2026-03-29T15:34:10.449Z</time></trkpt><trkpt lat="43.609099" lon="11.1237236"><ele>292.6666666666667</ele><time>2026-03-29T15:34:11.447Z</time></trkpt><trkpt lat="43.6091872" lon="11.1239124"><ele>290.0</ele><time>2026-03-29T15:34:12.465Z</time></trkpt><trkpt lat="43.6092772" lon="11.1241119"><ele>288.0</ele><time>2026-03-29T15:34:13.453Z</time></trkpt><trkpt lat="43.6093557" lon="11.1242981"><ele>286.0</ele><time>2026-03-29T15:34:14.456Z</time></trkpt><trkpt lat="43.6094394" lon="11.1245084"><ele>284.0</ele><time>2026-03-29T15:34:15.447Z</time></trkpt><trkpt lat="43.6095169" lon="11.124723"><ele>280.0</ele><time>2026-03-29T15:34:16.446Z</time></trkpt><trkpt lat="43.6095915" lon="11.1249327"><ele>276.0</ele><time>2026-03-29T15:34:17.459Z</time></trkpt><trkpt lat="43.6096778" lon="11.1251255"><ele>272.0</ele><time>2026-03-29T15:34:18.48Z</time></trkpt><trkpt lat="43.6097811" lon="11.1253332"><ele>272.0</ele><time>2026-03-29T15:34:19.466Z</time></trkpt><trkpt lat="43.6098819" lon="11.1255191"><ele>272.0</ele><time>2026-03-29T15:34:20.463Z</time></trkpt><trkpt lat="43.6099814" lon="11.1256939"><ele>272.0</ele><time>2026-03-29T15:34:21.459Z</time></trkpt><trkpt lat="43.6100935" lon="11.1258802"><ele>270.33333333333337</ele><time>2026-03-29T15:34:22.449Z</time></trkpt><trkpt lat="43.6102073" lon="11.1260625"><ele>268.6666666666667</ele><time>2026-03-29T15:34:23.45Z</time></trkpt><trkpt lat="43.610318" lon="11.126241"><ele>267.0</ele><time>2026-03-29T15:34:24.451Z</time></trkpt><trkpt lat="43.6104218" lon="11.1263903"><ele>264.75</ele><time>2026-03-29T15:34:25.461Z</time></trkpt><trkpt lat="43.6105231" lon="11.1265395"><ele>262.5</ele><time>2026-03-29T15:34:26.453Z</time></trkpt><trkpt lat="43.6106311" lon="11.1266964"><ele>260.25</ele><time>2026-03-29T15:34:27.479Z</time></trkpt><trkpt lat="43.6107296" lon="11.1268354"><ele>258.0</ele><time>2026-03-29T15:34:28.456Z</time></trkpt><trkpt lat="43.6108365" lon="11.1269859"><ele>258.0</ele><time>2026-03-29T15:34:29.456Z</time></trkpt><trkpt lat="43.6109387" lon="11.1271312"><ele>258.0</ele><time>2026-03-29T15:34:30.465Z</time></trkpt><trkpt lat="43.6110402" lon="11.1272675"><ele>258.0</ele><time>2026-03-29T15:34:31.455Z</time></trkpt><trkpt lat="43.6111391" lon="11.1273927"><ele>258.0</ele><time>2026-03-29T15:34:32.493Z</time></trkpt><trkpt lat="43.6112352" lon="11.1275077"><ele>257.5</ele><time>2026-03-29T15:34:33.452Z</time></trkpt><trkpt lat="43.6113314" lon="11.1276177"><ele>257.0</ele><time>2026-03-29T15:34:34.46Z</time></trkpt><trkpt lat="43.6114201" lon="11.1277169"><ele>256.5</ele><time>2026-03-29T15:34:35.464Z</time></trkpt><trkpt lat="43.6115057" lon="11.1278129"><ele>256.0</ele><time>2026-03-29T15:34:36.45Z</time></trkpt><trkpt lat="43.6115895" lon="11.127908"><ele>256.0</ele><time>2026-03-29T15:34:37.462Z</time></trkpt><trkpt lat="43.6116611" lon="11.1280066"><ele>256.0</ele><time>2026-03-29T15:34:38.454Z</time></trkpt><trkpt lat="43.6117357" lon="11.1281193"><ele>256.0</ele><time>2026-03-29T15:34:39.454Z</time></trkpt><trkpt lat="43.6118148" lon="11.1282388"><ele>256.0</ele><time>2026-03-29T15:34:40.454Z</time></trkpt><trkpt lat="43.6118944" lon="11.1283564"><ele>256.0</ele><time>2026-03-29T15:34:41.452Z</time></trkpt><trkpt lat="43.6119712" lon="11.1284661"><ele>255.5</ele><time>2026-03-29T15:34:42.48Z</time></trkpt><trkpt lat="43.6120473" lon="11.1285779"><ele>255.0</ele><time>2026-03-29T15:34:43.454Z</time></trkpt><trkpt lat="43.6121481" lon="11.1287175"><ele>254.5</ele><time>2026-03-29T15:34:44.467Z</time></trkpt><trkpt lat="43.6122564" lon="11.1288393"><ele>254.0</ele><time>2026-03-29T15:34:45.462Z</time></trkpt><trkpt lat="43.6123687" lon="11.1289829"><ele>255.66666666666669</ele><time>2026-03-29T15:34:46.45Z</time></trkpt><trkpt lat="43.612546" lon="11.1291823"><ele>257.3333333333333</ele><time>2026-03-29T15:34:47.474Z</time></trkpt><trkpt lat="43.612691" lon="11.1293697"><ele>259.0</ele><time>2026-03-29T15:34:48.472Z</time></trkpt><trkpt lat="43.6128321" lon="11.1295428"><ele>254.66666666666666</ele><time>2026-03-29T15:34:49.461Z</time></trkpt><trkpt lat="43.6129738" lon="11.1297079"><ele>250.33333333333331</ele><time>2026-03-29T15:34:50.448Z</time></trkpt><trkpt lat="43.6131145" lon="11.1298613"><ele>246.0</ele><time>2026-03-29T15:34:51.448Z</time></trkpt><trkpt lat="43.6132546" lon="11.1300077"><ele>245.33333333333331</ele><time>2026-03-29T15:34:52.441Z</time></trkpt><trkpt lat="43.6133948" lon="11.1301372"><ele>244.66666666666666</ele><time>2026-03-29T15:34:53.441Z</time></trkpt><trkpt lat="43.6135368" lon="11.130264"><ele>244.0</ele><time>2026-03-29T15:34:54.453Z</time></trkpt><trkpt lat="43.6136747" lon="11.1303794"><ele>242.0</ele><time>2026-03-29T15:34:55.455Z</time></trkpt><trkpt lat="43.6138058" lon="11.1304845"><ele>240.0</ele><time>2026-03-29T15:34:56.452Z</time></trkpt><trkpt lat="43.6139299" lon="11.1305857"><ele>238.0</ele><time>2026-03-29T15:34:57.45Z</time></trkpt><trkpt lat="43.6140449" lon="11.1306761"><ele>236.0</ele><time>2026-03-29T15:34:58.442Z</time></trkpt><trkpt lat="43.6141502" lon="11.1307657"><ele>235.75</ele><time>2026-03-29T15:34:59.45Z</time></trkpt><trkpt lat="43.6142389" lon="11.1308632"><ele>235.5</ele><time>2026-03-29T15:35:00.444Z</time></trkpt><trkpt lat="43.6143173" lon="11.1309876"><ele>235.25</ele><time>2026-03-29T15:35:01.447Z</time></trkpt><trkpt lat="43.6143889" lon="11.131138"><ele>235.0</ele><time>2026-03-29T15:35:02.449Z</time></trkpt><trkpt lat="43.6144412" lon="11.1313234"><ele>235.0</ele><time>2026-03-29T15:35:03.451Z</time></trkpt><trkpt lat="43.6144701" lon="11.1315263"><ele>235.0</ele><time>2026-03-29T15:35:04.455Z</time></trkpt><trkpt lat="43.6144852" lon="11.1317305"><ele>235.0</ele><time>2026-03-29T15:35:05.474Z</time></trkpt><trkpt lat="43.6145095" lon="11.1319321"><ele>235.0</ele><time>2026-03-29T15:35:06.443Z</time></trkpt><trkpt lat="43.6145548" lon="11.1321195"><ele>231.0</ele><time>2026-03-29T15:35:07.448Z</time></trkpt><trkpt lat="43.6146215" lon="11.1322896"><ele>227.0</ele><time>2026-03-29T15:35:08.482Z</time></trkpt><trkpt lat="43.6146997" lon="11.1324486"><ele>223.0</ele><time>2026-03-29T15:35:09.446Z</time></trkpt><trkpt lat="43.6147827" lon="11.1326042"><ele>219.0</ele><time>2026-03-29T15:35:10.443Z</time></trkpt><trkpt lat="43.6148652" lon="11.132763"><ele>217.5</ele><time>2026-03-29T15:35:11.474Z</time></trkpt><trkpt lat="43.6149423" lon="11.1329218"><ele>216.0</ele><time>2026-03-29T15:35:12.453Z</time></trkpt><trkpt lat="43.6150147" lon="11.1330795"><ele>214.5</ele><time>2026-03-29T15:35:13.451Z</time></trkpt><trkpt lat="43.6150849" lon="11.1332331"><ele>213.0</ele><time>2026-03-29T15:35:14.452Z</time></trkpt><trkpt lat="43.6151525" lon="11.1333791"><ele>211.75</ele><time>2026-03-29T15:35:15.45Z</time></trkpt><trkpt lat="43.6152218" lon="11.1335155"><ele>210.5</ele><time>2026-03-29T15:35:16.445Z</time></trkpt><trkpt lat="43.6153023" lon="11.1336416"><ele>209.25</ele><time>2026-03-29T15:35:17.445Z</time></trkpt><trkpt lat="43.6153975" lon="11.133752"><ele>208.0</ele><time>2026-03-29T15:35:18.442Z</time></trkpt><trkpt lat="43.6155051" lon="11.1338433"><ele>205.5</ele><time>2026-03-29T15:35:19.456Z</time></trkpt><trkpt lat="43.6156192" lon="11.1339212"><ele>203.0</ele><time>2026-03-29T15:35:20.449Z</time></trkpt><trkpt lat="43.6157342" lon="11.1339915"><ele>200.5</ele><time>2026-03-29T15:35:21.477Z</time></trkpt><trkpt lat="43.615846" lon="11.1340621"><ele>198.0</ele><time>2026-03-29T15:35:22.45Z</time></trkpt><trkpt lat="43.6159559" lon="11.1341391"><ele>197.25</ele><time>2026-03-29T15:35:23.451Z</time></trkpt><trkpt lat="43.6160619" lon="11.1342186"><ele>196.5</ele><time>2026-03-29T15:35:24.445Z</time></trkpt><trkpt lat="43.6161652" lon="11.1342976"><ele>195.75</ele><time>2026-03-29T15:35:25.445Z</time></trkpt><trkpt lat="43.6162684" lon="11.1343717"><ele>195.0</ele><time>2026-03-29T15:35:26.444Z</time></trkpt><trkpt lat="43.6163693" lon="11.1344453"><ele>193.0</ele><time>2026-03-29T15:35:27.444Z</time></trkpt><trkpt lat="43.6164711" lon="11.134513"><ele>191.0</ele><time>2026-03-29T15:35:28.449Z</time></trkpt><trkpt lat="43.6165757" lon="11.1345727"><ele>189.0</ele><time>2026-03-29T15:35:29.475Z</time></trkpt><trkpt lat="43.6166817" lon="11.1346303"><ele>187.0</ele><time>2026-03-29T15:35:30.47Z</time></trkpt><trkpt lat="43.6167877" lon="11.1346831"><ele>187.0</ele><time>2026-03-29T15:35:31.473Z</time></trkpt><trkpt lat="43.6168878" lon="11.1347316"><ele>187.0</ele><time>2026-03-29T15:35:32.474Z</time></trkpt><trkpt lat="43.6169798" lon="11.1347696"><ele>187.0</ele><time>2026-03-29T15:35:33.472Z</time></trkpt><trkpt lat="43.6170666" lon="11.134796"><ele>187.0</ele><time>2026-03-29T15:35:34.447Z</time></trkpt><trkpt lat="43.6171555" lon="11.1348179"><ele>187.0</ele><time>2026-03-29T15:35:35.447Z</time></trkpt><trkpt lat="43.6172471" lon="11.1348558"><ele>185.8</ele><time>2026-03-29T15:35:36.445Z</time></trkpt><trkpt lat="43.6173466" lon="11.1349218"><ele>184.6</ele><time>2026-03-29T15:35:37.448Z</time></trkpt><trkpt lat="43.6174471" lon="11.135011"><ele>183.4</ele><time>2026-03-29T15:35:38.443Z</time></trkpt><trkpt lat="43.6175389" lon="11.1350957"><ele>182.20000000000002</ele><time>2026-03-29T15:35:39.449Z</time></trkpt><trkpt lat="43.6176226" lon="11.1351728"><ele>181.0</ele><time>2026-03-29T15:35:40.454Z</time></trkpt><trkpt lat="43.6176998" lon="11.1352247"><ele>181.0</ele><time>2026-03-29T15:35:41.441Z</time></trkpt><trkpt lat="43.617773" lon="11.1352366"><ele>181.0</ele><time>2026-03-29T15:35:42.44Z</time></trkpt><trkpt lat="43.6178499" lon="11.1352038"><ele>181.0</ele><time>2026-03-29T15:35:43.444Z</time></trkpt><trkpt lat="43.6179175" lon="11.1351249"><ele>181.0</ele><time>2026-03-29T15:35:44.448Z</time></trkpt><trkpt lat="43.6179584" lon="11.1350015"><ele>181.0</ele><time>2026-03-29T15:35:45.448Z</time></trkpt><trkpt lat="43.6179668" lon="11.134835"><ele>181.5</ele><time>2026-03-29T15:35:46.444Z</time></trkpt><trkpt lat="43.6179626" lon="11.1346446"><ele>182.0</ele><time>2026-03-29T15:35:47.455Z</time></trkpt><trkpt lat="43.6179625" lon="11.1344364"><ele>182.5</ele><time>2026-03-29T15:35:48.454Z</time></trkpt><trkpt lat="43.6179639" lon="11.1342163"><ele>183.0</ele><time>2026-03-29T15:35:49.457Z</time></trkpt><trkpt lat="43.6179717" lon="11.1340057"><ele>183.0</ele><time>2026-03-29T15:35:50.448Z</time></trkpt><trkpt lat="43.6179958" lon="11.1338099"><ele>183.0</ele><time>2026-03-29T15:35:51.48Z</time></trkpt><trkpt lat="43.6180405" lon="11.1336266"><ele>183.0</ele><time>2026-03-29T15:35:52.442Z</time></trkpt><trkpt lat="43.6181051" lon="11.1334734"><ele>183.0</ele><time>2026-03-29T15:35:53.478Z</time></trkpt><trkpt lat="43.618191" lon="11.1333507"><ele>183.0</ele><time>2026-03-29T15:35:54.447Z</time></trkpt><trkpt lat="43.6182969" lon="11.1332859"><ele>183.0</ele><time>2026-03-29T15:35:55.454Z</time></trkpt><trkpt lat="43.6184383" lon="11.1332586"><ele>183.0</ele><time>2026-03-29T15:35:56.453Z</time></trkpt><trkpt lat="43.6185916" lon="11.1332618"><ele>183.0</ele><time>2026-03-29T15:35:57.45Z</time></trkpt><trkpt lat="43.6187489" lon="11.1333101"><ele>183.66666666666666</ele><time>2026-03-29T15:35:58.44Z</time></trkpt><trkpt lat="43.6189169" lon="11.1333761"><ele>184.33333333333331</ele><time>2026-03-29T15:35:59.442Z</time></trkpt><trkpt lat="43.6190813" lon="11.1334732"><ele>185.0</ele><time>2026-03-29T15:36:00.452Z</time></trkpt><trkpt lat="43.6192316" lon="11.1335895"><ele>185.0</ele><time>2026-03-29T15:36:01.447Z</time></trkpt><trkpt lat="43.619369" lon="11.1337027"><ele>185.0</ele><time>2026-03-29T15:36:02.449Z</time></trkpt><trkpt lat="43.6194991" lon="11.1338063"><ele>185.0</ele><time>2026-03-29T15:36:03.444Z</time></trkpt><trkpt lat="43.6196293" lon="11.1339002"><ele>188.0</ele><time>2026-03-29T15:36:04.477Z</time></trkpt><trkpt lat="43.6197661" lon="11.1339704"><ele>191.0</ele><time>2026-03-29T15:36:05.472Z</time></trkpt><trkpt lat="43.6199149" lon="11.1339909"><ele>194.0</ele><time>2026-03-29T15:36:06.449Z</time></trkpt><trkpt lat="43.620064" lon="11.1339313"><ele>194.0</ele><time>2026-03-29T15:36:07.446Z</time></trkpt><trkpt lat="43.6202151" lon="11.1338146"><ele>194.0</ele><time>2026-03-29T15:36:08.444Z</time></trkpt><trkpt lat="43.6203634" lon="11.1336749"><ele>194.0</ele><time>2026-03-29T15:36:09.445Z</time></trkpt><trkpt lat="43.6205078" lon="11.1335275"><ele>196.66666666666669</ele><time>2026-03-29T15:36:10.443Z</time></trkpt><trkpt lat="43.6206597" lon="11.1333882"><ele>199.33333333333331</ele><time>2026-03-29T15:36:11.445Z</time></trkpt><trkpt lat="43.6208163" lon="11.1332548"><ele>202.0</ele><time>2026-03-29T15:36:12.448Z</time></trkpt><trkpt lat="43.6209658" lon="11.133129"><ele>202.0</ele><time>2026-03-29T15:36:13.484Z</time></trkpt><trkpt lat="43.621104" lon="11.133015"><ele>202.0</ele><time>2026-03-29T15:36:14.457Z</time></trkpt><trkpt lat="43.6212277" lon="11.1329226"><ele>202.0</ele><time>2026-03-29T15:36:15.45Z</time></trkpt><trkpt lat="43.6213378" lon="11.1328704"><ele>202.0</ele><time>2026-03-29T15:36:16.442Z</time></trkpt><trkpt lat="43.6214323" lon="11.1328579"><ele>204.83333333333331</ele><time>2026-03-29T15:36:17.473Z</time></trkpt><trkpt lat="43.621509" lon="11.1328688"><ele>207.66666666666666</ele><time>2026-03-29T15:36:18.443Z</time></trkpt><trkpt lat="43.6215697" lon="11.1329009"><ele>210.5</ele><time>2026-03-29T15:36:19.47Z</time></trkpt><trkpt lat="43.6216267" lon="11.1329606"><ele>213.33333333333331</ele><time>2026-03-29T15:36:20.454Z</time></trkpt><trkpt lat="43.6216793" lon="11.1330351"><ele>216.16666666666666</ele><time>2026-03-29T15:36:21.446Z</time></trkpt><trkpt lat="43.6217345" lon="11.1331193"><ele>219.0</ele><time>2026-03-29T15:36:22.447Z</time></trkpt><trkpt lat="43.6217937" lon="11.1332094"><ele>219.83333333333334</ele><time>2026-03-29T15:36:23.448Z</time></trkpt><trkpt lat="43.6218452" lon="11.1332863"><ele>220.66666666666669</ele><time>2026-03-29T15:36:24.449Z</time></trkpt><trkpt lat="43.6219156" lon="11.133405"><ele>221.5</ele><time>2026-03-29T15:36:26.473Z</time></trkpt><trkpt lat="43.6219762" lon="11.1335083"><ele>222.33333333333334</ele><time>2026-03-29T15:36:28.453Z</time></trkpt><trkpt lat="43.6220213" lon="11.1335865"><ele>223.16666666666669</ele><time>2026-03-29T15:36:30.445Z</time></trkpt><trkpt lat="43.6220714" lon="11.1336626"><ele>224.0</ele><time>2026-03-29T15:36:37.459Z</time></trkpt><trkpt lat="43.6221834" lon="11.133785"><ele>228.79999999999998</ele><time>2026-03-29T15:36:39.475Z</time></trkpt><trkpt lat="43.6222488" lon="11.1338762"><ele>233.59999999999997</ele><time>2026-03-29T15:36:40.444Z</time></trkpt><trkpt lat="43.6223187" lon="11.1339779"><ele>238.4</ele><time>2026-03-29T15:36:41.453Z</time></trkpt><trkpt lat="43.6223899" lon="11.1341027"><ele>243.2</ele><time>2026-03-29T15:36:42.449Z</time></trkpt><trkpt lat="43.6224557" lon="11.134248"><ele>248.0</ele><time>2026-03-29T15:36:43.451Z</time></trkpt><trkpt lat="43.6225069" lon="11.1343943"><ele>248.00000000000003</ele><time>2026-03-29T15:36:44.447Z</time></trkpt><trkpt lat="43.6225435" lon="11.1345258"><ele>248.0</ele><time>2026-03-29T15:36:45.447Z</time></trkpt><trkpt lat="43.6225634" lon="11.1346278"><ele>248.0</ele><time>2026-03-29T15:36:46.445Z</time></trkpt><trkpt lat="43.6225742" lon="11.1347605"><ele>248.0</ele><time>2026-03-29T15:36:48.444Z</time></trkpt><trkpt lat="43.6225881" lon="11.1348496"><ele>248.00000000000003</ele><time>2026-03-29T15:36:51.449Z</time></trkpt><trkpt lat="43.6226538" lon="11.1349399"><ele>248.0</ele><time>2026-03-29T15:37:15.46Z</time></trkpt><trkpt lat="43.6226959" lon="11.1350179"><ele>246.60000000000002</ele><time>2026-03-29T15:37:16.46Z</time></trkpt><trkpt lat="43.6227456" lon="11.1351277"><ele>245.20000000000002</ele><time>2026-03-29T15:37:17.453Z</time></trkpt><trkpt lat="43.6227944" lon="11.1352543"><ele>243.8</ele><time>2026-03-29T15:37:18.458Z</time></trkpt><trkpt lat="43.6228499" lon="11.1353827"><ele>242.4</ele><time>2026-03-29T15:37:19.47Z</time></trkpt><trkpt lat="43.622926" lon="11.1355186"><ele>241.0</ele><time>2026-03-29T15:37:20.495Z</time></trkpt><trkpt lat="43.6230167" lon="11.1356523"><ele>244.75</ele><time>2026-03-29T15:37:21.482Z</time></trkpt><trkpt lat="43.623123" lon="11.1357658"><ele>248.5</ele><time>2026-03-29T15:37:22.446Z</time></trkpt><trkpt lat="43.6232438" lon="11.1358718"><ele>252.25</ele><time>2026-03-29T15:37:23.456Z</time></trkpt><trkpt lat="43.6233673" lon="11.1359762"><ele>256.0</ele><time>2026-03-29T15:37:24.472Z</time></trkpt><trkpt lat="43.6234859" lon="11.1360722"><ele>256.0</ele><time>2026-03-29T15:37:25.45Z</time></trkpt><trkpt lat="43.6235974" lon="11.1361499"><ele>256.0</ele><time>2026-03-29T15:37:26.465Z</time></trkpt><trkpt lat="43.6237029" lon="11.1362156"><ele>256.0</ele><time>2026-03-29T15:37:27.451Z</time></trkpt><trkpt lat="43.6238037" lon="11.1362859"><ele>256.0</ele><time>2026-03-29T15:37:28.468Z</time></trkpt><trkpt lat="43.6239032" lon="11.1363608"><ele>259.0</ele><time>2026-03-29T15:37:29.451Z</time></trkpt><trkpt lat="43.6240081" lon="11.136443"><ele>262.0</ele><time>2026-03-29T15:37:30.475Z</time></trkpt><trkpt lat="43.6241268" lon="11.1365345"><ele>265.0</ele><time>2026-03-29T15:37:31.461Z</time></trkpt><trkpt lat="43.6242638" lon="11.1366145"><ele>268.0</ele><time>2026-03-29T15:37:32.455Z</time></trkpt><trkpt lat="43.6244228" lon="11.1366681"><ele>271.66666666666663</ele><time>2026-03-29T15:37:33.455Z</time></trkpt><trkpt lat="43.6245933" lon="11.136689"><ele>275.3333333333333</ele><time>2026-03-29T15:37:34.462Z</time></trkpt><trkpt lat="43.6247592" lon="11.1366882"><ele>279.0</ele><time>2026-03-29T15:37:35.454Z</time></trkpt><trkpt lat="43.6249056" lon="11.1366708"><ele>279.0</ele><time>2026-03-29T15:37:36.457Z</time></trkpt><trkpt lat="43.6250314" lon="11.1366481"><ele>279.0</ele><time>2026-03-29T15:37:37.467Z</time></trkpt><trkpt lat="43.6251483" lon="11.1366443"><ele>279.0</ele><time>2026-03-29T15:37:38.458Z</time></trkpt><trkpt lat="43.6252544" lon="11.1366753"><ele>279.0</ele><time>2026-03-29T15:37:39.466Z</time></trkpt><trkpt lat="43.6253337" lon="11.1367289"><ele>279.0</ele><time>2026-03-29T15:37:40.452Z</time></trkpt><trkpt lat="43.6253715" lon="11.1368191"><ele>282.0</ele><time>2026-03-29T15:37:41.49Z</time></trkpt><trkpt lat="43.6253814" lon="11.1369465"><ele>285.0</ele><time>2026-03-29T15:37:42.45Z</time></trkpt><trkpt lat="43.6253908" lon="11.1370979"><ele>288.0</ele><time>2026-03-29T15:37:43.456Z</time></trkpt><trkpt lat="43.6254182" lon="11.1372265"><ele>291.0</ele><time>2026-03-29T15:37:44.451Z</time></trkpt><trkpt lat="43.6254827" lon="11.13732"><ele>294.0</ele><time>2026-03-29T15:37:45.479Z</time></trkpt><trkpt lat="43.6255859" lon="11.1374002"><ele>294.0</ele><time>2026-03-29T15:37:46.458Z</time></trkpt><trkpt lat="43.625693" lon="11.1374772"><ele>294.0</ele><time>2026-03-29T15:37:47.444Z</time></trkpt><trkpt lat="43.625792" lon="11.1375516"><ele>294.0</ele><time>2026-03-29T15:37:48.444Z</time></trkpt><trkpt lat="43.6258873" lon="11.1376322"><ele>294.0</ele><time>2026-03-29T15:37:49.453Z</time></trkpt><trkpt lat="43.6259826" lon="11.1377087"><ele>294.0</ele><time>2026-03-29T15:37:50.48Z</time></trkpt><trkpt lat="43.6260798" lon="11.1377843"><ele>294.0</ele><time>2026-03-29T15:37:51.445Z</time></trkpt><trkpt lat="43.6261771" lon="11.1378653"><ele>294.0</ele><time>2026-03-29T15:37:52.477Z</time></trkpt><trkpt lat="43.6262687" lon="11.1379554"><ele>294.0</ele><time>2026-03-29T15:37:53.473Z</time></trkpt><trkpt lat="43.6263564" lon="11.1380535"><ele>296.4</ele><time>2026-03-29T15:37:54.453Z</time></trkpt><trkpt lat="43.6264389" lon="11.1381563"><ele>298.79999999999995</ele><time>2026-03-29T15:37:55.464Z</time></trkpt><trkpt lat="43.6265138" lon="11.1382633"><ele>301.20000000000005</ele><time>2026-03-29T15:37:56.446Z</time></trkpt><trkpt lat="43.6265837" lon="11.1383798"><ele>303.6</ele><time>2026-03-29T15:37:57.45Z</time></trkpt><trkpt lat="43.6266488" lon="11.1385014"><ele>306.0</ele><time>2026-03-29T15:37:58.444Z</time></trkpt><trkpt lat="43.6267077" lon="11.1386204"><ele>306.0</ele><time>2026-03-29T15:37:59.448Z</time></trkpt><trkpt lat="43.6267527" lon="11.138723"><ele>306.0</ele><time>2026-03-29T15:38:00.475Z</time></trkpt><trkpt lat="43.6268092" lon="11.1388511"><ele>306.0</ele><time>2026-03-29T15:38:02.449Z</time></trkpt></trkseg></trk></gpx>